Darstellungsparameter: Aktuell verwendete Einstellungen:
Skalierung der Graphiken ... ?
xyx+y,   Skalierungsfaktor:      Skalierung: Modus: x, Faktor: 1
Darstellungszeitraum ... ?
Vom - - bis: - -   Zeitraum: 07.11.2019 - 13.11.2019
Min/Max/Avg-Anzeige ... ?
Zeige MMA aktuell
Zeige MMA Monat
Zeige MMA alles
Zeige --A aktuell
Zeige --A Monat
Zeige --A alles
Keine MMA-Anzeige
MMA:
Average (ber die Originaldaten)
MMA-Basis: 07.11.2019 - 13.11.2019
Quicknavigation für Darstellung... ?
Tage:      1T, 2T, 3T, 5T -1T -2T -3T -5T +1T +2T +3T +5T
Wochen: 1W, 2W, 3W -1W -2W -3W +1W +2W +3W
Monate: 1M, 3M, 6M -1M -3M -6M +1M +3M +6M
Jahre:    1J, 3J, 5J, 10J -1J -3J -5J -10J +1J +3J +5J +10J
Nutze für die Darstellung ... ?
Originaldaten oder Mittelwerte auf ...
Stundenbasis Tagesbasis Wochenbasis
Monatsbasis Jahresbasis      Datenbasis: Original-Daten
Darstellen als:
Statistik (Auto) Statistik J:M      Darstellung:
Zur Graphik,    zurück zur Übersicht aller Sensoren.
 
Tabellarische Datenbersicht: ?
 
Sensor: Nr:Datum:Temp:Abs-Feuchte:Windchill:Wind:
Aussen-T/F 1 07-11-2019 00:00:00 8.8 C 8.44 g/m*3 8.8 C 0 km/h
2 07-11-2019 00:05:00 8.8 C 8.44 g/m*3 8.8 C 0 km/h
3 07-11-2019 00:10:00 8.7 C 8.39 g/m*3 8.7 C 0 km/h
4 07-11-2019 00:15:00 8.7 C 8.39 g/m*3 8.7 C 0 km/h
5 07-11-2019 00:20:00 8.6 C 8.34 g/m*3 8.6 C 0 km/h
6 07-11-2019 00:25:00 8.6 C 8.34 g/m*3 8.6 C 0 km/h
7 07-11-2019 00:30:00 8.4 C 8.23 g/m*3 8.4 C 0 km/h
8 07-11-2019 00:35:00 8.4 C 8.23 g/m*3 8.4 C 0 km/h
9 07-11-2019 00:40:00 8.3 C 8.18 g/m*3 8.3 C 0 km/h
10 07-11-2019 00:45:00 8.3 C 8.18 g/m*3 8.3 C 0 km/h
11 07-11-2019 00:50:00 8.3 C 8.18 g/m*3 8.3 C 0 km/h
12 07-11-2019 00:55:00 8.3 C 8.18 g/m*3 8.3 C 0 km/h
13 07-11-2019 01:00:00 8.2 C 8.12 g/m*3 8.2 C 0 km/h
14 07-11-2019 01:05:00 8.2 C 8.12 g/m*3 8.2 C 0 km/h
15 07-11-2019 01:10:00 8.2 C 8.12 g/m*3 8.2 C 0 km/h
16 07-11-2019 01:15:00 8.2 C 8.12 g/m*3 8.2 C 0 km/h
17 07-11-2019 01:20:00 8.1 C 8.07 g/m*3 8.1 C 0 km/h
18 07-11-2019 01:25:00 8.1 C 8.07 g/m*3 8.1 C 0 km/h
19 07-11-2019 01:30:00 8.1 C 8.07 g/m*3 8.1 C 0 km/h
20 07-11-2019 01:35:00 8 C 8.02 g/m*3 8 C 0 km/h
21 07-11-2019 01:40:00 8 C 8.02 g/m*3 8 C 0 km/h
22 07-11-2019 01:45:00 7.9 C 7.97 g/m*3 7.9 C 0 km/h
23 07-11-2019 01:50:00 7.9 C 7.97 g/m*3 7.9 C 0 km/h
24 07-11-2019 01:55:00 7.9 C 7.97 g/m*3 7.9 C 0 km/h
25 07-11-2019 02:00:00 7.9 C 7.97 g/m*3 7.9 C 0 km/h
Sensor: Nr:Datum:Temp:Abs-Feuchte:Windchill:Wind:
Aussen-T/F 26 07-11-2019 02:05:00 7.9 C 7.97 g/m*3 7.9 C 0 km/h
27 07-11-2019 02:10:00 7.9 C 7.97 g/m*3 7.9 C 0 km/h
28 07-11-2019 02:15:00 7.9 C 7.97 g/m*3 7.9 C 0 km/h
29 07-11-2019 02:20:00 7.9 C 7.97 g/m*3 7.9 C 0 km/h
30 07-11-2019 02:25:00 7.9 C 7.97 g/m*3 7.9 C 0 km/h
31 07-11-2019 02:30:00 8 C 8.02 g/m*3 8 C 0 km/h
32 07-11-2019 02:35:00 8 C 8.02 g/m*3 8 C 0 km/h
33 07-11-2019 02:40:00 8.1 C 8.07 g/m*3 8.1 C 0 km/h
34 07-11-2019 02:45:00 8.1 C 8.07 g/m*3 8.1 C 0 km/h
35 07-11-2019 02:50:00 8.1 C 8.07 g/m*3 8.1 C 0 km/h
36 07-11-2019 02:55:00 8.1 C 8.07 g/m*3 8.1 C 0 km/h
37 07-11-2019 03:00:00 8.1 C 8.07 g/m*3 8.1 C 0 km/h
38 07-11-2019 03:05:00 8.1 C 8.07 g/m*3 8.1 C 0 km/h
39 07-11-2019 03:10:00 8.1 C 8.07 g/m*3 8.1 C 0 km/h
40 07-11-2019 03:15:00 8.1 C 8.07 g/m*3 8.1 C 0 km/h
41 07-11-2019 03:20:00 8 C 8.02 g/m*3 8 C 0 km/h
42 07-11-2019 03:25:00 7.9 C 7.97 g/m*3 7.9 C 0 km/h
43 07-11-2019 03:30:00 7.9 C 7.97 g/m*3 7.9 C 0 km/h
44 07-11-2019 03:35:00 7.8 C 7.92 g/m*3 7.8 C 0 km/h
45 07-11-2019 03:40:00 7.8 C 7.92 g/m*3 7.8 C 0 km/h
46 07-11-2019 03:45:00 7.8 C 7.92 g/m*3 7.8 C 0 km/h
47 07-11-2019 03:50:00 7.7 C 7.87 g/m*3 7.7 C 0 km/h
48 07-11-2019 03:55:00 7.7 C 7.87 g/m*3 7.7 C 0 km/h
49 07-11-2019 04:00:00 7.6 C 7.81 g/m*3 7.6 C 0 km/h
50 07-11-2019 04:05:00 7.6 C 7.81 g/m*3 7.6 C 0 km/h
Sensor: Nr:Datum:Temp:Abs-Feuchte:Windchill:Wind:
Aussen-T/F 51 07-11-2019 04:10:00 7.5 C 7.76 g/m*3 7.5 C 0 km/h
52 07-11-2019 04:15:00 7.5 C 7.76 g/m*3 7.5 C 0 km/h
53 07-11-2019 04:20:00 7.6 C 7.81 g/m*3 7.6 C 0 km/h
54 07-11-2019 04:25:00 7.5 C 7.76 g/m*3 7.5 C 0 km/h
55 07-11-2019 04:30:00 7.5 C 7.76 g/m*3 7.5 C 0 km/h
56 07-11-2019 04:35:00 7.4 C 7.71 g/m*3 7.4 C 0 km/h
57 07-11-2019 04:40:00 7.4 C 7.71 g/m*3 7.4 C 0 km/h
58 07-11-2019 04:45:00 7.5 C 7.76 g/m*3 7.5 C 0 km/h
59 07-11-2019 04:50:00 7.4 C 7.71 g/m*3 7.4 C 0 km/h
60 07-11-2019 04:55:00 7.4 C 7.71 g/m*3 7.4 C 0 km/h
61 07-11-2019 05:00:00 7.6 C 7.81 g/m*3 7.6 C 4.8 km/h
62 07-11-2019 05:05:00 7.7 C 7.87 g/m*3 7.7 C 0 km/h
63 07-11-2019 05:10:00 7.7 C 7.87 g/m*3 7.7 C 0 km/h
64 07-11-2019 05:15:00 7.7 C 7.87 g/m*3 7.7 C 0 km/h
65 07-11-2019 05:20:00 7.6 C 7.81 g/m*3 7.6 C 0 km/h
66 07-11-2019 05:25:00 7.6 C 7.81 g/m*3 7.6 C 0 km/h
67 07-11-2019 05:30:00 7.5 C 7.76 g/m*3 7.5 C 0 km/h
68 07-11-2019 05:35:00 7.5 C 7.76 g/m*3 7.5 C 0 km/h
69 07-11-2019 05:40:00 7.5 C 7.76 g/m*3 7.5 C 0 km/h
70 07-11-2019 05:45:00 7.4 C 7.71 g/m*3 7.4 C 0 km/h
71 07-11-2019 05:50:00 7.4 C 7.71 g/m*3 7.4 C 0 km/h
72 07-11-2019 05:55:00 7.4 C 7.71 g/m*3 7.4 C 0 km/h
73 07-11-2019 06:00:00 7.4 C 7.71 g/m*3 7.4 C 0 km/h
74 07-11-2019 06:05:00 7.4 C 7.71 g/m*3 7.4 C 0 km/h
75 07-11-2019 06:10:00 7.4 C 7.71 g/m*3 7.4 C 0 km/h
Sensor: Nr:Datum:Temp:Abs-Feuchte:Windchill:Wind:
Aussen-T/F 76 07-11-2019 06:15:00 7.4 C 7.71 g/m*3 7.4 C 0 km/h
77 07-11-2019 06:20:00 7.4 C 7.71 g/m*3 7.4 C 0 km/h
78 07-11-2019 06:25:00 7.4 C 7.71 g/m*3 7.4 C 0 km/h
79 07-11-2019 06:30:00 7.4 C 7.71 g/m*3 7.4 C 0 km/h
80 07-11-2019 06:35:00 7.4 C 7.71 g/m*3 7.4 C 0 km/h
81 07-11-2019 06:40:00 7.3 C 7.66 g/m*3 7.3 C 0 km/h
82 07-11-2019 06:45:00 7.3 C 7.66 g/m*3 7.3 C 0 km/h
83 07-11-2019 06:50:00 7.3 C 7.66 g/m*3 7.3 C 0 km/h
84 07-11-2019 06:55:00 7.4 C 7.71 g/m*3 7.4 C 0 km/h
85 07-11-2019 07:00:00 7.4 C 7.71 g/m*3 7.4 C 0 km/h
86 07-11-2019 07:05:00 7.5 C 7.76 g/m*3 7.5 C 0 km/h
87 07-11-2019 07:10:00 7.5 C 7.76 g/m*3 7.5 C 0 km/h
88 07-11-2019 07:15:00 7.5 C 7.76 g/m*3 7.5 C 0 km/h
89 07-11-2019 07:20:00 7.5 C 7.76 g/m*3 7.5 C 0 km/h
90 07-11-2019 07:25:00 7.5 C 7.76 g/m*3 7.5 C 0 km/h
91 07-11-2019 07:30:00 7.6 C 7.81 g/m*3 7.6 C 0 km/h
92 07-11-2019 07:35:00 7.6 C 7.9 g/m*3 7.6 C 0 km/h
93 07-11-2019 07:40:00 7.7 C 7.95 g/m*3 7.7 C 1.6 km/h
94 07-11-2019 07:45:00 7.7 C 7.95 g/m*3 7.7 C 0 km/h
95 07-11-2019 07:50:00 7.8 C 8 g/m*3 7.8 C 3.2 km/h
96 07-11-2019 07:55:00 7.8 C 8 g/m*3 7.8 C 0 km/h
97 07-11-2019 08:00:00 7.9 C 8.05 g/m*3 7.9 C 0 km/h
98 07-11-2019 08:05:00 8 C 8.1 g/m*3 8 C 1.6 km/h
99 07-11-2019 08:10:00 8.1 C 8.15 g/m*3 8.1 C 0 km/h
100 07-11-2019 08:15:00 8.2 C 8.21 g/m*3 8.2 C 0 km/h
Sensor: Nr:Datum:Temp:Abs-Feuchte:Windchill:Wind:
Aussen-T/F 101 07-11-2019 08:20:00 8.2 C 8.21 g/m*3 8.2 C 0 km/h
102 07-11-2019 08:25:00 8.3 C 8.26 g/m*3 8.3 C 0 km/h
103 07-11-2019 08:30:00 8.3 C 8.26 g/m*3 8.3 C 0 km/h
104 07-11-2019 08:35:00 8.3 C 8.26 g/m*3 8.3 C 1.6 km/h
105 07-11-2019 08:40:00 8.3 C 8.26 g/m*3 8.3 C 0 km/h
106 07-11-2019 08:45:00 8.4 C 8.31 g/m*3 8.4 C 0 km/h
107 07-11-2019 08:50:00 8.4 C 8.31 g/m*3 8.4 C 0 km/h
108 07-11-2019 08:55:00 8.5 C 8.37 g/m*3 8.5 C 0 km/h
109 07-11-2019 09:00:00 8.6 C 8.42 g/m*3 8.6 C 0 km/h
110 07-11-2019 09:05:00 8.7 C 8.48 g/m*3 8.7 C 4.8 km/h
111 07-11-2019 09:10:00 8.7 C 8.48 g/m*3 8.7 C 0 km/h
112 07-11-2019 09:15:00 8.7 C 8.48 g/m*3 8.7 C 3.2 km/h
113 07-11-2019 09:20:00 8.8 C 8.53 g/m*3 8.8 C 0 km/h
114 07-11-2019 09:25:00 8.9 C 8.58 g/m*3 8.9 C 0 km/h
115 07-11-2019 09:30:00 8.9 C 8.58 g/m*3 8.9 C 1.6 km/h
116 07-11-2019 09:35:00 8.9 C 8.58 g/m*3 8.9 C 1.6 km/h
117 07-11-2019 09:40:00 9 C 8.64 g/m*3 9 C 0 km/h
118 07-11-2019 09:45:00 9 C 8.64 g/m*3 9 C 0 km/h
119 07-11-2019 09:50:00 9.1 C 8.7 g/m*3 9.1 C 0 km/h
120 07-11-2019 09:55:00 9.2 C 8.75 g/m*3 9.2 C 1.6 km/h
121 07-11-2019 10:00:00 9.2 C 8.75 g/m*3 9.2 C 3.2 km/h
122 07-11-2019 10:05:00 9.3 C 8.81 g/m*3 9.3 C 3.2 km/h
123 07-11-2019 10:10:00 9.3 C 8.81 g/m*3 9.3 C 3.2 km/h
124 07-11-2019 10:15:00 9.3 C 8.81 g/m*3 9.3 C 0 km/h
125 07-11-2019 10:20:00 9.3 C 8.81 g/m*3 9.3 C 0 km/h
Sensor: Nr:Datum:Temp:Abs-Feuchte:Windchill:Wind:
Aussen-T/F 126 07-11-2019 10:25:00 9.4 C 8.86 g/m*3 9.4 C 3.2 km/h
127 07-11-2019 10:30:00 9.3 C 8.81 g/m*3 9.3 C 1.6 km/h
128 07-11-2019 10:35:00 9.3 C 8.81 g/m*3 9.3 C 3.2 km/h
129 07-11-2019 10:40:00 9.3 C 8.72 g/m*3 8.16 C 8.1 km/h
130 07-11-2019 10:45:00 9.3 C 8.72 g/m*3 8.16 C 8.1 km/h
131 07-11-2019 10:50:00 9.3 C 8.72 g/m*3 9.3 C 3.2 km/h
132 07-11-2019 10:55:00 9.2 C 8.66 g/m*3 9.2 C 3.2 km/h
133 07-11-2019 11:00:00 9.3 C 8.72 g/m*3 9.3 C 1.6 km/h
134 07-11-2019 11:05:00 9.3 C 8.72 g/m*3 9.3 C 3.2 km/h
135 07-11-2019 11:10:00 9.4 C 8.77 g/m*3 9.4 C 1.6 km/h
136 07-11-2019 11:15:00 9.4 C 8.68 g/m*3 8.68 C 6.4 km/h
137 07-11-2019 11:20:00 9.4 C 8.68 g/m*3 9.4 C 0 km/h
138 07-11-2019 11:25:00 9.5 C 8.74 g/m*3 9.5 C 1.6 km/h
139 07-11-2019 11:30:00 9.5 C 8.74 g/m*3 9.5 C 0 km/h
140 07-11-2019 11:35:00 9.5 C 8.74 g/m*3 9.5 C 3.2 km/h
141 07-11-2019 11:40:00 9.4 C 8.68 g/m*3 8.68 C 6.4 km/h
142 07-11-2019 11:45:00 9.3 C 8.63 g/m*3 9.3 C 1.6 km/h
143 07-11-2019 11:50:00 9.4 C 8.59 g/m*3 9.4 C 3.2 km/h
144 07-11-2019 11:55:00 9.3 C 8.54 g/m*3 9.3 C 4.8 km/h
145 07-11-2019 12:00:00 9.3 C 8.54 g/m*3 9.3 C 1.6 km/h
146 07-11-2019 12:05:00 9.4 C 8.59 g/m*3 9.4 C 0 km/h
147 07-11-2019 12:10:00 9.4 C 8.59 g/m*3 9.4 C 0 km/h
148 07-11-2019 12:15:00 9.4 C 8.68 g/m*3 9.4 C 0 km/h
149 07-11-2019 12:20:00 9.4 C 8.68 g/m*3 9.4 C 0 km/h
150 07-11-2019 12:25:00 9.4 C 8.59 g/m*3 9.4 C 3.2 km/h
Sensor: Nr:Datum:Temp:Abs-Feuchte:Windchill:Wind:
Aussen-T/F 151 07-11-2019 12:30:00 9.3 C 8.54 g/m*3 7.85 C 9.7 km/h
152 07-11-2019 12:35:00 9.2 C 8.39 g/m*3 7.73 C 9.7 km/h
153 07-11-2019 12:40:00 9.2 C 8.39 g/m*3 9.2 C 3.2 km/h
154 07-11-2019 12:45:00 9.2 C 8.39 g/m*3 9.2 C 3.2 km/h
155 07-11-2019 12:50:00 9.3 C 8.45 g/m*3 9.3 C 3.2 km/h
156 07-11-2019 12:55:00 9.3 C 8.45 g/m*3 9.3 C 1.6 km/h
157 07-11-2019 13:00:00 9.4 C 8.5 g/m*3 8.68 C 6.4 km/h
158 07-11-2019 13:05:00 9.4 C 8.41 g/m*3 9.4 C 3.2 km/h
159 07-11-2019 13:10:00 9.4 C 8.41 g/m*3 9.4 C 3.2 km/h
160 07-11-2019 13:15:00 9.6 C 8.52 g/m*3 9.6 C 4.8 km/h
161 07-11-2019 13:20:00 9.7 C 8.67 g/m*3 9.7 C 1.6 km/h
162 07-11-2019 13:25:00 9.6 C 8.52 g/m*3 8.52 C 8.1 km/h
163 07-11-2019 13:30:00 9.6 C 8.52 g/m*3 8.91 C 6.4 km/h
164 07-11-2019 13:35:00 9.6 C 8.52 g/m*3 9.6 C 3.2 km/h
165 07-11-2019 13:40:00 9.7 C 8.57 g/m*3 9.7 C 0 km/h
166 07-11-2019 13:45:00 9.9 C 8.78 g/m*3 9.9 C 1.6 km/h
167 07-11-2019 13:50:00 9.9 C 8.68 g/m*3 9.9 C 3.2 km/h
168 07-11-2019 13:55:00 9.7 C 8.48 g/m*3 9.02 C 6.4 km/h
169 07-11-2019 14:00:00 9.6 C 8.34 g/m*3 8.91 C 6.4 km/h
170 07-11-2019 14:05:00 9.4 C 8.23 g/m*3 8.68 C 6.4 km/h
171 07-11-2019 14:10:00 9.3 C 8.27 g/m*3 9.3 C 3.2 km/h
172 07-11-2019 14:15:00 9.3 C 8.27 g/m*3 8.56 C 6.4 km/h
173 07-11-2019 14:20:00 9.2 C 8.22 g/m*3 9.2 C 1.6 km/h
174 07-11-2019 14:25:00 9.3 C 8.36 g/m*3 8.16 C 8.1 km/h
175 07-11-2019 14:30:00 9.3 C 8.36 g/m*3 9.3 C 4.8 km/h
Sensor: Nr:Datum:Temp:Abs-Feuchte:Windchill:Wind:
Aussen-T/F 176 07-11-2019 14:35:00 9.3 C 8.36 g/m*3 8.16 C 8.1 km/h
177 07-11-2019 14:40:00 9.3 C 8.36 g/m*3 9.3 C 3.2 km/h
178 07-11-2019 14:45:00 9.4 C 8.41 g/m*3 9.4 C 1.6 km/h
179 07-11-2019 14:50:00 9.5 C 8.47 g/m*3 9.5 C 1.6 km/h
180 07-11-2019 14:55:00 9.6 C 8.52 g/m*3 9.6 C 1.6 km/h
181 07-11-2019 15:00:00 9.6 C 8.52 g/m*3 7.94 C 11.3 km/h
182 07-11-2019 15:05:00 9.7 C 8.57 g/m*3 9.7 C 3.2 km/h
183 07-11-2019 15:10:00 9.6 C 8.43 g/m*3 9.6 C 4.8 km/h
184 07-11-2019 15:15:00 9.7 C 8.57 g/m*3 9.7 C 4.8 km/h
185 07-11-2019 15:20:00 9.7 C 8.57 g/m*3 9.02 C 6.4 km/h
186 07-11-2019 15:25:00 9.8 C 8.63 g/m*3 9.8 C 0 km/h
187 07-11-2019 15:30:00 9.8 C 8.63 g/m*3 9.8 C 3.2 km/h
188 07-11-2019 15:35:00 9.9 C 8.78 g/m*3 9.9 C 0 km/h
189 07-11-2019 15:40:00 9.9 C 8.78 g/m*3 9.9 C 0 km/h
190 07-11-2019 15:45:00 9.9 C 8.78 g/m*3 9.9 C 0 km/h
191 07-11-2019 15:50:00 9.8 C 8.72 g/m*3 9.8 C 4.8 km/h
192 07-11-2019 15:55:00 9.8 C 8.72 g/m*3 7.73 C 14.5 km/h
193 07-11-2019 16:00:00 9.8 C 8.54 g/m*3 7.73 C 14.5 km/h
194 07-11-2019 16:05:00 9.8 C 8.54 g/m*3 8.18 C 11.3 km/h
195 07-11-2019 16:10:00 9.8 C 8.44 g/m*3 8.18 C 11.3 km/h
196 07-11-2019 16:15:00 9.8 C 8.35 g/m*3 7.73 C 14.5 km/h
197 07-11-2019 16:20:00 9.8 C 8.26 g/m*3 7.73 C 14.5 km/h
198 07-11-2019 16:25:00 9.8 C 8.26 g/m*3 7.54 C 16.1 km/h
199 07-11-2019 16:30:00 9.7 C 8.11 g/m*3 7.82 C 12.9 km/h
200 07-11-2019 16:35:00 9.6 C 8.06 g/m*3 6.94 C 19.3 km/h
Sensor: Nr:Datum:Temp:Abs-Feuchte:Windchill:Wind:
Aussen-T/F 201 07-11-2019 16:40:00 9.5 C 8.1 g/m*3 7.58 C 12.9 km/h
202 07-11-2019 16:45:00 9.4 C 8.05 g/m*3 7.04 C 16.1 km/h
203 07-11-2019 16:50:00 9.4 C 8.05 g/m*3 8.68 C 6.4 km/h
204 07-11-2019 16:55:00 9.4 C 8.14 g/m*3 7.46 C 12.9 km/h
205 07-11-2019 17:00:00 9.3 C 8.09 g/m*3 6.73 C 17.7 km/h
206 07-11-2019 17:05:00 9.3 C 8.09 g/m*3 8.56 C 6.4 km/h
207 07-11-2019 17:10:00 9.2 C 8.04 g/m*3 9.2 C 0 km/h
208 07-11-2019 17:15:00 8.9 C 7.88 g/m*3 8.9 C 3.2 km/h
209 07-11-2019 17:20:00 8.6 C 7.73 g/m*3 8.6 C 3.2 km/h
210 07-11-2019 17:25:00 8.3 C 7.67 g/m*3 8.3 C 3.2 km/h
211 07-11-2019 17:30:00 8.2 C 7.62 g/m*3 8.2 C 4.8 km/h
212 07-11-2019 17:35:00 8.2 C 7.54 g/m*3 5.76 C 14.5 km/h
213 07-11-2019 17:40:00 8.2 C 7.54 g/m*3 6.54 C 9.7 km/h
214 07-11-2019 17:45:00 8.2 C 7.54 g/m*3 6.54 C 9.7 km/h
215 07-11-2019 17:50:00 8.2 C 7.54 g/m*3 6.87 C 8.1 km/h
216 07-11-2019 17:55:00 8.1 C 7.49 g/m*3 6.75 C 8.1 km/h
217 07-11-2019 18:00:00 8.1 C 7.49 g/m*3 6.42 C 9.7 km/h
218 07-11-2019 18:05:00 7.9 C 7.39 g/m*3 7.9 C 1.6 km/h
219 07-11-2019 18:10:00 7.8 C 7.35 g/m*3 7.8 C 0 km/h
220 07-11-2019 18:15:00 7.6 C 7.33 g/m*3 7.6 C 0 km/h
221 07-11-2019 18:20:00 7.4 C 7.24 g/m*3 7.4 C 0 km/h
222 07-11-2019 18:25:00 7.2 C 7.14 g/m*3 7.2 C 0 km/h
223 07-11-2019 18:30:00 7.1 C 7.18 g/m*3 7.1 C 1.6 km/h
224 07-11-2019 18:35:00 6.9 C 7.08 g/m*3 6.9 C 0 km/h
225 07-11-2019 18:40:00 6.8 C 7.11 g/m*3 6.8 C 0 km/h
Sensor: Nr:Datum:Temp:Abs-Feuchte:Windchill:Wind:
Aussen-T/F 226 07-11-2019 18:45:00 6.7 C 7.07 g/m*3 6.7 C 0 km/h
227 07-11-2019 18:50:00 6.7 C 7.14 g/m*3 6.7 C 0 km/h
228 07-11-2019 18:55:00 6.7 C 7.14 g/m*3 6.7 C 0 km/h
229 07-11-2019 19:00:00 6.7 C 7.14 g/m*3 6.7 C 0 km/h
230 07-11-2019 19:05:00 6.7 C 7.14 g/m*3 6.7 C 0 km/h
231 07-11-2019 19:10:00 6.7 C 7.22 g/m*3 6.7 C 0 km/h
232 07-11-2019 19:15:00 6.8 C 7.27 g/m*3 6.8 C 3.2 km/h
233 07-11-2019 19:20:00 6.9 C 7.31 g/m*3 6.9 C 1.6 km/h
234 07-11-2019 19:25:00 7 C 7.36 g/m*3 7 C 3.2 km/h
235 07-11-2019 19:30:00 7 C 7.36 g/m*3 7 C 0 km/h
236 07-11-2019 19:35:00 6.9 C 7.24 g/m*3 6.9 C 0 km/h
237 07-11-2019 19:40:00 6.8 C 7.19 g/m*3 6.8 C 1.6 km/h
238 07-11-2019 19:45:00 6.7 C 7.14 g/m*3 6.7 C 0 km/h
239 07-11-2019 19:50:00 6.6 C 7.1 g/m*3 6.6 C 0 km/h
240 07-11-2019 19:55:00 6.4 C 7 g/m*3 6.4 C 0 km/h
241 07-11-2019 20:00:00 6.3 C 6.96 g/m*3 6.3 C 0 km/h
242 07-11-2019 20:05:00 6.2 C 6.91 g/m*3 6.2 C 0 km/h
243 07-11-2019 20:10:00 6.1 C 6.87 g/m*3 6.1 C 0 km/h
244 07-11-2019 20:15:00 6.1 C 6.94 g/m*3 6.1 C 0 km/h
245 07-11-2019 20:20:00 6.2 C 6.99 g/m*3 6.2 C 0 km/h
246 07-11-2019 20:25:00 6.3 C 7.03 g/m*3 6.3 C 0 km/h
247 07-11-2019 20:30:00 6.3 C 7.03 g/m*3 6.3 C 0 km/h
248 07-11-2019 20:35:00 6.3 C 7.03 g/m*3 6.3 C 0 km/h
249 07-11-2019 20:40:00 6.2 C 6.99 g/m*3 6.2 C 3.2 km/h
250 07-11-2019 20:45:00 6.1 C 6.94 g/m*3 6.1 C 1.6 km/h
Sensor: Nr:Datum:Temp:Abs-Feuchte:Windchill:Wind:
Aussen-T/F 251 07-11-2019 20:50:00 6.1 C 6.94 g/m*3 6.1 C 0 km/h
252 07-11-2019 20:55:00 6 C 6.9 g/m*3 6 C 0 km/h
253 07-11-2019 21:00:00 5.9 C 6.85 g/m*3 5.9 C 0 km/h
254 07-11-2019 21:05:00 5.8 C 6.81 g/m*3 5.8 C 0 km/h
255 07-11-2019 21:10:00 5.7 C 6.76 g/m*3 5.7 C 0 km/h
256 07-11-2019 21:15:00 5.7 C 6.76 g/m*3 5.7 C 0 km/h
257 07-11-2019 21:20:00 5.7 C 6.76 g/m*3 5.7 C 1.6 km/h
258 07-11-2019 21:25:00 5.6 C 6.72 g/m*3 5.6 C 0 km/h
259 07-11-2019 21:30:00 5.6 C 6.72 g/m*3 5.6 C 0 km/h
260 07-11-2019 21:35:00 5.6 C 6.79 g/m*3 5.6 C 0 km/h
261 07-11-2019 21:40:00 5.5 C 6.74 g/m*3 5.5 C 0 km/h
262 07-11-2019 21:45:00 5.6 C 6.79 g/m*3 5.6 C 0 km/h
263 07-11-2019 21:50:00 5.6 C 6.79 g/m*3 5.6 C 0 km/h
264 07-11-2019 21:55:00 5.6 C 6.79 g/m*3 5.6 C 0 km/h
265 07-11-2019 22:00:00 5.6 C 6.79 g/m*3 5.6 C 0 km/h
266 07-11-2019 22:05:00 5.5 C 6.74 g/m*3 5.5 C 0 km/h
267 07-11-2019 22:10:00 5.4 C 6.7 g/m*3 5.4 C 0 km/h
268 07-11-2019 22:15:00 5.3 C 6.65 g/m*3 5.3 C 0 km/h
269 07-11-2019 22:20:00 5.2 C 6.61 g/m*3 5.2 C 0 km/h
270 07-11-2019 22:25:00 5 C 6.46 g/m*3 5 C 0 km/h
271 07-11-2019 22:30:00 4.9 C 6.41 g/m*3 4.9 C 0 km/h
272 07-11-2019 22:35:00 4.8 C 6.44 g/m*3 4.8 C 0 km/h
273 07-11-2019 22:40:00 4.6 C 6.29 g/m*3 4.6 C 0 km/h
274 07-11-2019 22:45:00 4.6 C 6.35 g/m*3 4.6 C 0 km/h
275 07-11-2019 22:50:00 4.6 C 6.35 g/m*3 4.6 C 0 km/h
Sensor: Nr:Datum:Temp:Abs-Feuchte:Windchill:Wind:
Aussen-T/F 276 07-11-2019 22:55:00 4.6 C 6.35 g/m*3 4.6 C 0 km/h
277 07-11-2019 23:00:00 4.6 C 6.35 g/m*3 4.6 C 0 km/h
278 07-11-2019 23:05:00 4.7 C 6.39 g/m*3 4.7 C 0 km/h
279 07-11-2019 23:10:00 4.8 C 6.44 g/m*3 4.8 C 0 km/h
280 07-11-2019 23:15:00 4.9 C 6.48 g/m*3 4.9 C 0 km/h
281 07-11-2019 23:20:00 5.1 C 6.63 g/m*3 5.1 C 0 km/h
282 07-11-2019 23:25:00 5.1 C 6.63 g/m*3 5.1 C 0 km/h
283 07-11-2019 23:30:00 5.2 C 6.68 g/m*3 5.2 C 1.6 km/h
284 07-11-2019 23:35:00 5.2 C 6.68 g/m*3 5.2 C 0 km/h
285 07-11-2019 23:40:00 5.2 C 6.61 g/m*3 5.2 C 1.6 km/h
286 07-11-2019 23:45:00 5.2 C 6.61 g/m*3 5.2 C 0 km/h
287 07-11-2019 23:50:00 5.2 C 6.61 g/m*3 5.2 C 0 km/h
288 07-11-2019 23:55:00 5.1 C 6.57 g/m*3 5.1 C 0 km/h
289 08-11-2019 00:00:00 5.1 C 6.57 g/m*3 5.1 C 0 km/h
290 08-11-2019 00:05:00 4.9 C 6.48 g/m*3 4.9 C 1.6 km/h
291 08-11-2019 00:10:00 4.9 C 6.48 g/m*3 4.9 C 0 km/h
292 08-11-2019 00:15:00 4.8 C 6.44 g/m*3 4.8 C 0 km/h
293 08-11-2019 00:20:00 4.8 C 6.44 g/m*3 4.8 C 0 km/h
294 08-11-2019 00:25:00 4.7 C 6.39 g/m*3 4.7 C 0 km/h
295 08-11-2019 00:30:00 4.6 C 6.35 g/m*3 4.6 C 1.6 km/h
296 08-11-2019 00:35:00 4.6 C 6.35 g/m*3 4.6 C 0 km/h
297 08-11-2019 00:40:00 4.5 C 6.31 g/m*3 4.5 C 0 km/h
298 08-11-2019 00:45:00 4.4 C 6.27 g/m*3 4.4 C 0 km/h
299 08-11-2019 00:50:00 4.4 C 6.27 g/m*3 4.4 C 0 km/h
300 08-11-2019 00:55:00 4.4 C 6.27 g/m*3 4.4 C 0 km/h
Sensor: Nr:Datum:Temp:Abs-Feuchte:Windchill:Wind:
Aussen-T/F 301 08-11-2019 01:00:00 4.3 C 6.23 g/m*3 4.3 C 1.6 km/h
302 08-11-2019 01:05:00 4.3 C 6.23 g/m*3 4.3 C 0 km/h
303 08-11-2019 01:10:00 4.3 C 6.23 g/m*3 4.3 C 0 km/h
304 08-11-2019 01:15:00 4.3 C 6.23 g/m*3 4.3 C 0 km/h
305 08-11-2019 01:20:00 4.3 C 6.23 g/m*3 4.3 C 0 km/h
306 08-11-2019 01:25:00 4.3 C 6.23 g/m*3 4.3 C 1.6 km/h
307 08-11-2019 01:30:00 4.3 C 6.23 g/m*3 4.3 C 0 km/h
308 08-11-2019 01:35:00 4.3 C 6.23 g/m*3 4.3 C 0 km/h
309 08-11-2019 01:40:00 4.2 C 6.19 g/m*3 4.2 C 0 km/h
310 08-11-2019 01:45:00 4.2 C 6.19 g/m*3 4.2 C 0 km/h
311 08-11-2019 01:50:00 4.1 C 6.14 g/m*3 4.1 C 0 km/h
312 08-11-2019 01:55:00 4 C 6.1 g/m*3 4 C 0 km/h
313 08-11-2019 02:00:00 3.8 C 6.02 g/m*3 3.8 C 0 km/h
314 08-11-2019 02:05:00 3.6 C 5.94 g/m*3 3.6 C 0 km/h
315 08-11-2019 02:10:00 3.4 C 5.86 g/m*3 3.4 C 0 km/h
316 08-11-2019 02:15:00 3.3 C 5.82 g/m*3 3.3 C 0 km/h
317 08-11-2019 02:20:00 3.3 C 5.82 g/m*3 3.3 C 0 km/h
318 08-11-2019 02:25:00 3.3 C 5.82 g/m*3 3.3 C 0 km/h
319 08-11-2019 02:30:00 3.2 C 5.79 g/m*3 3.2 C 0 km/h
320 08-11-2019 02:35:00 3.1 C 5.75 g/m*3 3.1 C 0 km/h
321 08-11-2019 02:40:00 3.1 C 5.75 g/m*3 3.1 C 0 km/h
322 08-11-2019 02:45:00 3.1 C 5.75 g/m*3 3.1 C 0 km/h
323 08-11-2019 02:50:00 3.1 C 5.75 g/m*3 3.1 C 0 km/h
324 08-11-2019 02:55:00 3.1 C 5.75 g/m*3 3.1 C 0 km/h
325 08-11-2019 03:00:00 3.1 C 5.75 g/m*3 3.1 C 0 km/h
Sensor: Nr:Datum:Temp:Abs-Feuchte:Windchill:Wind:
Aussen-T/F 326 08-11-2019 03:05:00 3.1 C 5.81 g/m*3 3.1 C 0 km/h
327 08-11-2019 03:10:00 3.2 C 5.85 g/m*3 3.2 C 0 km/h
328 08-11-2019 03:15:00 3.2 C 5.85 g/m*3 3.2 C 0 km/h
329 08-11-2019 03:20:00 3.1 C 5.81 g/m*3 3.1 C 0 km/h
330 08-11-2019 03:25:00 3 C 5.71 g/m*3 3 C 0 km/h
331 08-11-2019 03:30:00 2.9 C 5.67 g/m*3 2.9 C 0 km/h
332 08-11-2019 03:35:00 2.9 C 5.67 g/m*3 2.9 C 0 km/h
333 08-11-2019 03:40:00 3.1 C 5.81 g/m*3 3.1 C 0 km/h
334 08-11-2019 03:45:00 3.2 C 5.85 g/m*3 3.2 C 0 km/h
335 08-11-2019 03:50:00 3.2 C 5.85 g/m*3 3.2 C 0 km/h
336 08-11-2019 03:55:00 3.2 C 5.85 g/m*3 3.2 C 0 km/h
337 08-11-2019 04:00:00 3.2 C 5.85 g/m*3 3.2 C 0 km/h
338 08-11-2019 04:05:00 3.1 C 5.81 g/m*3 3.1 C 0 km/h
339 08-11-2019 04:10:00 3 C 5.77 g/m*3 3 C 0 km/h
340 08-11-2019 04:15:00 2.8 C 5.69 g/m*3 2.8 C 0 km/h
341 08-11-2019 04:20:00 2.8 C 5.69 g/m*3 2.8 C 0 km/h
342 08-11-2019 04:25:00 2.7 C 5.59 g/m*3 2.7 C 0 km/h
343 08-11-2019 04:30:00 2.7 C 5.59 g/m*3 2.7 C 0 km/h
344 08-11-2019 04:35:00 2.6 C 5.56 g/m*3 2.6 C 0 km/h
345 08-11-2019 04:40:00 2.6 C 5.61 g/m*3 2.6 C 0 km/h
346 08-11-2019 04:45:00 2.5 C 5.58 g/m*3 2.5 C 0 km/h
347 08-11-2019 04:50:00 2.5 C 5.58 g/m*3 2.5 C 0 km/h
348 08-11-2019 04:55:00 2.6 C 5.61 g/m*3 2.6 C 0 km/h
349 08-11-2019 05:00:00 2.5 C 5.58 g/m*3 2.5 C 0 km/h
350 08-11-2019 05:05:00 2.4 C 5.54 g/m*3 2.4 C 0 km/h
Sensor: Nr:Datum:Temp:Abs-Feuchte:Windchill:Wind:
Aussen-T/F 351 08-11-2019 05:10:00 2.4 C 5.54 g/m*3 2.4 C 0 km/h
352 08-11-2019 05:15:00 2.4 C 5.54 g/m*3 2.4 C 0 km/h
353 08-11-2019 05:20:00 2.3 C 5.5 g/m*3 2.3 C 0 km/h
354 08-11-2019 05:25:00 2.3 C 5.5 g/m*3 2.3 C 0 km/h
355 08-11-2019 05:30:00 2.3 C 5.5 g/m*3 2.3 C 0 km/h
356 08-11-2019 05:35:00 2.3 C 5.5 g/m*3 2.3 C 0 km/h
357 08-11-2019 05:40:00 2.3 C 5.5 g/m*3 2.3 C 0 km/h
358 08-11-2019 05:45:00 2.3 C 5.5 g/m*3 2.3 C 0 km/h
359 08-11-2019 05:50:00 2.3 C 5.5 g/m*3 2.3 C 0 km/h
360 08-11-2019 05:55:00 2.3 C 5.5 g/m*3 2.3 C 0 km/h
361 08-11-2019 06:00:00 2.3 C 5.5 g/m*3 2.3 C 0 km/h
362 08-11-2019 06:05:00 2.3 C 5.5 g/m*3 2.3 C 0 km/h
363 08-11-2019 06:10:00 2.3 C 5.5 g/m*3 2.3 C 0 km/h
364 08-11-2019 06:15:00 2.3 C 5.5 g/m*3 2.3 C 0 km/h
365 08-11-2019 06:20:00 2.4 C 5.54 g/m*3 2.4 C 0 km/h
366 08-11-2019 06:25:00 2.3 C 5.5 g/m*3 2.3 C 0 km/h
367 08-11-2019 06:30:00 2.4 C 5.54 g/m*3 2.4 C 0 km/h
368 08-11-2019 06:35:00 2.3 C 5.5 g/m*3 2.3 C 0 km/h
369 08-11-2019 06:40:00 2.3 C 5.5 g/m*3 2.3 C 0 km/h
370 08-11-2019 06:45:00 2.3 C 5.5 g/m*3 2.3 C 0 km/h
371 08-11-2019 06:50:00 2.3 C 5.5 g/m*3 2.3 C 0 km/h
372 08-11-2019 06:55:00 2.3 C 5.5 g/m*3 2.3 C 0 km/h
373 08-11-2019 07:00:00 2.3 C 5.5 g/m*3 2.3 C 0 km/h
374 08-11-2019 07:05:00 2.3 C 5.5 g/m*3 2.3 C 0 km/h
375 08-11-2019 07:10:00 2.3 C 5.5 g/m*3 2.3 C 0 km/h
Sensor: Nr:Datum:Temp:Abs-Feuchte:Windchill:Wind:
Aussen-T/F 376 08-11-2019 07:15:00 2.3 C 5.5 g/m*3 2.3 C 0 km/h
377 08-11-2019 07:20:00 2.3 C 5.5 g/m*3 2.3 C 0 km/h
378 08-11-2019 07:25:00 2.4 C 5.54 g/m*3 2.4 C 0 km/h
379 08-11-2019 07:30:00 2.4 C 5.54 g/m*3 2.4 C 0 km/h
380 08-11-2019 07:35:00 2.4 C 5.54 g/m*3 2.4 C 0 km/h
381 08-11-2019 07:40:00 2.4 C 5.54 g/m*3 2.4 C 0 km/h
382 08-11-2019 07:45:00 2.3 C 5.5 g/m*3 2.3 C 0 km/h
383 08-11-2019 07:50:00 2.4 C 5.54 g/m*3 2.4 C 0 km/h
384 08-11-2019 07:55:00 2.4 C 5.54 g/m*3 2.4 C 0 km/h
385 08-11-2019 08:00:00 2.5 C 5.58 g/m*3 2.5 C 0 km/h
386 08-11-2019 08:05:00 2.6 C 5.61 g/m*3 2.6 C 0 km/h
387 08-11-2019 08:10:00 2.7 C 5.65 g/m*3 2.7 C 0 km/h
388 08-11-2019 08:15:00 2.8 C 5.69 g/m*3 2.8 C 0 km/h
389 08-11-2019 08:20:00 2.9 C 5.73 g/m*3 2.9 C 0 km/h
390 08-11-2019 08:25:00 3 C 5.77 g/m*3 3 C 0 km/h
391 08-11-2019 08:30:00 3.1 C 5.87 g/m*3 3.1 C 0 km/h
392 08-11-2019 08:35:00 3.2 C 5.91 g/m*3 3.2 C 0 km/h
393 08-11-2019 08:40:00 3.3 C 5.88 g/m*3 3.3 C 0 km/h
394 08-11-2019 08:45:00 3.4 C 5.99 g/m*3 3.4 C 0 km/h
395 08-11-2019 08:50:00 3.5 C 6.03 g/m*3 3.5 C 0 km/h
396 08-11-2019 08:55:00 3.6 C 6.07 g/m*3 3.6 C 0 km/h
397 08-11-2019 09:00:00 3.6 C 6 g/m*3 3.6 C 0 km/h
398 08-11-2019 09:05:00 3.7 C 6.04 g/m*3 3.7 C 0 km/h
399 08-11-2019 09:10:00 3.7 C 6.04 g/m*3 3.7 C 0 km/h
400 08-11-2019 09:15:00 3.7 C 6.11 g/m*3 3.7 C 1.6 km/h
Sensor: Nr:Datum:Temp:Abs-Feuchte:Windchill:Wind:
Aussen-T/F 401 08-11-2019 09:20:00 3.8 C 6.15 g/m*3 3.8 C 4.8 km/h
402 08-11-2019 09:25:00 3.8 C 6.15 g/m*3 3.8 C 0 km/h
403 08-11-2019 09:30:00 3.8 C 6.15 g/m*3 3.8 C 0 km/h
404 08-11-2019 09:35:00 3.8 C 6.09 g/m*3 3.8 C 0 km/h
405 08-11-2019 09:40:00 3.8 C 6.09 g/m*3 3.8 C 0 km/h
406 08-11-2019 09:45:00 3.8 C 6.09 g/m*3 3.8 C 0 km/h
407 08-11-2019 09:50:00 3.9 C 6.13 g/m*3 3.9 C 0 km/h
408 08-11-2019 09:55:00 4 C 6.23 g/m*3 4 C 0 km/h
409 08-11-2019 10:00:00 4.1 C 6.27 g/m*3 4.1 C 0 km/h
410 08-11-2019 10:05:00 4.2 C 6.31 g/m*3 4.2 C 0 km/h
411 08-11-2019 10:10:00 4.2 C 6.31 g/m*3 4.2 C 0 km/h
412 08-11-2019 10:15:00 4.3 C 6.29 g/m*3 4.3 C 0 km/h
413 08-11-2019 10:20:00 4.3 C 6.29 g/m*3 4.3 C 0 km/h
414 08-11-2019 10:25:00 4.3 C 6.36 g/m*3 4.3 C 0 km/h
415 08-11-2019 10:30:00 4.4 C 6.4 g/m*3 4.4 C 0 km/h
416 08-11-2019 10:35:00 4.5 C 6.44 g/m*3 4.5 C 0 km/h
417 08-11-2019 10:40:00 4.6 C 6.48 g/m*3 4.6 C 1.6 km/h
418 08-11-2019 10:45:00 4.7 C 6.53 g/m*3 4.7 C 0 km/h
419 08-11-2019 10:50:00 4.8 C 6.57 g/m*3 4.8 C 3.2 km/h
420 08-11-2019 10:55:00 4.8 C 6.57 g/m*3 4.8 C 0 km/h
421 08-11-2019 11:00:00 4.8 C 6.57 g/m*3 4.8 C 0 km/h
422 08-11-2019 11:05:00 4.9 C 6.62 g/m*3 4.9 C 0 km/h
423 08-11-2019 11:10:00 5 C 6.66 g/m*3 5 C 0 km/h
424 08-11-2019 11:15:00 5.1 C 6.7 g/m*3 5.1 C 0 km/h
425 08-11-2019 11:20:00 5.1 C 6.7 g/m*3 5.1 C 1.6 km/h
Sensor: Nr:Datum:Temp:Abs-Feuchte:Windchill:Wind:
Aussen-T/F 426 08-11-2019 11:25:00 5.1 C 6.7 g/m*3 5.1 C 1.6 km/h
427 08-11-2019 11:30:00 5.1 C 6.7 g/m*3 5.1 C 3.2 km/h
428 08-11-2019 11:35:00 5.2 C 6.75 g/m*3 5.2 C 1.6 km/h
429 08-11-2019 11:40:00 5.3 C 6.79 g/m*3 5.3 C 1.6 km/h
430 08-11-2019 11:45:00 5.4 C 6.84 g/m*3 5.4 C 0 km/h
431 08-11-2019 11:50:00 5.4 C 6.84 g/m*3 5.4 C 0 km/h
432 08-11-2019 11:55:00 5.5 C 6.88 g/m*3 5.5 C 0 km/h
433 08-11-2019 12:00:00 5.6 C 6.93 g/m*3 5.6 C 0 km/h
434 08-11-2019 12:05:00 5.7 C 6.97 g/m*3 5.7 C 0 km/h
435 08-11-2019 12:10:00 5.8 C 7.02 g/m*3 5.8 C 0 km/h
436 08-11-2019 12:15:00 6 C 7.11 g/m*3 6 C 0 km/h
437 08-11-2019 12:20:00 5.9 C 7.07 g/m*3 5.9 C 3.2 km/h
438 08-11-2019 12:25:00 5.9 C 7.07 g/m*3 5.9 C 1.6 km/h
439 08-11-2019 12:30:00 6 C 7.11 g/m*3 6 C 0 km/h
440 08-11-2019 12:35:00 6.1 C 7.16 g/m*3 6.1 C 0 km/h
441 08-11-2019 12:40:00 6.2 C 7.21 g/m*3 6.2 C 1.6 km/h
442 08-11-2019 12:45:00 6.2 C 7.21 g/m*3 6.2 C 1.6 km/h
443 08-11-2019 12:50:00 6.3 C 7.25 g/m*3 6.3 C 0 km/h
444 08-11-2019 12:55:00 6.3 C 7.25 g/m*3 6.3 C 1.6 km/h
445 08-11-2019 13:00:00 6.4 C 7.3 g/m*3 6.4 C 0 km/h
446 08-11-2019 13:05:00 6.4 C 7.3 g/m*3 6.4 C 0 km/h
447 08-11-2019 13:10:00 6.5 C 7.27 g/m*3 6.5 C 1.6 km/h
448 08-11-2019 13:15:00 6.6 C 7.4 g/m*3 6.6 C 0 km/h
449 08-11-2019 13:20:00 6.7 C 7.45 g/m*3 6.7 C 0 km/h
450 08-11-2019 13:25:00 6.8 C 7.42 g/m*3 6.8 C 0 km/h
Sensor: Nr:Datum:Temp:Abs-Feuchte:Windchill:Wind:
Aussen-T/F 451 08-11-2019 13:30:00 6.9 C 7.47 g/m*3 6.9 C 0 km/h
452 08-11-2019 13:35:00 6.9 C 7.47 g/m*3 6.9 C 0 km/h
453 08-11-2019 13:40:00 7 C 7.52 g/m*3 7 C 0 km/h
454 08-11-2019 13:45:00 7.1 C 7.57 g/m*3 7.1 C 0 km/h
455 08-11-2019 13:50:00 7.1 C 7.57 g/m*3 7.1 C 0 km/h
456 08-11-2019 13:55:00 7.2 C 7.61 g/m*3 7.2 C 0 km/h
457 08-11-2019 14:00:00 7.2 C 7.61 g/m*3 7.2 C 1.6 km/h
458 08-11-2019 14:05:00 7.2 C 7.54 g/m*3 7.2 C 1.6 km/h
459 08-11-2019 14:10:00 7.3 C 7.58 g/m*3 7.3 C 4.8 km/h
460 08-11-2019 14:15:00 7.3 C 7.58 g/m*3 7.3 C 3.2 km/h
461 08-11-2019 14:20:00 7.4 C 7.63 g/m*3 7.4 C 3.2 km/h
462 08-11-2019 14:25:00 7.4 C 7.63 g/m*3 7.4 C 1.6 km/h
463 08-11-2019 14:30:00 7.5 C 7.68 g/m*3 7.5 C 1.6 km/h
464 08-11-2019 14:35:00 7.6 C 7.65 g/m*3 7.6 C 3.2 km/h
465 08-11-2019 14:40:00 7.6 C 7.65 g/m*3 7.6 C 1.6 km/h
466 08-11-2019 14:45:00 7.6 C 7.65 g/m*3 7.6 C 0 km/h
467 08-11-2019 14:50:00 7.6 C 7.65 g/m*3 7.6 C 0 km/h
468 08-11-2019 14:55:00 7.6 C 7.65 g/m*3 7.6 C 0 km/h
469 08-11-2019 15:00:00 7.7 C 7.7 g/m*3 7.7 C 0 km/h
470 08-11-2019 15:05:00 7.7 C 7.7 g/m*3 7.7 C 0 km/h
471 08-11-2019 15:10:00 7.7 C 7.7 g/m*3 7.7 C 0 km/h
472 08-11-2019 15:15:00 7.7 C 7.7 g/m*3 7.7 C 0 km/h
473 08-11-2019 15:20:00 7.7 C 7.7 g/m*3 7.7 C 0 km/h
474 08-11-2019 15:25:00 7.7 C 7.7 g/m*3 7.7 C 0 km/h
475 08-11-2019 15:30:00 7.7 C 7.7 g/m*3 7.7 C 0 km/h
Sensor: Nr:Datum:Temp:Abs-Feuchte:Windchill:Wind:
Aussen-T/F 476 08-11-2019 15:35:00 7.7 C 7.7 g/m*3 7.7 C 0 km/h
477 08-11-2019 15:40:00 7.8 C 7.75 g/m*3 7.8 C 0 km/h
478 08-11-2019 15:45:00 7.8 C 7.75 g/m*3 7.8 C 0 km/h
479 08-11-2019 15:50:00 7.8 C 7.75 g/m*3 7.8 C 0 km/h
480 08-11-2019 15:55:00 7.8 C 7.67 g/m*3 7.8 C 0 km/h
481 08-11-2019 16:00:00 7.8 C 7.75 g/m*3 7.8 C 0 km/h
482 08-11-2019 16:05:00 7.8 C 7.75 g/m*3 7.8 C 0 km/h
483 08-11-2019 16:10:00 7.8 C 7.75 g/m*3 7.8 C 0 km/h
484 08-11-2019 16:15:00 7.8 C 7.75 g/m*3 7.8 C 0 km/h
485 08-11-2019 16:20:00 7.8 C 7.75 g/m*3 7.8 C 0 km/h
486 08-11-2019 16:25:00 7.7 C 7.7 g/m*3 7.7 C 0 km/h
487 08-11-2019 16:30:00 7.7 C 7.62 g/m*3 7.7 C 0 km/h
488 08-11-2019 16:35:00 7.6 C 7.57 g/m*3 7.6 C 0 km/h
489 08-11-2019 16:40:00 7.4 C 7.48 g/m*3 7.4 C 0 km/h
490 08-11-2019 16:45:00 7.4 C 7.48 g/m*3 7.4 C 0 km/h
491 08-11-2019 16:50:00 7.3 C 7.51 g/m*3 7.3 C 0 km/h
492 08-11-2019 16:55:00 7.3 C 7.51 g/m*3 7.3 C 0 km/h
493 08-11-2019 17:00:00 7.2 C 7.46 g/m*3 7.2 C 0 km/h
494 08-11-2019 17:05:00 7.1 C 7.41 g/m*3 7.1 C 0 km/h
495 08-11-2019 17:10:00 7.1 C 7.41 g/m*3 7.1 C 0 km/h
496 08-11-2019 17:15:00 7 C 7.36 g/m*3 7 C 0 km/h
497 08-11-2019 17:20:00 6.9 C 7.31 g/m*3 6.9 C 0 km/h
498 08-11-2019 17:25:00 6.8 C 7.27 g/m*3 6.8 C 0 km/h
499 08-11-2019 17:30:00 6.8 C 7.27 g/m*3 6.8 C 0 km/h
500 08-11-2019 17:35:00 6.8 C 7.27 g/m*3 6.8 C 0 km/h
Sensor: Nr:Datum:Temp:Abs-Feuchte:Windchill:Wind:
Aussen-T/F 501 08-11-2019 17:40:00 6.7 C 7.22 g/m*3 6.7 C 0 km/h
502 08-11-2019 17:45:00 6.7 C 7.22 g/m*3 6.7 C 0 km/h
503 08-11-2019 17:50:00 6.6 C 7.17 g/m*3 6.6 C 0 km/h
504 08-11-2019 17:55:00 6.6 C 7.17 g/m*3 6.6 C 0 km/h
505 08-11-2019 18:00:00 6.6 C 7.17 g/m*3 6.6 C 0 km/h
506 08-11-2019 18:05:00 6.6 C 7.17 g/m*3 6.6 C 0 km/h
507 08-11-2019 18:10:00 6.6 C 7.25 g/m*3 6.6 C 0 km/h
508 08-11-2019 18:15:00 6.6 C 7.25 g/m*3 6.6 C 0 km/h
509 08-11-2019 18:20:00 6.6 C 7.25 g/m*3 6.6 C 0 km/h
510 08-11-2019 18:25:00 6.6 C 7.25 g/m*3 6.6 C 0 km/h
511 08-11-2019 18:30:00 6.7 C 7.29 g/m*3 6.7 C 0 km/h
512 08-11-2019 18:35:00 6.7 C 7.29 g/m*3 6.7 C 0 km/h
513 08-11-2019 18:40:00 6.7 C 7.29 g/m*3 6.7 C 0 km/h
514 08-11-2019 18:45:00 6.7 C 7.29 g/m*3 6.7 C 0 km/h
515 08-11-2019 18:50:00 6.7 C 7.29 g/m*3 6.7 C 0 km/h
516 08-11-2019 18:55:00 6.7 C 7.29 g/m*3 6.7 C 0 km/h
517 08-11-2019 19:00:00 6.7 C 7.29 g/m*3 6.7 C 0 km/h
518 08-11-2019 19:05:00 6.7 C 7.29 g/m*3 6.7 C 0 km/h
519 08-11-2019 19:10:00 6.6 C 7.25 g/m*3 6.6 C 0 km/h
520 08-11-2019 19:15:00 6.6 C 7.25 g/m*3 6.6 C 0 km/h
521 08-11-2019 19:20:00 6.6 C 7.25 g/m*3 6.6 C 0 km/h
522 08-11-2019 19:25:00 6.5 C 7.2 g/m*3 6.5 C 0 km/h
523 08-11-2019 19:30:00 6.4 C 7.15 g/m*3 6.4 C 0 km/h
524 08-11-2019 19:35:00 6.4 C 7.15 g/m*3 6.4 C 0 km/h
525 08-11-2019 19:40:00 6.3 C 7.11 g/m*3 6.3 C 0 km/h
Sensor: Nr:Datum:Temp:Abs-Feuchte:Windchill:Wind:
Aussen-T/F 526 08-11-2019 19:45:00 6.3 C 7.11 g/m*3 6.3 C 0 km/h
527 08-11-2019 19:50:00 6.3 C 7.11 g/m*3 6.3 C 0 km/h
528 08-11-2019 19:55:00 6.3 C 7.11 g/m*3 6.3 C 0 km/h
529 08-11-2019 20:00:00 6.3 C 7.11 g/m*3 6.3 C 0 km/h
530 08-11-2019 20:05:00 6.3 C 7.11 g/m*3 6.3 C 0 km/h
531 08-11-2019 20:10:00 6.2 C 7.06 g/m*3 6.2 C 0 km/h
532 08-11-2019 20:15:00 6.2 C 7.06 g/m*3 6.2 C 0 km/h
533 08-11-2019 20:20:00 6.2 C 7.06 g/m*3 6.2 C 0 km/h
534 08-11-2019 20:25:00 6.2 C 7.06 g/m*3 6.2 C 0 km/h
535 08-11-2019 20:30:00 6.2 C 7.06 g/m*3 6.2 C 0 km/h
536 08-11-2019 20:35:00 6.2 C 7.06 g/m*3 6.2 C 0 km/h
537 08-11-2019 20:40:00 6.2 C 7.06 g/m*3 6.2 C 0 km/h
538 08-11-2019 20:45:00 6.2 C 7.06 g/m*3 6.2 C 0 km/h
539 08-11-2019 20:50:00 6.2 C 7.06 g/m*3 6.2 C 0 km/h
540 08-11-2019 20:55:00 6.2 C 7.06 g/m*3 6.2 C 0 km/h
541 08-11-2019 21:00:00 6.1 C 7.01 g/m*3 6.1 C 0 km/h
542 08-11-2019 21:05:00 6 C 6.97 g/m*3 6 C 0 km/h
543 08-11-2019 21:10:00 5.9 C 6.92 g/m*3 5.9 C 0 km/h
544 08-11-2019 21:15:00 5.8 C 6.88 g/m*3 5.8 C 0 km/h
545 08-11-2019 21:20:00 5.8 C 6.88 g/m*3 5.8 C 0 km/h
546 08-11-2019 21:25:00 5.7 C 6.83 g/m*3 5.7 C 0 km/h
547 08-11-2019 21:30:00 5.6 C 6.79 g/m*3 5.6 C 0 km/h
548 08-11-2019 21:35:00 5.6 C 6.79 g/m*3 5.6 C 0 km/h
549 08-11-2019 21:40:00 5.6 C 6.79 g/m*3 5.6 C 0 km/h
550 08-11-2019 21:45:00 5.5 C 6.74 g/m*3 5.5 C 0 km/h
Sensor: Nr:Datum:Temp:Abs-Feuchte:Windchill:Wind:
Aussen-T/F 551 08-11-2019 21:50:00 5.4 C 6.7 g/m*3 5.4 C 0 km/h
552 08-11-2019 21:55:00 5.4 C 6.7 g/m*3 5.4 C 0 km/h
553 08-11-2019 22:00:00 5.4 C 6.77 g/m*3 5.4 C 0 km/h
554 08-11-2019 22:05:00 5.4 C 6.77 g/m*3 5.4 C 0 km/h
555 08-11-2019 22:10:00 5.4 C 6.77 g/m*3 5.4 C 0 km/h
556 08-11-2019 22:15:00 5.4 C 6.77 g/m*3 5.4 C 0 km/h
557 08-11-2019 22:20:00 5.3 C 6.72 g/m*3 5.3 C 1.6 km/h
558 08-11-2019 22:25:00 5.4 C 6.77 g/m*3 5.4 C 1.6 km/h
559 08-11-2019 22:30:00 5.4 C 6.77 g/m*3 5.4 C 0 km/h
560 08-11-2019 22:35:00 5.4 C 6.77 g/m*3 5.4 C 0 km/h
561 08-11-2019 22:40:00 5.4 C 6.77 g/m*3 5.4 C 0 km/h
562 08-11-2019 22:45:00 5.4 C 6.77 g/m*3 5.4 C 0 km/h
563 08-11-2019 22:50:00 5.4 C 6.77 g/m*3 5.4 C 0 km/h
564 08-11-2019 22:55:00 5.4 C 6.77 g/m*3 5.4 C 0 km/h
565 08-11-2019 23:00:00 5.4 C 6.77 g/m*3 5.4 C 0 km/h
566 08-11-2019 23:05:00 5.5 C 6.81 g/m*3 5.5 C 0 km/h
567 08-11-2019 23:10:00 5.5 C 6.81 g/m*3 5.5 C 0 km/h
568 08-11-2019 23:15:00 5.4 C 6.77 g/m*3 5.4 C 0 km/h
569 08-11-2019 23:20:00 5.4 C 6.77 g/m*3 5.4 C 1.6 km/h
570 08-11-2019 23:25:00 5.4 C 6.77 g/m*3 5.4 C 1.6 km/h
571 08-11-2019 23:30:00 5.5 C 6.81 g/m*3 5.5 C 4.8 km/h
572 08-11-2019 23:35:00 5.6 C 6.86 g/m*3 5.6 C 1.6 km/h
573 08-11-2019 23:40:00 5.6 C 6.86 g/m*3 5.6 C 3.2 km/h
574 08-11-2019 23:45:00 5.6 C 6.86 g/m*3 5.6 C 4.8 km/h
575 08-11-2019 23:50:00 5.5 C 6.81 g/m*3 4.17 C 6.4 km/h
Sensor: Nr:Datum:Temp:Abs-Feuchte:Windchill:Wind:
Aussen-T/F 576 08-11-2019 23:55:00 5.5 C 6.81 g/m*3 4.17 C 6.4 km/h
577 09-11-2019 00:00:00 5.4 C 6.77 g/m*3 5.4 C 1.6 km/h
578 09-11-2019 00:05:00 5.4 C 6.77 g/m*3 3.2 C 9.7 km/h
579 09-11-2019 00:10:00 5.4 C 6.77 g/m*3 5.4 C 4.8 km/h
580 09-11-2019 00:15:00 5.4 C 6.77 g/m*3 5.4 C 4.8 km/h
581 09-11-2019 00:20:00 5.4 C 6.77 g/m*3 5.4 C 3.2 km/h
582 09-11-2019 00:25:00 5.3 C 6.72 g/m*3 5.3 C 4.8 km/h
583 09-11-2019 00:30:00 5.3 C 6.72 g/m*3 5.3 C 4.8 km/h
584 09-11-2019 00:35:00 5.3 C 6.72 g/m*3 5.3 C 4.8 km/h
585 09-11-2019 00:40:00 5.3 C 6.72 g/m*3 3.46 C 8.1 km/h
586 09-11-2019 00:45:00 5.3 C 6.72 g/m*3 3.94 C 6.4 km/h
587 09-11-2019 00:50:00 5.3 C 6.72 g/m*3 3.94 C 6.4 km/h
588 09-11-2019 00:55:00 5.3 C 6.72 g/m*3 5.3 C 4.8 km/h
589 09-11-2019 01:00:00 5.3 C 6.72 g/m*3 3.46 C 8.1 km/h
590 09-11-2019 01:05:00 5.2 C 6.68 g/m*3 3.34 C 8.1 km/h
591 09-11-2019 01:10:00 5.2 C 6.68 g/m*3 3.82 C 6.4 km/h
592 09-11-2019 01:15:00 5.2 C 6.68 g/m*3 3.82 C 6.4 km/h
593 09-11-2019 01:20:00 5.2 C 6.68 g/m*3 3.82 C 6.4 km/h
594 09-11-2019 01:25:00 5.2 C 6.68 g/m*3 3.34 C 8.1 km/h
595 09-11-2019 01:30:00 5.1 C 6.63 g/m*3 3.71 C 6.4 km/h
596 09-11-2019 01:35:00 5.1 C 6.63 g/m*3 5.1 C 1.6 km/h
597 09-11-2019 01:40:00 5.1 C 6.63 g/m*3 5.1 C 1.6 km/h
598 09-11-2019 01:45:00 5.1 C 6.63 g/m*3 5.1 C 4.8 km/h
599 09-11-2019 01:50:00 5.1 C 6.63 g/m*3 5.1 C 3.2 km/h
600 09-11-2019 01:55:00 5.1 C 6.63 g/m*3 5.1 C 1.6 km/h
Sensor: Nr:Datum:Temp:Abs-Feuchte:Windchill:Wind:
Aussen-T/F 601 09-11-2019 02:00:00 5.1 C 6.63 g/m*3 3.23 C 8.1 km/h
602 09-11-2019 02:05:00 5.1 C 6.63 g/m*3 3.71 C 6.4 km/h
603 09-11-2019 02:10:00 5.1 C 6.63 g/m*3 5.1 C 3.2 km/h
604 09-11-2019 02:15:00 5.1 C 6.63 g/m*3 5.1 C 4.8 km/h
605 09-11-2019 02:20:00 5.1 C 6.63 g/m*3 3.71 C 6.4 km/h
606 09-11-2019 02:25:00 5.1 C 6.63 g/m*3 3.23 C 8.1 km/h
607 09-11-2019 02:30:00 5.1 C 6.63 g/m*3 3.71 C 6.4 km/h
608 09-11-2019 02:35:00 5.1 C 6.63 g/m*3 5.1 C 4.8 km/h
609 09-11-2019 02:40:00 5.1 C 6.63 g/m*3 3.71 C 6.4 km/h
610 09-11-2019 02:45:00 5.1 C 6.63 g/m*3 3.23 C 8.1 km/h
611 09-11-2019 02:50:00 5.1 C 6.63 g/m*3 3.71 C 6.4 km/h
612 09-11-2019 02:55:00 5.1 C 6.63 g/m*3 5.1 C 4.8 km/h
613 09-11-2019 03:00:00 5.1 C 6.63 g/m*3 5.1 C 3.2 km/h
614 09-11-2019 03:05:00 5.1 C 6.63 g/m*3 5.1 C 3.2 km/h
615 09-11-2019 03:10:00 5.1 C 6.63 g/m*3 3.71 C 6.4 km/h
616 09-11-2019 03:15:00 5.1 C 6.63 g/m*3 5.1 C 0 km/h
617 09-11-2019 03:20:00 5.1 C 6.63 g/m*3 5.1 C 4.8 km/h
618 09-11-2019 03:25:00 5.1 C 6.63 g/m*3 3.71 C 6.4 km/h
619 09-11-2019 03:30:00 5.1 C 6.63 g/m*3 3.71 C 6.4 km/h
620 09-11-2019 03:35:00 5.1 C 6.63 g/m*3 5.1 C 3.2 km/h
621 09-11-2019 03:40:00 5.1 C 6.63 g/m*3 5.1 C 3.2 km/h
622 09-11-2019 03:45:00 5.2 C 6.68 g/m*3 5.2 C 1.6 km/h
623 09-11-2019 03:50:00 5.2 C 6.68 g/m*3 5.2 C 1.6 km/h
624 09-11-2019 03:55:00 5.2 C 6.68 g/m*3 5.2 C 0 km/h
625 09-11-2019 04:00:00 5.2 C 6.68 g/m*3 5.2 C 0 km/h
Sensor: Nr:Datum:Temp:Abs-Feuchte:Windchill:Wind:
Aussen-T/F 626 09-11-2019 04:05:00 5.3 C 6.72 g/m*3 3.94 C 6.4 km/h
627 09-11-2019 04:10:00 5.3 C 6.72 g/m*3 5.3 C 3.2 km/h
628 09-11-2019 04:15:00 5.3 C 6.72 g/m*3 5.3 C 3.2 km/h
629 09-11-2019 04:20:00 5.2 C 6.68 g/m*3 5.2 C 3.2 km/h
630 09-11-2019 04:25:00 5.2 C 6.68 g/m*3 5.2 C 0 km/h
631 09-11-2019 04:30:00 5.1 C 6.63 g/m*3 5.1 C 1.6 km/h
632 09-11-2019 04:35:00 4.9 C 6.55 g/m*3 4.9 C 0 km/h
633 09-11-2019 04:40:00 4.8 C 6.5 g/m*3 4.8 C 0 km/h
634 09-11-2019 04:45:00 4.6 C 6.42 g/m*3 4.6 C 0 km/h
635 09-11-2019 04:50:00 4.4 C 6.33 g/m*3 4.4 C 0 km/h
636 09-11-2019 04:55:00 4.3 C 6.29 g/m*3 4.3 C 0 km/h
637 09-11-2019 05:00:00 4.3 C 6.29 g/m*3 4.3 C 1.6 km/h
638 09-11-2019 05:05:00 4.3 C 6.29 g/m*3 4.3 C 0 km/h
639 09-11-2019 05:10:00 4.4 C 6.33 g/m*3 4.4 C 1.6 km/h
640 09-11-2019 05:15:00 4.5 C 6.38 g/m*3 4.5 C 0 km/h
641 09-11-2019 05:20:00 4.7 C 6.46 g/m*3 4.7 C 3.2 km/h
642 09-11-2019 05:25:00 4.8 C 6.5 g/m*3 4.8 C 4.8 km/h
643 09-11-2019 05:30:00 4.9 C 6.55 g/m*3 4.9 C 1.6 km/h
644 09-11-2019 05:35:00 4.9 C 6.62 g/m*3 4.9 C 0 km/h
645 09-11-2019 05:40:00 5.1 C 6.7 g/m*3 5.1 C 4.8 km/h
646 09-11-2019 05:45:00 5.1 C 6.63 g/m*3 5.1 C 4.8 km/h
647 09-11-2019 05:50:00 5.2 C 6.68 g/m*3 3.82 C 6.4 km/h
648 09-11-2019 05:55:00 5.2 C 6.68 g/m*3 3.34 C 8.1 km/h
649 09-11-2019 06:00:00 5.1 C 6.63 g/m*3 2.51 C 11.3 km/h
650 09-11-2019 06:05:00 4.9 C 6.55 g/m*3 2.27 C 11.3 km/h
Sensor: Nr:Datum:Temp:Abs-Feuchte:Windchill:Wind:
Aussen-T/F 651 09-11-2019 06:10:00 4.8 C 6.5 g/m*3 2.15 C 11.3 km/h
652 09-11-2019 06:15:00 4.6 C 6.42 g/m*3 2.64 C 8.1 km/h
653 09-11-2019 06:20:00 4.5 C 6.38 g/m*3 4.5 C 4.8 km/h
654 09-11-2019 06:25:00 4.3 C 6.23 g/m*3 4.3 C 3.2 km/h
655 09-11-2019 06:30:00 4.3 C 6.23 g/m*3 4.3 C 4.8 km/h
656 09-11-2019 06:35:00 4.3 C 6.23 g/m*3 4.3 C 1.6 km/h
657 09-11-2019 06:40:00 4.2 C 6.19 g/m*3 4.2 C 1.6 km/h
658 09-11-2019 06:45:00 4.2 C 6.19 g/m*3 2.67 C 6.4 km/h
659 09-11-2019 06:50:00 4.1 C 6.14 g/m*3 4.1 C 1.6 km/h
660 09-11-2019 06:55:00 4.1 C 6.14 g/m*3 4.1 C 4.8 km/h
661 09-11-2019 07:00:00 3.9 C 6.06 g/m*3 3.9 C 1.6 km/h
662 09-11-2019 07:05:00 3.8 C 6.02 g/m*3 3.8 C 0 km/h
663 09-11-2019 07:10:00 3.7 C 5.98 g/m*3 3.7 C 3.2 km/h
664 09-11-2019 07:15:00 3.6 C 5.94 g/m*3 3.6 C 0 km/h
665 09-11-2019 07:20:00 3.5 C 5.9 g/m*3 3.5 C 0 km/h
666 09-11-2019 07:25:00 3.4 C 5.86 g/m*3 3.4 C 0 km/h
667 09-11-2019 07:30:00 3.3 C 5.82 g/m*3 3.3 C 1.6 km/h
668 09-11-2019 07:35:00 3.3 C 5.82 g/m*3 3.3 C 3.2 km/h
669 09-11-2019 07:40:00 3.3 C 5.82 g/m*3 3.3 C 0 km/h
670 09-11-2019 07:45:00 3.2 C 5.79 g/m*3 3.2 C 0 km/h
671 09-11-2019 07:50:00 3.2 C 5.79 g/m*3 3.2 C 0 km/h
672 09-11-2019 07:55:00 3.1 C 5.75 g/m*3 3.1 C 0 km/h
673 09-11-2019 08:00:00 3.1 C 5.75 g/m*3 3.1 C 0 km/h
674 09-11-2019 08:05:00 3.1 C 5.75 g/m*3 3.1 C 0 km/h
675 09-11-2019 08:10:00 3.1 C 5.75 g/m*3 3.1 C 0 km/h
Sensor: Nr:Datum:Temp:Abs-Feuchte:Windchill:Wind:
Aussen-T/F 676 09-11-2019 08:15:00 3.1 C 5.75 g/m*3 3.1 C 0 km/h
677 09-11-2019 08:20:00 3.2 C 5.85 g/m*3 3.2 C 0 km/h
678 09-11-2019 08:25:00 3.2 C 5.85 g/m*3 3.2 C 1.6 km/h
679 09-11-2019 08:30:00 3.3 C 5.88 g/m*3 3.3 C 0 km/h
680 09-11-2019 08:35:00 3.4 C 5.92 g/m*3 3.4 C 0 km/h
681 09-11-2019 08:40:00 3.4 C 5.92 g/m*3 3.4 C 0 km/h
682 09-11-2019 08:45:00 3.5 C 5.96 g/m*3 3.5 C 0 km/h
683 09-11-2019 08:50:00 3.5 C 5.96 g/m*3 3.5 C 0 km/h
684 09-11-2019 08:55:00 3.6 C 6 g/m*3 3.6 C 0 km/h
685 09-11-2019 09:00:00 3.8 C 6.09 g/m*3 3.8 C 0 km/h
686 09-11-2019 09:05:00 3.9 C 6.13 g/m*3 3.9 C 0 km/h
687 09-11-2019 09:10:00 4.1 C 6.21 g/m*3 4.1 C 0 km/h
688 09-11-2019 09:15:00 4.2 C 6.25 g/m*3 4.2 C 0 km/h
689 09-11-2019 09:20:00 4.3 C 6.29 g/m*3 4.3 C 0 km/h
690 09-11-2019 09:25:00 4.4 C 6.33 g/m*3 2.4 C 8.1 km/h
691 09-11-2019 09:30:00 4.7 C 6.46 g/m*3 2.37 C 9.7 km/h
692 09-11-2019 09:35:00 4.8 C 6.5 g/m*3 2.49 C 9.7 km/h
693 09-11-2019 09:40:00 4.9 C 6.55 g/m*3 2.61 C 9.7 km/h
694 09-11-2019 09:45:00 5 C 6.52 g/m*3 2.72 C 9.7 km/h
695 09-11-2019 09:50:00 5.1 C 6.57 g/m*3 3.71 C 6.4 km/h
696 09-11-2019 09:55:00 5.2 C 6.54 g/m*3 2.96 C 9.7 km/h
697 09-11-2019 10:00:00 5.3 C 6.58 g/m*3 2.75 C 11.3 km/h
698 09-11-2019 10:05:00 5.3 C 6.52 g/m*3 2.46 C 12.9 km/h
699 09-11-2019 10:10:00 5.4 C 6.49 g/m*3 2.32 C 14.5 km/h
700 09-11-2019 10:15:00 5.5 C 6.53 g/m*3 2.44 C 14.5 km/h
Sensor: Nr:Datum:Temp:Abs-Feuchte:Windchill:Wind:
Aussen-T/F 701 09-11-2019 10:20:00 5.6 C 6.57 g/m*3 3.81 C 8.1 km/h
702 09-11-2019 10:25:00 5.7 C 6.55 g/m*3 3.93 C 8.1 km/h
703 09-11-2019 10:30:00 5.7 C 6.55 g/m*3 3.56 C 9.7 km/h
704 09-11-2019 10:35:00 5.8 C 6.59 g/m*3 3.68 C 9.7 km/h
705 09-11-2019 10:40:00 5.9 C 6.56 g/m*3 3.8 C 9.7 km/h
706 09-11-2019 10:45:00 5.9 C 6.56 g/m*3 2.48 C 17.7 km/h
707 09-11-2019 10:50:00 5.9 C 6.56 g/m*3 3.48 C 11.3 km/h
708 09-11-2019 10:55:00 5.9 C 6.56 g/m*3 3.19 C 12.9 km/h
709 09-11-2019 11:00:00 5.9 C 6.56 g/m*3 3.48 C 11.3 km/h
710 09-11-2019 11:05:00 5.9 C 6.56 g/m*3 4.63 C 6.4 km/h
711 09-11-2019 11:10:00 5.9 C 6.56 g/m*3 3.19 C 12.9 km/h
712 09-11-2019 11:15:00 5.8 C 6.52 g/m*3 3.36 C 11.3 km/h
713 09-11-2019 11:20:00 5.9 C 6.56 g/m*3 4.17 C 8.1 km/h
714 09-11-2019 11:25:00 5.9 C 6.56 g/m*3 3.8 C 9.7 km/h
715 09-11-2019 11:30:00 5.9 C 6.56 g/m*3 4.17 C 8.1 km/h
716 09-11-2019 11:35:00 5.9 C 6.49 g/m*3 4.17 C 8.1 km/h
717 09-11-2019 11:40:00 5.9 C 6.56 g/m*3 3.8 C 9.7 km/h
718 09-11-2019 11:45:00 5.9 C 6.56 g/m*3 4.63 C 6.4 km/h
719 09-11-2019 11:50:00 6 C 6.6 g/m*3 3.92 C 9.7 km/h
720 09-11-2019 11:55:00 6.1 C 6.65 g/m*3 3.18 C 14.5 km/h
721 09-11-2019 12:00:00 6.1 C 6.58 g/m*3 3.72 C 11.3 km/h
722 09-11-2019 12:05:00 6.1 C 6.58 g/m*3 4.4 C 8.1 km/h
723 09-11-2019 12:10:00 6.1 C 6.58 g/m*3 4.4 C 8.1 km/h
724 09-11-2019 12:15:00 6.1 C 6.58 g/m*3 4.4 C 8.1 km/h
725 09-11-2019 12:20:00 6.2 C 6.62 g/m*3 6.2 C 4.8 km/h
Sensor: Nr:Datum:Temp:Abs-Feuchte:Windchill:Wind:
Aussen-T/F 726 09-11-2019 12:25:00 6.2 C 6.62 g/m*3 4.52 C 8.1 km/h
727 09-11-2019 12:30:00 6.3 C 6.66 g/m*3 5.1 C 6.4 km/h
728 09-11-2019 12:35:00 6.4 C 6.71 g/m*3 4.08 C 11.3 km/h
729 09-11-2019 12:40:00 6.6 C 6.79 g/m*3 5.44 C 6.4 km/h
730 09-11-2019 12:45:00 6.7 C 6.76 g/m*3 4.44 C 11.3 km/h
731 09-11-2019 12:50:00 6.8 C 6.73 g/m*3 4.29 C 12.9 km/h
732 09-11-2019 12:55:00 6.9 C 6.77 g/m*3 4.68 C 11.3 km/h
733 09-11-2019 13:00:00 7 C 6.82 g/m*3 5.11 C 9.7 km/h
734 09-11-2019 13:05:00 7 C 6.82 g/m*3 5.11 C 9.7 km/h
735 09-11-2019 13:10:00 7 C 6.82 g/m*3 5.9 C 6.4 km/h
736 09-11-2019 13:15:00 6.9 C 6.7 g/m*3 4.68 C 11.3 km/h
737 09-11-2019 13:20:00 6.9 C 6.7 g/m*3 5.79 C 6.4 km/h
738 09-11-2019 13:25:00 6.9 C 6.7 g/m*3 6.9 C 4.8 km/h
739 09-11-2019 13:30:00 7 C 6.74 g/m*3 4.8 C 11.3 km/h
740 09-11-2019 13:35:00 7.1 C 6.79 g/m*3 4.92 C 11.3 km/h
741 09-11-2019 13:40:00 7.2 C 6.83 g/m*3 5.04 C 11.3 km/h
742 09-11-2019 13:45:00 7.2 C 6.75 g/m*3 6.13 C 6.4 km/h
743 09-11-2019 13:50:00 7.2 C 6.75 g/m*3 5.69 C 8.1 km/h
744 09-11-2019 13:55:00 7.1 C 6.71 g/m*3 6.02 C 6.4 km/h
745 09-11-2019 14:00:00 7 C 6.66 g/m*3 7 C 4.8 km/h
746 09-11-2019 14:05:00 7 C 6.74 g/m*3 7 C 4.8 km/h
747 09-11-2019 14:10:00 7 C 6.74 g/m*3 5.9 C 6.4 km/h
748 09-11-2019 14:15:00 7 C 6.74 g/m*3 7 C 4.8 km/h
749 09-11-2019 14:20:00 7 C 6.82 g/m*3 7 C 4.8 km/h
750 09-11-2019 14:25:00 6.9 C 6.77 g/m*3 5.79 C 6.4 km/h
Sensor: Nr:Datum:Temp:Abs-Feuchte:Windchill:Wind:
Aussen-T/F 751 09-11-2019 14:30:00 6.9 C 6.77 g/m*3 4.41 C 12.9 km/h
752 09-11-2019 14:35:00 6.9 C 6.77 g/m*3 4.99 C 9.7 km/h
753 09-11-2019 14:40:00 6.8 C 6.73 g/m*3 5.22 C 8.1 km/h
754 09-11-2019 14:45:00 6.9 C 6.85 g/m*3 6.9 C 4.8 km/h
755 09-11-2019 14:50:00 6.9 C 6.77 g/m*3 4.99 C 9.7 km/h
756 09-11-2019 14:55:00 6.9 C 6.85 g/m*3 5.79 C 6.4 km/h
757 09-11-2019 15:00:00 6.9 C 6.85 g/m*3 5.34 C 8.1 km/h
758 09-11-2019 15:05:00 6.8 C 6.81 g/m*3 6.8 C 4.8 km/h
759 09-11-2019 15:10:00 6.8 C 6.81 g/m*3 6.8 C 4.8 km/h
760 09-11-2019 15:15:00 6.8 C 6.81 g/m*3 5.67 C 6.4 km/h
761 09-11-2019 15:20:00 6.8 C 6.88 g/m*3 5.67 C 6.4 km/h
762 09-11-2019 15:25:00 6.7 C 6.91 g/m*3 6.7 C 4.8 km/h
763 09-11-2019 15:30:00 6.7 C 6.91 g/m*3 6.7 C 0 km/h
764 09-11-2019 15:35:00 6.6 C 6.87 g/m*3 6.6 C 0 km/h
765 09-11-2019 15:40:00 6.6 C 6.95 g/m*3 6.6 C 1.6 km/h
766 09-11-2019 15:45:00 6.5 C 6.9 g/m*3 6.5 C 0 km/h
767 09-11-2019 15:50:00 6.5 C 6.9 g/m*3 6.5 C 0 km/h
768 09-11-2019 15:55:00 6.5 C 6.9 g/m*3 6.5 C 1.6 km/h
769 09-11-2019 16:00:00 6.6 C 6.95 g/m*3 6.6 C 1.6 km/h
770 09-11-2019 16:05:00 6.6 C 6.95 g/m*3 6.6 C 0 km/h
771 09-11-2019 16:10:00 6.6 C 6.95 g/m*3 6.6 C 3.2 km/h
772 09-11-2019 16:15:00 6.6 C 6.95 g/m*3 6.6 C 1.6 km/h
773 09-11-2019 16:20:00 6.6 C 6.95 g/m*3 6.6 C 0 km/h
774 09-11-2019 16:25:00 6.6 C 6.95 g/m*3 6.6 C 3.2 km/h
775 09-11-2019 16:30:00 6.6 C 6.95 g/m*3 6.6 C 1.6 km/h
Sensor: Nr:Datum:Temp:Abs-Feuchte:Windchill:Wind:
Aussen-T/F 776 09-11-2019 16:35:00 6.6 C 6.95 g/m*3 6.6 C 0 km/h
777 09-11-2019 16:40:00 6.6 C 6.95 g/m*3 6.6 C 1.6 km/h
778 09-11-2019 16:45:00 6.5 C 6.9 g/m*3 6.5 C 1.6 km/h
779 09-11-2019 16:50:00 6.5 C 6.9 g/m*3 6.5 C 0 km/h
780 09-11-2019 16:55:00 6.4 C 6.93 g/m*3 6.4 C 1.6 km/h
781 09-11-2019 17:00:00 6.4 C 6.93 g/m*3 6.4 C 0 km/h
782 09-11-2019 17:05:00 6.4 C 6.93 g/m*3 6.4 C 0 km/h
783 09-11-2019 17:10:00 6.3 C 6.88 g/m*3 6.3 C 0 km/h
784 09-11-2019 17:15:00 6.3 C 6.88 g/m*3 6.3 C 0 km/h
785 09-11-2019 17:20:00 6.3 C 6.88 g/m*3 6.3 C 1.6 km/h
786 09-11-2019 17:25:00 6.2 C 6.84 g/m*3 6.2 C 0 km/h
787 09-11-2019 17:30:00 6.2 C 6.84 g/m*3 6.2 C 0 km/h
788 09-11-2019 17:35:00 6.2 C 6.84 g/m*3 6.2 C 0 km/h
789 09-11-2019 17:40:00 6.1 C 6.79 g/m*3 6.1 C 0 km/h
790 09-11-2019 17:45:00 6 C 6.75 g/m*3 6 C 0 km/h
791 09-11-2019 17:50:00 5.9 C 6.71 g/m*3 5.9 C 0 km/h
792 09-11-2019 17:55:00 5.8 C 6.66 g/m*3 5.8 C 1.6 km/h
793 09-11-2019 18:00:00 5.7 C 6.62 g/m*3 5.7 C 0 km/h
794 09-11-2019 18:05:00 5.7 C 6.62 g/m*3 5.7 C 0 km/h
795 09-11-2019 18:10:00 5.7 C 6.62 g/m*3 5.7 C 1.6 km/h
796 09-11-2019 18:15:00 5.6 C 6.57 g/m*3 5.6 C 0 km/h
797 09-11-2019 18:20:00 5.6 C 6.57 g/m*3 5.6 C 0 km/h
798 09-11-2019 18:25:00 5.5 C 6.53 g/m*3 5.5 C 0 km/h
799 09-11-2019 18:30:00 5.4 C 6.49 g/m*3 5.4 C 0 km/h
800 09-11-2019 18:35:00 5.3 C 6.45 g/m*3 5.3 C 0 km/h
Sensor: Nr:Datum:Temp:Abs-Feuchte:Windchill:Wind:
Aussen-T/F 801 09-11-2019 18:40:00 5.2 C 6.4 g/m*3 5.2 C 0 km/h
802 09-11-2019 18:45:00 5.1 C 6.36 g/m*3 5.1 C 0 km/h
803 09-11-2019 18:50:00 4.9 C 6.28 g/m*3 4.9 C 0 km/h
804 09-11-2019 18:55:00 4.8 C 6.3 g/m*3 4.8 C 0 km/h
805 09-11-2019 19:00:00 4.7 C 6.26 g/m*3 4.7 C 0 km/h
806 09-11-2019 19:05:00 4.7 C 6.26 g/m*3 4.7 C 1.6 km/h
807 09-11-2019 19:10:00 4.7 C 6.26 g/m*3 4.7 C 1.6 km/h
808 09-11-2019 19:15:00 4.8 C 6.37 g/m*3 4.8 C 1.6 km/h
809 09-11-2019 19:20:00 4.9 C 6.41 g/m*3 4.9 C 4.8 km/h
810 09-11-2019 19:25:00 5 C 6.46 g/m*3 3.11 C 8.1 km/h
811 09-11-2019 19:30:00 5 C 6.39 g/m*3 5 C 1.6 km/h
812 09-11-2019 19:35:00 5.1 C 6.43 g/m*3 5.1 C 0 km/h
813 09-11-2019 19:40:00 5 C 6.39 g/m*3 5 C 4.8 km/h
814 09-11-2019 19:45:00 4.9 C 6.35 g/m*3 4.9 C 0 km/h
815 09-11-2019 19:50:00 4.9 C 6.35 g/m*3 4.9 C 0 km/h
816 09-11-2019 19:55:00 4.8 C 6.24 g/m*3 4.8 C 0 km/h
817 09-11-2019 20:00:00 4.8 C 6.24 g/m*3 4.8 C 0 km/h
818 09-11-2019 20:05:00 4.7 C 6.19 g/m*3 4.7 C 0 km/h
819 09-11-2019 20:10:00 4.6 C 6.15 g/m*3 4.6 C 0 km/h
820 09-11-2019 20:15:00 4.4 C 6.07 g/m*3 4.4 C 0 km/h
821 09-11-2019 20:20:00 4.2 C 5.93 g/m*3 4.2 C 0 km/h
822 09-11-2019 20:25:00 3.9 C 5.81 g/m*3 3.9 C 0 km/h
823 09-11-2019 20:30:00 3.8 C 5.83 g/m*3 3.8 C 0 km/h
824 09-11-2019 20:35:00 3.7 C 5.8 g/m*3 3.7 C 0 km/h
825 09-11-2019 20:40:00 3.6 C 5.82 g/m*3 3.6 C 0 km/h
Sensor: Nr:Datum:Temp:Abs-Feuchte:Windchill:Wind:
Aussen-T/F 826 09-11-2019 20:45:00 3.6 C 5.82 g/m*3 3.6 C 0 km/h
827 09-11-2019 20:50:00 3.6 C 5.82 g/m*3 3.6 C 0 km/h
828 09-11-2019 20:55:00 3.5 C 5.78 g/m*3 3.5 C 0 km/h
829 09-11-2019 21:00:00 3.4 C 5.74 g/m*3 3.4 C 0 km/h
830 09-11-2019 21:05:00 3.4 C 5.74 g/m*3 3.4 C 0 km/h
831 09-11-2019 21:10:00 3.3 C 5.7 g/m*3 3.3 C 0 km/h
832 09-11-2019 21:15:00 3.3 C 5.7 g/m*3 3.3 C 0 km/h
833 09-11-2019 21:20:00 3.3 C 5.76 g/m*3 3.3 C 0 km/h
834 09-11-2019 21:25:00 3.3 C 5.76 g/m*3 3.3 C 0 km/h
835 09-11-2019 21:30:00 3.2 C 5.72 g/m*3 3.2 C 0 km/h
836 09-11-2019 21:35:00 3.2 C 5.72 g/m*3 3.2 C 0 km/h
837 09-11-2019 21:40:00 3.2 C 5.72 g/m*3 3.2 C 0 km/h
838 09-11-2019 21:45:00 3.2 C 5.72 g/m*3 3.2 C 0 km/h
839 09-11-2019 21:50:00 3.2 C 5.72 g/m*3 3.2 C 0 km/h
840 09-11-2019 21:55:00 3.1 C 5.69 g/m*3 3.1 C 0 km/h
841 09-11-2019 22:00:00 3.1 C 5.69 g/m*3 3.1 C 0 km/h
842 09-11-2019 22:05:00 3.1 C 5.69 g/m*3 3.1 C 0 km/h
843 09-11-2019 22:10:00 2.9 C 5.61 g/m*3 2.9 C 0 km/h
844 09-11-2019 22:15:00 2.8 C 5.57 g/m*3 2.8 C 0 km/h
845 09-11-2019 22:20:00 2.7 C 5.54 g/m*3 2.7 C 0 km/h
846 09-11-2019 22:25:00 2.6 C 5.5 g/m*3 2.6 C 0 km/h
847 09-11-2019 22:30:00 2.6 C 5.5 g/m*3 2.6 C 0 km/h
848 09-11-2019 22:35:00 2.5 C 5.46 g/m*3 2.5 C 0 km/h
849 09-11-2019 22:40:00 2.6 C 5.5 g/m*3 2.6 C 0 km/h
850 09-11-2019 22:45:00 2.6 C 5.56 g/m*3 2.6 C 0 km/h
Sensor: Nr:Datum:Temp:Abs-Feuchte:Windchill:Wind:
Aussen-T/F 851 09-11-2019 22:50:00 2.6 C 5.56 g/m*3 2.6 C 0 km/h
852 09-11-2019 22:55:00 2.6 C 5.56 g/m*3 2.6 C 0 km/h
853 09-11-2019 23:00:00 2.4 C 5.42 g/m*3 2.4 C 0 km/h
854 09-11-2019 23:05:00 2.3 C 5.39 g/m*3 2.3 C 0 km/h
855 09-11-2019 23:10:00 2.2 C 5.35 g/m*3 2.2 C 0 km/h
856 09-11-2019 23:15:00 2.1 C 5.31 g/m*3 2.1 C 0 km/h
857 09-11-2019 23:20:00 2.1 C 5.31 g/m*3 2.1 C 0 km/h
858 09-11-2019 23:25:00 1.9 C 5.24 g/m*3 1.9 C 0 km/h
859 09-11-2019 23:30:00 1.9 C 5.24 g/m*3 1.9 C 0 km/h
860 09-11-2019 23:35:00 1.9 C 5.24 g/m*3 1.9 C 0 km/h
861 09-11-2019 23:40:00 1.8 C 5.21 g/m*3 1.8 C 0 km/h
862 09-11-2019 23:45:00 1.8 C 5.21 g/m*3 1.8 C 0 km/h
863 09-11-2019 23:50:00 1.8 C 5.21 g/m*3 1.8 C 0 km/h
864 09-11-2019 23:55:00 1.7 C 5.17 g/m*3 1.7 C 0 km/h
865 10-11-2019 00:00:00 1.6 C 5.19 g/m*3 1.6 C 0 km/h
866 10-11-2019 00:05:00 1.6 C 5.19 g/m*3 1.6 C 0 km/h
867 10-11-2019 00:10:00 1.4 C 5.07 g/m*3 1.4 C 0 km/h
868 10-11-2019 00:15:00 1.4 C 5.07 g/m*3 1.4 C 0 km/h
869 10-11-2019 00:20:00 1.3 C 5.03 g/m*3 1.3 C 0 km/h
870 10-11-2019 00:25:00 1.2 C 5.05 g/m*3 1.2 C 0 km/h
871 10-11-2019 00:30:00 1.2 C 5.05 g/m*3 1.2 C 0 km/h
872 10-11-2019 00:35:00 1.1 C 4.96 g/m*3 1.1 C 0 km/h
873 10-11-2019 00:40:00 1.1 C 5.02 g/m*3 1.1 C 0 km/h
874 10-11-2019 00:45:00 1.1 C 5.02 g/m*3 1.1 C 0 km/h
875 10-11-2019 00:50:00 1.1 C 5.02 g/m*3 1.1 C 0 km/h
Sensor: Nr:Datum:Temp:Abs-Feuchte:Windchill:Wind:
Aussen-T/F 876 10-11-2019 00:55:00 1 C 4.98 g/m*3 1 C 0 km/h
877 10-11-2019 01:00:00 1 C 4.98 g/m*3 1 C 0 km/h
878 10-11-2019 01:05:00 0.9 C 4.95 g/m*3 0.9 C 0 km/h
879 10-11-2019 01:10:00 1 C 4.98 g/m*3 1 C 0 km/h
880 10-11-2019 01:15:00 1.1 C 5.02 g/m*3 1.1 C 0 km/h
881 10-11-2019 01:20:00 1.2 C 5.05 g/m*3 1.2 C 0 km/h
882 10-11-2019 01:25:00 1.3 C 5.09 g/m*3 1.3 C 0 km/h
883 10-11-2019 01:30:00 1.4 C 5.12 g/m*3 1.4 C 0 km/h
884 10-11-2019 01:35:00 1.5 C 5.21 g/m*3 1.5 C 0 km/h
885 10-11-2019 01:40:00 1.6 C 5.25 g/m*3 1.6 C 0 km/h
886 10-11-2019 01:45:00 1.6 C 5.25 g/m*3 1.6 C 0 km/h
887 10-11-2019 01:50:00 1.6 C 5.25 g/m*3 1.6 C 0 km/h
888 10-11-2019 01:55:00 1.6 C 5.25 g/m*3 1.6 C 0 km/h
889 10-11-2019 02:00:00 1.6 C 5.25 g/m*3 1.6 C 0 km/h
890 10-11-2019 02:05:00 1.7 C 5.23 g/m*3 1.7 C 0 km/h
891 10-11-2019 02:10:00 1.7 C 5.23 g/m*3 1.7 C 0 km/h
892 10-11-2019 02:15:00 1.7 C 5.23 g/m*3 1.7 C 0 km/h
893 10-11-2019 02:20:00 1.7 C 5.23 g/m*3 1.7 C 0 km/h
894 10-11-2019 02:25:00 1.7 C 5.23 g/m*3 1.7 C 0 km/h
895 10-11-2019 02:30:00 1.6 C 5.25 g/m*3 1.6 C 0 km/h
896 10-11-2019 02:35:00 1.6 C 5.25 g/m*3 1.6 C 0 km/h
897 10-11-2019 02:40:00 1.6 C 5.25 g/m*3 1.6 C 0 km/h
898 10-11-2019 02:45:00 1.6 C 5.25 g/m*3 1.6 C 0 km/h
899 10-11-2019 02:50:00 1.7 C 5.28 g/m*3 1.7 C 0 km/h
900 10-11-2019 02:55:00 1.7 C 5.28 g/m*3 1.7 C 0 km/h
Sensor: Nr:Datum:Temp:Abs-Feuchte:Windchill:Wind:
Aussen-T/F 901 10-11-2019 03:00:00 1.7 C 5.28 g/m*3 1.7 C 0 km/h
902 10-11-2019 03:05:00 1.7 C 5.28 g/m*3 1.7 C 0 km/h
903 10-11-2019 03:10:00 1.7 C 5.28 g/m*3 1.7 C 0 km/h
904 10-11-2019 03:15:00 1.7 C 5.28 g/m*3 1.7 C 0 km/h
905 10-11-2019 03:20:00 1.6 C 5.25 g/m*3 1.6 C 0 km/h
906 10-11-2019 03:25:00 1.6 C 5.25 g/m*3 1.6 C 0 km/h
907 10-11-2019 03:30:00 1.6 C 5.25 g/m*3 1.6 C 0 km/h
908 10-11-2019 03:35:00 1.6 C 5.25 g/m*3 1.6 C 0 km/h
909 10-11-2019 03:40:00 1.6 C 5.25 g/m*3 1.6 C 0 km/h
910 10-11-2019 03:45:00 1.5 C 5.21 g/m*3 1.5 C 1.6 km/h
911 10-11-2019 03:50:00 1.4 C 5.17 g/m*3 1.4 C 1.6 km/h
912 10-11-2019 03:55:00 1.4 C 5.17 g/m*3 1.4 C 3.2 km/h
913 10-11-2019 04:00:00 1.3 C 5.14 g/m*3 1.3 C 1.6 km/h
914 10-11-2019 04:05:00 1.3 C 5.14 g/m*3 1.3 C 0 km/h
915 10-11-2019 04:10:00 1.3 C 5.14 g/m*3 1.3 C 3.2 km/h
916 10-11-2019 04:15:00 1.3 C 5.14 g/m*3 1.3 C 1.6 km/h
917 10-11-2019 04:20:00 1.2 C 5.1 g/m*3 1.2 C 3.2 km/h
918 10-11-2019 04:25:00 1.2 C 5.1 g/m*3 1.2 C 0 km/h
919 10-11-2019 04:30:00 1.3 C 5.14 g/m*3 1.3 C 0 km/h
920 10-11-2019 04:35:00 1.3 C 5.14 g/m*3 1.3 C 0 km/h
921 10-11-2019 04:40:00 1.3 C 5.14 g/m*3 1.3 C 0 km/h
922 10-11-2019 04:45:00 1.3 C 5.14 g/m*3 1.3 C 0 km/h
923 10-11-2019 04:50:00 1.3 C 5.14 g/m*3 1.3 C 0 km/h
924 10-11-2019 04:55:00 1.3 C 5.14 g/m*3 1.3 C 0 km/h
925 10-11-2019 05:00:00 1.3 C 5.14 g/m*3 1.3 C 0 km/h
Sensor: Nr:Datum:Temp:Abs-Feuchte:Windchill:Wind:
Aussen-T/F 926 10-11-2019 05:05:00 1.3 C 5.14 g/m*3 1.3 C 0 km/h
927 10-11-2019 05:10:00 1.3 C 5.14 g/m*3 1.3 C 0 km/h
928 10-11-2019 05:15:00 1.3 C 5.14 g/m*3 1.3 C 0 km/h
929 10-11-2019 05:20:00 1.3 C 5.14 g/m*3 1.3 C 0 km/h
930 10-11-2019 05:25:00 1.4 C 5.17 g/m*3 1.4 C 0 km/h
931 10-11-2019 05:30:00 1.4 C 5.17 g/m*3 1.4 C 0 km/h
932 10-11-2019 05:35:00 1.4 C 5.17 g/m*3 1.4 C 0 km/h
933 10-11-2019 05:40:00 1.4 C 5.17 g/m*3 1.4 C 0 km/h
934 10-11-2019 05:45:00 1.4 C 5.17 g/m*3 1.4 C 0 km/h
935 10-11-2019 05:50:00 1.5 C 5.21 g/m*3 1.5 C 0 km/h
936 10-11-2019 05:55:00 1.6 C 5.25 g/m*3 1.6 C 0 km/h
937 10-11-2019 06:00:00 1.7 C 5.28 g/m*3 1.7 C 0 km/h
938 10-11-2019 06:05:00 1.7 C 5.28 g/m*3 1.7 C 0 km/h
939 10-11-2019 06:10:00 1.7 C 5.28 g/m*3 1.7 C 0 km/h
940 10-11-2019 06:15:00 1.7 C 5.28 g/m*3 1.7 C 0 km/h
941 10-11-2019 06:20:00 1.8 C 5.32 g/m*3 1.8 C 3.2 km/h
942 10-11-2019 06:25:00 1.8 C 5.32 g/m*3 1.8 C 3.2 km/h
943 10-11-2019 06:30:00 1.7 C 5.28 g/m*3 1.7 C 4.8 km/h
944 10-11-2019 06:35:00 1.7 C 5.28 g/m*3 1.7 C 4.8 km/h
945 10-11-2019 06:40:00 1.7 C 5.28 g/m*3 1.7 C 4.8 km/h
946 10-11-2019 06:45:00 1.7 C 5.28 g/m*3 -0.22 C 6.4 km/h
947 10-11-2019 06:50:00 1.7 C 5.28 g/m*3 1.7 C 4.8 km/h
948 10-11-2019 06:55:00 1.6 C 5.25 g/m*3 1.6 C 3.2 km/h
949 10-11-2019 07:00:00 1.6 C 5.25 g/m*3 1.6 C 3.2 km/h
950 10-11-2019 07:05:00 1.6 C 5.25 g/m*3 1.6 C 3.2 km/h
Sensor: Nr:Datum:Temp:Abs-Feuchte:Windchill:Wind:
Aussen-T/F 951 10-11-2019 07:10:00 1.7 C 5.28 g/m*3 1.7 C 3.2 km/h
952 10-11-2019 07:15:00 1.6 C 5.25 g/m*3 1.6 C 3.2 km/h
953 10-11-2019 07:20:00 1.6 C 5.25 g/m*3 1.6 C 3.2 km/h
954 10-11-2019 07:25:00 1.6 C 5.25 g/m*3 1.6 C 3.2 km/h
955 10-11-2019 07:30:00 1.6 C 5.25 g/m*3 1.6 C 0 km/h
956 10-11-2019 07:35:00 1.6 C 5.25 g/m*3 1.6 C 1.6 km/h
957 10-11-2019 07:40:00 1.6 C 5.25 g/m*3 1.6 C 1.6 km/h
958 10-11-2019 07:45:00 1.6 C 5.25 g/m*3 1.6 C 0 km/h
959 10-11-2019 07:50:00 1.6 C 5.25 g/m*3 1.6 C 0 km/h
960 10-11-2019 07:55:00 1.7 C 5.28 g/m*3 1.7 C 0 km/h
961 10-11-2019 08:00:00 1.7 C 5.28 g/m*3 1.7 C 0 km/h
962 10-11-2019 08:05:00 1.7 C 5.28 g/m*3 1.7 C 0 km/h
963 10-11-2019 08:10:00 1.7 C 5.28 g/m*3 1.7 C 0 km/h
964 10-11-2019 08:15:00 1.8 C 5.32 g/m*3 1.8 C 0 km/h
965 10-11-2019 08:20:00 1.8 C 5.37 g/m*3 1.8 C 1.6 km/h
966 10-11-2019 08:25:00 1.8 C 5.32 g/m*3 1.8 C 1.6 km/h
967 10-11-2019 08:30:00 1.8 C 5.37 g/m*3 1.8 C 1.6 km/h
968 10-11-2019 08:35:00 1.9 C 5.41 g/m*3 1.9 C 0 km/h
969 10-11-2019 08:40:00 1.9 C 5.41 g/m*3 1.9 C 0 km/h
970 10-11-2019 08:45:00 1.9 C 5.41 g/m*3 1.9 C 0 km/h
971 10-11-2019 08:50:00 1.9 C 5.35 g/m*3 1.9 C 1.6 km/h
972 10-11-2019 08:55:00 1.9 C 5.35 g/m*3 1.9 C 0 km/h
973 10-11-2019 09:00:00 2 C 5.39 g/m*3 2 C 0 km/h
974 10-11-2019 09:05:00 2.1 C 5.43 g/m*3 2.1 C 0 km/h
975 10-11-2019 09:10:00 2.1 C 5.48 g/m*3 2.1 C 0 km/h
Sensor: Nr:Datum:Temp:Abs-Feuchte:Windchill:Wind:
Aussen-T/F 976 10-11-2019 09:15:00 2.2 C 5.52 g/m*3 2.2 C 0 km/h
977 10-11-2019 09:20:00 2.2 C 5.52 g/m*3 2.2 C 1.6 km/h
978 10-11-2019 09:25:00 2.2 C 5.52 g/m*3 2.2 C 1.6 km/h
979 10-11-2019 09:30:00 2.3 C 5.56 g/m*3 2.3 C 1.6 km/h
980 10-11-2019 09:35:00 2.3 C 5.56 g/m*3 2.3 C 0 km/h
981 10-11-2019 09:40:00 2.4 C 5.6 g/m*3 2.4 C 0 km/h
982 10-11-2019 09:45:00 2.4 C 5.6 g/m*3 2.4 C 0 km/h
983 10-11-2019 09:50:00 2.4 C 5.54 g/m*3 2.4 C 1.6 km/h
984 10-11-2019 09:55:00 2.4 C 5.54 g/m*3 2.4 C 1.6 km/h
985 10-11-2019 10:00:00 2.5 C 5.63 g/m*3 2.5 C 3.2 km/h
986 10-11-2019 10:05:00 2.6 C 5.67 g/m*3 2.6 C 3.2 km/h
987 10-11-2019 10:10:00 2.6 C 5.67 g/m*3 2.6 C 1.6 km/h
988 10-11-2019 10:15:00 2.6 C 5.67 g/m*3 2.6 C 1.6 km/h
989 10-11-2019 10:20:00 2.6 C 5.67 g/m*3 2.6 C 0 km/h
990 10-11-2019 10:25:00 2.6 C 5.67 g/m*3 2.6 C 0 km/h
991 10-11-2019 10:30:00 2.7 C 5.71 g/m*3 2.7 C 0 km/h
992 10-11-2019 10:35:00 2.7 C 5.71 g/m*3 2.7 C 0 km/h
993 10-11-2019 10:40:00 2.7 C 5.71 g/m*3 2.7 C 0 km/h
994 10-11-2019 10:45:00 2.7 C 5.71 g/m*3 2.7 C 0 km/h
995 10-11-2019 10:50:00 2.8 C 5.75 g/m*3 2.8 C 1.6 km/h
996 10-11-2019 10:55:00 2.9 C 5.79 g/m*3 2.9 C 0 km/h
997 10-11-2019 11:00:00 2.9 C 5.79 g/m*3 2.9 C 0 km/h
998 10-11-2019 11:05:00 3 C 5.83 g/m*3 3 C 1.6 km/h
999 10-11-2019 11:10:00 3.1 C 5.87 g/m*3 3.1 C 0 km/h
1000 10-11-2019 11:15:00 3.1 C 5.87 g/m*3 3.1 C 1.6 km/h
Sensor: Nr:Datum:Temp:Abs-Feuchte:Windchill:Wind:
Aussen-T/F 1001 10-11-2019 11:20:00 3.1 C 5.87 g/m*3 3.1 C 0 km/h
1002 10-11-2019 11:25:00 3.2 C 5.91 g/m*3 3.2 C 3.2 km/h
1003 10-11-2019 11:30:00 3.2 C 5.91 g/m*3 3.2 C 4.8 km/h
1004 10-11-2019 11:35:00 3.3 C 5.95 g/m*3 3.3 C 0 km/h
1005 10-11-2019 11:40:00 3.4 C 5.99 g/m*3 3.4 C 3.2 km/h
1006 10-11-2019 11:45:00 3.4 C 5.99 g/m*3 3.4 C 3.2 km/h
1007 10-11-2019 11:50:00 3.4 C 5.99 g/m*3 3.4 C 4.8 km/h
1008 10-11-2019 11:55:00 3.3 C 5.95 g/m*3 3.3 C 4.8 km/h
1009 10-11-2019 12:00:00 3.3 C 5.88 g/m*3 3.3 C 3.2 km/h
1010 10-11-2019 12:05:00 3.3 C 5.88 g/m*3 3.3 C 4.8 km/h
1011 10-11-2019 12:10:00 3.3 C 5.88 g/m*3 3.3 C 3.2 km/h
1012 10-11-2019 12:15:00 3.3 C 5.88 g/m*3 3.3 C 4.8 km/h
1013 10-11-2019 12:20:00 3.3 C 5.88 g/m*3 3.3 C 4.8 km/h
1014 10-11-2019 12:25:00 3.3 C 5.88 g/m*3 3.3 C 4.8 km/h
1015 10-11-2019 12:30:00 3.4 C 5.92 g/m*3 1.75 C 6.4 km/h
1016 10-11-2019 12:35:00 3.4 C 5.92 g/m*3 3.4 C 4.8 km/h
1017 10-11-2019 12:40:00 3.5 C 5.96 g/m*3 3.5 C 4.8 km/h
1018 10-11-2019 12:45:00 3.5 C 5.96 g/m*3 1.86 C 6.4 km/h
1019 10-11-2019 12:50:00 3.6 C 5.94 g/m*3 1.46 C 8.1 km/h
1020 10-11-2019 12:55:00 3.6 C 5.94 g/m*3 3.6 C 4.8 km/h
1021 10-11-2019 13:00:00 3.6 C 5.94 g/m*3 3.6 C 4.8 km/h
1022 10-11-2019 13:05:00 3.6 C 5.94 g/m*3 3.6 C 4.8 km/h
1023 10-11-2019 13:10:00 3.7 C 5.98 g/m*3 2.09 C 6.4 km/h
1024 10-11-2019 13:15:00 3.7 C 5.92 g/m*3 3.7 C 4.8 km/h
1025 10-11-2019 13:20:00 3.8 C 5.96 g/m*3 3.8 C 4.8 km/h
Sensor: Nr:Datum:Temp:Abs-Feuchte:Windchill:Wind:
Aussen-T/F 1026 10-11-2019 13:25:00 3.8 C 5.96 g/m*3 3.8 C 4.8 km/h
1027 10-11-2019 13:30:00 3.9 C 6 g/m*3 3.9 C 3.2 km/h
1028 10-11-2019 13:35:00 4 C 6.04 g/m*3 4 C 0 km/h
1029 10-11-2019 13:40:00 4 C 6.04 g/m*3 4 C 4.8 km/h
1030 10-11-2019 13:45:00 4.1 C 6.08 g/m*3 4.1 C 4.8 km/h
1031 10-11-2019 13:50:00 4.1 C 6.02 g/m*3 4.1 C 3.2 km/h
1032 10-11-2019 13:55:00 4.1 C 6.02 g/m*3 4.1 C 4.8 km/h
1033 10-11-2019 14:00:00 4.2 C 6.06 g/m*3 4.2 C 4.8 km/h
1034 10-11-2019 14:05:00 4.2 C 6.06 g/m*3 4.2 C 3.2 km/h
1035 10-11-2019 14:10:00 4.2 C 6.06 g/m*3 4.2 C 4.8 km/h
1036 10-11-2019 14:15:00 4.2 C 6.06 g/m*3 4.2 C 4.8 km/h
1037 10-11-2019 14:20:00 4.2 C 5.99 g/m*3 4.2 C 4.8 km/h
1038 10-11-2019 14:25:00 4.3 C 6.1 g/m*3 4.3 C 4.8 km/h
1039 10-11-2019 14:30:00 4.3 C 6.03 g/m*3 4.3 C 3.2 km/h
1040 10-11-2019 14:35:00 4.3 C 6.03 g/m*3 4.3 C 3.2 km/h
1041 10-11-2019 14:40:00 4.4 C 6.07 g/m*3 4.4 C 3.2 km/h
1042 10-11-2019 14:45:00 4.4 C 6.07 g/m*3 4.4 C 0 km/h
1043 10-11-2019 14:50:00 4.4 C 6.07 g/m*3 4.4 C 1.6 km/h
1044 10-11-2019 14:55:00 4.4 C 6.07 g/m*3 4.4 C 0 km/h
1045 10-11-2019 15:00:00 4.5 C 6.11 g/m*3 4.5 C 3.2 km/h
1046 10-11-2019 15:05:00 4.6 C 6.15 g/m*3 4.6 C 3.2 km/h
1047 10-11-2019 15:10:00 4.6 C 6.15 g/m*3 4.6 C 0 km/h
1048 10-11-2019 15:15:00 4.7 C 6.19 g/m*3 4.7 C 3.2 km/h
1049 10-11-2019 15:20:00 4.7 C 6.19 g/m*3 4.7 C 3.2 km/h
1050 10-11-2019 15:25:00 4.6 C 6.15 g/m*3 4.6 C 1.6 km/h
Sensor: Nr:Datum:Temp:Abs-Feuchte:Windchill:Wind:
Aussen-T/F 1051 10-11-2019 15:30:00 4.7 C 6.19 g/m*3 4.7 C 0 km/h
1052 10-11-2019 15:35:00 4.7 C 6.19 g/m*3 4.7 C 0 km/h
1053 10-11-2019 15:40:00 4.7 C 6.19 g/m*3 4.7 C 0 km/h
1054 10-11-2019 15:45:00 4.7 C 6.19 g/m*3 4.7 C 3.2 km/h
1055 10-11-2019 15:50:00 4.7 C 6.13 g/m*3 4.7 C 4.8 km/h
1056 10-11-2019 15:55:00 4.7 C 6.13 g/m*3 4.7 C 0 km/h
1057 10-11-2019 16:00:00 4.7 C 6.13 g/m*3 4.7 C 0 km/h
1058 10-11-2019 16:05:00 4.7 C 6.13 g/m*3 4.7 C 1.6 km/h
1059 10-11-2019 16:10:00 4.6 C 6.09 g/m*3 4.6 C 3.2 km/h
1060 10-11-2019 16:15:00 4.6 C 6.09 g/m*3 4.6 C 3.2 km/h
1061 10-11-2019 16:20:00 4.6 C 6.09 g/m*3 4.6 C 1.6 km/h
1062 10-11-2019 16:25:00 4.6 C 6.09 g/m*3 4.6 C 0 km/h
1063 10-11-2019 16:30:00 4.6 C 6.09 g/m*3 4.6 C 0 km/h
1064 10-11-2019 16:35:00 4.6 C 6.09 g/m*3 4.6 C 0 km/h
1065 10-11-2019 16:40:00 4.6 C 6.09 g/m*3 4.6 C 1.6 km/h
1066 10-11-2019 16:45:00 4.5 C 6.05 g/m*3 4.5 C 3.2 km/h
1067 10-11-2019 16:50:00 4.5 C 6.05 g/m*3 4.5 C 1.6 km/h
1068 10-11-2019 16:55:00 4.4 C 6.01 g/m*3 4.4 C 1.6 km/h
1069 10-11-2019 17:00:00 4.4 C 6.07 g/m*3 4.4 C 1.6 km/h
1070 10-11-2019 17:05:00 4.4 C 6.07 g/m*3 4.4 C 0 km/h
1071 10-11-2019 17:10:00 4.4 C 6.07 g/m*3 4.4 C 1.6 km/h
1072 10-11-2019 17:15:00 4.4 C 6.07 g/m*3 4.4 C 0 km/h
1073 10-11-2019 17:20:00 4.4 C 6.07 g/m*3 4.4 C 0 km/h
1074 10-11-2019 17:25:00 4.3 C 6.03 g/m*3 4.3 C 3.2 km/h
1075 10-11-2019 17:30:00 4.3 C 6.03 g/m*3 4.3 C 1.6 km/h
Sensor: Nr:Datum:Temp:Abs-Feuchte:Windchill:Wind:
Aussen-T/F 1076 10-11-2019 17:35:00 4.4 C 6.07 g/m*3 4.4 C 0 km/h
1077 10-11-2019 17:40:00 4.4 C 6.07 g/m*3 4.4 C 3.2 km/h
1078 10-11-2019 17:45:00 4.3 C 6.03 g/m*3 4.3 C 1.6 km/h
1079 10-11-2019 17:50:00 4.3 C 6.03 g/m*3 4.3 C 0 km/h
1080 10-11-2019 17:55:00 4.3 C 6.03 g/m*3 4.3 C 1.6 km/h
1081 10-11-2019 18:00:00 4.3 C 6.03 g/m*3 4.3 C 0 km/h
1082 10-11-2019 18:05:00 4.3 C 6.03 g/m*3 4.3 C 0 km/h
1083 10-11-2019 18:10:00 4.3 C 6.03 g/m*3 4.3 C 0 km/h
1084 10-11-2019 18:15:00 4.3 C 6.1 g/m*3 4.3 C 0 km/h
1085 10-11-2019 18:20:00 4.3 C 6.1 g/m*3 4.3 C 0 km/h
1086 10-11-2019 18:25:00 4.3 C 6.1 g/m*3 4.3 C 0 km/h
1087 10-11-2019 18:30:00 4.3 C 6.1 g/m*3 4.3 C 4.8 km/h
1088 10-11-2019 18:35:00 4.3 C 6.1 g/m*3 4.3 C 4.8 km/h
1089 10-11-2019 18:40:00 4.3 C 6.1 g/m*3 4.3 C 3.2 km/h
1090 10-11-2019 18:45:00 4.2 C 6.06 g/m*3 4.2 C 1.6 km/h
1091 10-11-2019 18:50:00 4.2 C 6.06 g/m*3 4.2 C 0 km/h
1092 10-11-2019 18:55:00 4.2 C 6.06 g/m*3 4.2 C 0 km/h
1093 10-11-2019 19:00:00 4.2 C 6.06 g/m*3 4.2 C 4.8 km/h
1094 10-11-2019 19:05:00 4.2 C 6.06 g/m*3 4.2 C 1.6 km/h
1095 10-11-2019 19:10:00 4.2 C 6.06 g/m*3 4.2 C 3.2 km/h
1096 10-11-2019 19:15:00 4.2 C 6.06 g/m*3 4.2 C 4.8 km/h
1097 10-11-2019 19:20:00 4.1 C 6.02 g/m*3 4.1 C 0 km/h
1098 10-11-2019 19:25:00 4.1 C 6.02 g/m*3 4.1 C 0 km/h
1099 10-11-2019 19:30:00 4.1 C 6.02 g/m*3 4.1 C 0 km/h
1100 10-11-2019 19:35:00 4.1 C 6.02 g/m*3 4.1 C 0 km/h
Sensor: Nr:Datum:Temp:Abs-Feuchte:Windchill:Wind:
Aussen-T/F 1101 10-11-2019 19:40:00 4.1 C 6.02 g/m*3 4.1 C 0 km/h
1102 10-11-2019 19:45:00 4.1 C 6.02 g/m*3 4.1 C 0 km/h
1103 10-11-2019 19:50:00 4.2 C 6.06 g/m*3 4.2 C 1.6 km/h
1104 10-11-2019 19:55:00 4.2 C 6.12 g/m*3 4.2 C 3.2 km/h
1105 10-11-2019 20:00:00 4.2 C 6.12 g/m*3 4.2 C 0 km/h
1106 10-11-2019 20:05:00 4.2 C 6.12 g/m*3 4.2 C 0 km/h
1107 10-11-2019 20:10:00 4.2 C 6.12 g/m*3 4.2 C 0 km/h
1108 10-11-2019 20:15:00 4.2 C 6.12 g/m*3 4.2 C 1.6 km/h
1109 10-11-2019 20:20:00 4.2 C 6.12 g/m*3 4.2 C 0 km/h
1110 10-11-2019 20:25:00 4.2 C 6.12 g/m*3 4.2 C 0 km/h
1111 10-11-2019 20:30:00 4.3 C 6.16 g/m*3 4.3 C 0 km/h
1112 10-11-2019 20:35:00 4.3 C 6.16 g/m*3 4.3 C 1.6 km/h
1113 10-11-2019 20:40:00 4.3 C 6.16 g/m*3 4.3 C 0 km/h
1114 10-11-2019 20:45:00 4.3 C 6.16 g/m*3 4.3 C 0 km/h
1115 10-11-2019 20:50:00 4.3 C 6.16 g/m*3 4.3 C 0 km/h
1116 10-11-2019 20:55:00 4.3 C 6.16 g/m*3 4.3 C 0 km/h
1117 10-11-2019 21:00:00 4.3 C 6.16 g/m*3 4.3 C 0 km/h
1118 10-11-2019 21:05:00 4.3 C 6.16 g/m*3 4.3 C 0 km/h
1119 10-11-2019 21:10:00 4.3 C 6.16 g/m*3 4.3 C 0 km/h
1120 10-11-2019 21:15:00 4.3 C 6.16 g/m*3 4.3 C 0 km/h
1121 10-11-2019 21:20:00 4.3 C 6.16 g/m*3 4.3 C 1.6 km/h
1122 10-11-2019 21:25:00 4.3 C 6.16 g/m*3 4.3 C 1.6 km/h
1123 10-11-2019 21:30:00 4.3 C 6.16 g/m*3 4.3 C 0 km/h
1124 10-11-2019 21:35:00 4.3 C 6.16 g/m*3 4.3 C 0 km/h
1125 10-11-2019 21:40:00 4.3 C 6.16 g/m*3 4.3 C 0 km/h
Sensor: Nr:Datum:Temp:Abs-Feuchte:Windchill:Wind:
Aussen-T/F 1126 10-11-2019 21:45:00 4.3 C 6.16 g/m*3 4.3 C 0 km/h
1127 10-11-2019 21:50:00 4.3 C 6.16 g/m*3 4.3 C 0 km/h
1128 10-11-2019 21:55:00 4.3 C 6.16 g/m*3 4.3 C 0 km/h
1129 10-11-2019 22:00:00 4.3 C 6.16 g/m*3 4.3 C 0 km/h
1130 10-11-2019 22:05:00 4.3 C 6.16 g/m*3 4.3 C 0 km/h
1131 10-11-2019 22:10:00 4.2 C 6.12 g/m*3 4.2 C 0 km/h
1132 10-11-2019 22:15:00 4.2 C 6.12 g/m*3 4.2 C 0 km/h
1133 10-11-2019 22:20:00 4.2 C 6.12 g/m*3 4.2 C 0 km/h
1134 10-11-2019 22:25:00 4.2 C 6.12 g/m*3 4.2 C 0 km/h
1135 10-11-2019 22:30:00 4.2 C 6.12 g/m*3 4.2 C 0 km/h
1136 10-11-2019 22:35:00 4.3 C 6.16 g/m*3 4.3 C 0 km/h
1137 10-11-2019 22:40:00 4.3 C 6.16 g/m*3 4.3 C 0 km/h
1138 10-11-2019 22:45:00 4.3 C 6.16 g/m*3 4.3 C 0 km/h
1139 10-11-2019 22:50:00 4.4 C 6.2 g/m*3 4.4 C 0 km/h
1140 10-11-2019 22:55:00 4.4 C 6.2 g/m*3 4.4 C 0 km/h
1141 10-11-2019 23:00:00 4.4 C 6.2 g/m*3 4.4 C 0 km/h
1142 10-11-2019 23:05:00 4.4 C 6.2 g/m*3 4.4 C 0 km/h
1143 10-11-2019 23:10:00 4.4 C 6.2 g/m*3 4.4 C 1.6 km/h
1144 10-11-2019 23:15:00 4.4 C 6.14 g/m*3 4.4 C 0 km/h
1145 10-11-2019 23:20:00 4.4 C 6.14 g/m*3 4.4 C 0 km/h
1146 10-11-2019 23:25:00 4.3 C 6.1 g/m*3 4.3 C 0 km/h
1147 10-11-2019 23:30:00 4.3 C 6.1 g/m*3 4.3 C 0 km/h
1148 10-11-2019 23:35:00 4.3 C 6.1 g/m*3 4.3 C 0 km/h
1149 10-11-2019 23:40:00 4.4 C 6.14 g/m*3 4.4 C 0 km/h
1150 10-11-2019 23:45:00 4.4 C 6.14 g/m*3 4.4 C 0 km/h
Sensor: Nr:Datum:Temp:Abs-Feuchte:Windchill:Wind:
Aussen-T/F 1151 10-11-2019 23:50:00 4.4 C 6.14 g/m*3 4.4 C 0 km/h
1152 10-11-2019 23:55:00 4.3 C 6.1 g/m*3 4.3 C 4.8 km/h
1153 11-11-2019 00:00:00 4.3 C 6.1 g/m*3 4.3 C 1.6 km/h
1154 11-11-2019 00:05:00 4.3 C 6.1 g/m*3 4.3 C 4.8 km/h
1155 11-11-2019 00:10:00 4.3 C 6.03 g/m*3 4.3 C 3.2 km/h
1156 11-11-2019 00:15:00 4.3 C 6.03 g/m*3 4.3 C 0 km/h
1157 11-11-2019 00:20:00 4.3 C 6.03 g/m*3 4.3 C 0 km/h
1158 11-11-2019 00:25:00 4.3 C 6.03 g/m*3 4.3 C 0 km/h
1159 11-11-2019 00:30:00 4.3 C 6.03 g/m*3 4.3 C 0 km/h
1160 11-11-2019 00:35:00 4.3 C 6.03 g/m*3 4.3 C 0 km/h
1161 11-11-2019 00:40:00 4.2 C 5.99 g/m*3 4.2 C 0 km/h
1162 11-11-2019 00:45:00 4.2 C 5.99 g/m*3 4.2 C 0 km/h
1163 11-11-2019 00:50:00 4.2 C 5.99 g/m*3 4.2 C 1.6 km/h
1164 11-11-2019 00:55:00 4.1 C 5.95 g/m*3 4.1 C 0 km/h
1165 11-11-2019 01:00:00 4.1 C 5.95 g/m*3 4.1 C 3.2 km/h
1166 11-11-2019 01:05:00 4.1 C 5.95 g/m*3 4.1 C 0 km/h
1167 11-11-2019 01:10:00 4 C 5.91 g/m*3 2.44 C 6.4 km/h
1168 11-11-2019 01:15:00 3.9 C 5.87 g/m*3 3.9 C 1.6 km/h
1169 11-11-2019 01:20:00 3.9 C 5.87 g/m*3 3.9 C 1.6 km/h
1170 11-11-2019 01:25:00 3.8 C 5.83 g/m*3 3.8 C 1.6 km/h
1171 11-11-2019 01:30:00 3.8 C 5.83 g/m*3 3.8 C 1.6 km/h
1172 11-11-2019 01:35:00 3.8 C 5.83 g/m*3 3.8 C 1.6 km/h
1173 11-11-2019 01:40:00 3.8 C 5.83 g/m*3 3.8 C 0 km/h
1174 11-11-2019 01:45:00 3.7 C 5.8 g/m*3 3.7 C 4.8 km/h
1175 11-11-2019 01:50:00 3.7 C 5.73 g/m*3 3.7 C 3.2 km/h
Sensor: Nr:Datum:Temp:Abs-Feuchte:Windchill:Wind:
Aussen-T/F 1176 11-11-2019 01:55:00 3.6 C 5.69 g/m*3 3.6 C 4.8 km/h
1177 11-11-2019 02:00:00 3.6 C 5.76 g/m*3 3.6 C 0 km/h
1178 11-11-2019 02:05:00 3.6 C 5.76 g/m*3 3.6 C 1.6 km/h
1179 11-11-2019 02:10:00 3.6 C 5.76 g/m*3 3.6 C 0 km/h
1180 11-11-2019 02:15:00 3.6 C 5.76 g/m*3 3.6 C 0 km/h
1181 11-11-2019 02:20:00 3.6 C 5.76 g/m*3 3.6 C 0 km/h
1182 11-11-2019 02:25:00 3.6 C 5.76 g/m*3 3.6 C 0 km/h
1183 11-11-2019 02:30:00 3.6 C 5.76 g/m*3 3.6 C 0 km/h
1184 11-11-2019 02:35:00 3.6 C 5.76 g/m*3 3.6 C 0 km/h
1185 11-11-2019 02:40:00 3.6 C 5.76 g/m*3 3.6 C 0 km/h
1186 11-11-2019 02:45:00 3.6 C 5.76 g/m*3 3.6 C 3.2 km/h
1187 11-11-2019 02:50:00 3.5 C 5.72 g/m*3 3.5 C 0 km/h
1188 11-11-2019 02:55:00 3.5 C 5.72 g/m*3 3.5 C 0 km/h
1189 11-11-2019 03:00:00 3.4 C 5.68 g/m*3 3.4 C 4.8 km/h
1190 11-11-2019 03:05:00 3.4 C 5.68 g/m*3 3.4 C 3.2 km/h
1191 11-11-2019 03:10:00 3.3 C 5.64 g/m*3 3.3 C 1.6 km/h
1192 11-11-2019 03:15:00 3.3 C 5.64 g/m*3 3.3 C 0 km/h
1193 11-11-2019 03:20:00 3.3 C 5.64 g/m*3 3.3 C 4.8 km/h
1194 11-11-2019 03:25:00 3.3 C 5.64 g/m*3 3.3 C 0 km/h
1195 11-11-2019 03:30:00 3.3 C 5.64 g/m*3 3.3 C 1.6 km/h
1196 11-11-2019 03:35:00 3.3 C 5.64 g/m*3 3.3 C 3.2 km/h
1197 11-11-2019 03:40:00 3.3 C 5.64 g/m*3 3.3 C 3.2 km/h
1198 11-11-2019 03:45:00 3.3 C 5.64 g/m*3 3.3 C 3.2 km/h
1199 11-11-2019 03:50:00 3.3 C 5.64 g/m*3 3.3 C 0 km/h
1200 11-11-2019 03:55:00 3.2 C 5.6 g/m*3 3.2 C 3.2 km/h
Sensor: Nr:Datum:Temp:Abs-Feuchte:Windchill:Wind:
Aussen-T/F 1201 11-11-2019 04:00:00 3.2 C 5.6 g/m*3 3.2 C 0 km/h
1202 11-11-2019 04:05:00 3.2 C 5.6 g/m*3 3.2 C 0 km/h
1203 11-11-2019 04:10:00 3.2 C 5.6 g/m*3 3.2 C 3.2 km/h
1204 11-11-2019 04:15:00 3.2 C 5.6 g/m*3 3.2 C 3.2 km/h
1205 11-11-2019 04:20:00 3.1 C 5.57 g/m*3 3.1 C 0 km/h
1206 11-11-2019 04:25:00 3.2 C 5.6 g/m*3 3.2 C 0 km/h
1207 11-11-2019 04:30:00 3.1 C 5.57 g/m*3 3.1 C 1.6 km/h
1208 11-11-2019 04:35:00 3.1 C 5.57 g/m*3 3.1 C 0 km/h
1209 11-11-2019 04:40:00 3.1 C 5.57 g/m*3 3.1 C 4.8 km/h
1210 11-11-2019 04:45:00 3.1 C 5.57 g/m*3 3.1 C 0 km/h
1211 11-11-2019 04:50:00 3.1 C 5.57 g/m*3 3.1 C 0 km/h
1212 11-11-2019 04:55:00 3.1 C 5.57 g/m*3 3.1 C 0 km/h
1213 11-11-2019 05:00:00 3.2 C 5.6 g/m*3 3.2 C 0 km/h
1214 11-11-2019 05:05:00 3.2 C 5.6 g/m*3 3.2 C 3.2 km/h
1215 11-11-2019 05:10:00 3.2 C 5.6 g/m*3 3.2 C 1.6 km/h
1216 11-11-2019 05:15:00 3.2 C 5.6 g/m*3 3.2 C 0 km/h
1217 11-11-2019 05:20:00 3.2 C 5.6 g/m*3 3.2 C 0 km/h
1218 11-11-2019 05:25:00 3.2 C 5.6 g/m*3 3.2 C 0 km/h
1219 11-11-2019 05:30:00 3.2 C 5.6 g/m*3 3.2 C 0 km/h
1220 11-11-2019 05:35:00 3.2 C 5.66 g/m*3 3.2 C 0 km/h
1221 11-11-2019 05:40:00 3.3 C 5.7 g/m*3 3.3 C 0 km/h
1222 11-11-2019 05:45:00 3.3 C 5.7 g/m*3 3.3 C 0 km/h
1223 11-11-2019 05:50:00 3.3 C 5.7 g/m*3 3.3 C 0 km/h
1224 11-11-2019 05:55:00 3.3 C 5.7 g/m*3 3.3 C 0 km/h
1225 11-11-2019 06:00:00 3.3 C 5.7 g/m*3 3.3 C 0 km/h
Sensor: Nr:Datum:Temp:Abs-Feuchte:Windchill:Wind:
Aussen-T/F 1226 11-11-2019 06:05:00 3.3 C 5.64 g/m*3 3.3 C 0 km/h
1227 11-11-2019 06:10:00 3.3 C 5.64 g/m*3 3.3 C 0 km/h
1228 11-11-2019 06:15:00 3.3 C 5.64 g/m*3 3.3 C 0 km/h
1229 11-11-2019 06:20:00 3.3 C 5.64 g/m*3 3.3 C 0 km/h
1230 11-11-2019 06:25:00 3.3 C 5.64 g/m*3 3.3 C 0 km/h
1231 11-11-2019 06:30:00 3.3 C 5.64 g/m*3 3.3 C 0 km/h
1232 11-11-2019 06:35:00 3.3 C 5.64 g/m*3 3.3 C 0 km/h
1233 11-11-2019 06:40:00 3.3 C 5.64 g/m*3 3.3 C 0 km/h
1234 11-11-2019 06:45:00 3.3 C 5.7 g/m*3 3.3 C 0 km/h
1235 11-11-2019 06:50:00 3.3 C 5.7 g/m*3 3.3 C 0 km/h
1236 11-11-2019 06:55:00 3.3 C 5.7 g/m*3 3.3 C 0 km/h
1237 11-11-2019 07:00:00 3.3 C 5.7 g/m*3 3.3 C 0 km/h
1238 11-11-2019 07:05:00 3.3 C 5.7 g/m*3 3.3 C 0 km/h
1239 11-11-2019 07:10:00 3.3 C 5.7 g/m*3 3.3 C 0 km/h
1240 11-11-2019 07:15:00 3.3 C 5.7 g/m*3 3.3 C 0 km/h
1241 11-11-2019 07:20:00 3.3 C 5.7 g/m*3 3.3 C 0 km/h
1242 11-11-2019 07:25:00 3.4 C 5.74 g/m*3 3.4 C 0 km/h
1243 11-11-2019 07:30:00 3.4 C 5.74 g/m*3 3.4 C 0 km/h
1244 11-11-2019 07:35:00 3.4 C 5.74 g/m*3 3.4 C 0 km/h
1245 11-11-2019 07:40:00 3.4 C 5.74 g/m*3 3.4 C 0 km/h
1246 11-11-2019 07:45:00 3.5 C 5.78 g/m*3 3.5 C 0 km/h
1247 11-11-2019 07:50:00 3.5 C 5.78 g/m*3 3.5 C 0 km/h
1248 11-11-2019 07:55:00 3.6 C 5.82 g/m*3 1.98 C 6.4 km/h
1249 11-11-2019 08:00:00 3.7 C 5.86 g/m*3 3.7 C 3.2 km/h
1250 11-11-2019 08:05:00 3.7 C 5.86 g/m*3 3.7 C 4.8 km/h
Sensor: Nr:Datum:Temp:Abs-Feuchte:Windchill:Wind:
Aussen-T/F 1251 11-11-2019 08:10:00 3.8 C 5.9 g/m*3 3.8 C 4.8 km/h
1252 11-11-2019 08:15:00 3.9 C 5.94 g/m*3 1.82 C 8.1 km/h
1253 11-11-2019 08:20:00 4.1 C 5.95 g/m*3 4.1 C 4.8 km/h
1254 11-11-2019 08:25:00 4.2 C 5.99 g/m*3 4.2 C 4.8 km/h
1255 11-11-2019 08:30:00 4.2 C 5.99 g/m*3 2.17 C 8.1 km/h
1256 11-11-2019 08:35:00 4.3 C 5.97 g/m*3 2.78 C 6.4 km/h
1257 11-11-2019 08:40:00 4.4 C 6.01 g/m*3 4.4 C 4.8 km/h
1258 11-11-2019 08:45:00 4.5 C 6.05 g/m*3 1.79 C 11.3 km/h
1259 11-11-2019 08:50:00 4.6 C 6.09 g/m*3 4.6 C 4.8 km/h
1260 11-11-2019 08:55:00 4.6 C 6.02 g/m*3 2.25 C 9.7 km/h
1261 11-11-2019 09:00:00 4.7 C 6.06 g/m*3 3.25 C 6.4 km/h
1262 11-11-2019 09:05:00 4.8 C 6.1 g/m*3 2.15 C 11.3 km/h
1263 11-11-2019 09:10:00 4.8 C 6.1 g/m*3 2.87 C 8.1 km/h
1264 11-11-2019 09:15:00 4.9 C 6.14 g/m*3 2.27 C 11.3 km/h
1265 11-11-2019 09:20:00 4.9 C 6.08 g/m*3 2.61 C 9.7 km/h
1266 11-11-2019 09:25:00 4.9 C 6.08 g/m*3 2.99 C 8.1 km/h
1267 11-11-2019 09:30:00 5 C 6.12 g/m*3 3.11 C 8.1 km/h
1268 11-11-2019 09:35:00 5.1 C 6.16 g/m*3 2.84 C 9.7 km/h
1269 11-11-2019 09:40:00 5.1 C 6.09 g/m*3 3.71 C 6.4 km/h
1270 11-11-2019 09:45:00 5.1 C 6.16 g/m*3 5.1 C 4.8 km/h
1271 11-11-2019 09:50:00 5.2 C 6.2 g/m*3 5.2 C 3.2 km/h
1272 11-11-2019 09:55:00 5.3 C 6.24 g/m*3 3.94 C 6.4 km/h
1273 11-11-2019 10:00:00 5.3 C 6.17 g/m*3 3.94 C 6.4 km/h
1274 11-11-2019 10:05:00 5.2 C 6.13 g/m*3 2.07 C 14.5 km/h
1275 11-11-2019 10:10:00 5.2 C 6.13 g/m*3 3.82 C 6.4 km/h
Sensor: Nr:Datum:Temp:Abs-Feuchte:Windchill:Wind:
Aussen-T/F 1276 11-11-2019 10:15:00 5.2 C 6.2 g/m*3 5.2 C 3.2 km/h
1277 11-11-2019 10:20:00 5.2 C 6.13 g/m*3 5.2 C 3.2 km/h
1278 11-11-2019 10:25:00 5.3 C 6.24 g/m*3 3.94 C 6.4 km/h
1279 11-11-2019 10:30:00 5.3 C 6.17 g/m*3 5.3 C 4.8 km/h
1280 11-11-2019 10:35:00 5.3 C 6.17 g/m*3 3.46 C 8.1 km/h
1281 11-11-2019 10:40:00 5.3 C 6.17 g/m*3 3.94 C 6.4 km/h
1282 11-11-2019 10:45:00 5.3 C 6.17 g/m*3 3.46 C 8.1 km/h
1283 11-11-2019 10:50:00 5.2 C 6.13 g/m*3 2.63 C 11.3 km/h
1284 11-11-2019 10:55:00 5.1 C 6.02 g/m*3 3.23 C 8.1 km/h
1285 11-11-2019 11:00:00 5.2 C 6.13 g/m*3 2.96 C 9.7 km/h
1286 11-11-2019 11:05:00 5.3 C 6.24 g/m*3 5.3 C 4.8 km/h
1287 11-11-2019 11:10:00 5.3 C 6.1 g/m*3 3.08 C 9.7 km/h
1288 11-11-2019 11:15:00 5.3 C 6.17 g/m*3 3.08 C 9.7 km/h
1289 11-11-2019 11:20:00 5.4 C 6.21 g/m*3 5.4 C 3.2 km/h
1290 11-11-2019 11:25:00 5.6 C 6.29 g/m*3 5.6 C 3.2 km/h
1291 11-11-2019 11:30:00 5.7 C 6.26 g/m*3 4.4 C 6.4 km/h
1292 11-11-2019 11:35:00 5.7 C 6.26 g/m*3 3.93 C 8.1 km/h
1293 11-11-2019 11:40:00 5.7 C 6.19 g/m*3 4.4 C 6.4 km/h
1294 11-11-2019 11:45:00 5.7 C 6.19 g/m*3 5.7 C 4.8 km/h
1295 11-11-2019 11:50:00 5.8 C 6.3 g/m*3 4.05 C 8.1 km/h
1296 11-11-2019 11:55:00 5.8 C 6.23 g/m*3 3.07 C 12.9 km/h
1297 11-11-2019 12:00:00 5.8 C 6.23 g/m*3 4.52 C 6.4 km/h
1298 11-11-2019 12:05:00 5.9 C 6.27 g/m*3 4.17 C 8.1 km/h
1299 11-11-2019 12:10:00 6 C 6.39 g/m*3 6 C 3.2 km/h
1300 11-11-2019 12:15:00 6.1 C 6.28 g/m*3 4.86 C 6.4 km/h
Sensor: Nr:Datum:Temp:Abs-Feuchte:Windchill:Wind:
Aussen-T/F 1301 11-11-2019 12:20:00 6 C 6.24 g/m*3 3.92 C 9.7 km/h
1302 11-11-2019 12:25:00 6 C 6.31 g/m*3 4.28 C 8.1 km/h
1303 11-11-2019 12:30:00 6.1 C 6.36 g/m*3 3.72 C 11.3 km/h
1304 11-11-2019 12:35:00 6.1 C 6.36 g/m*3 4.4 C 8.1 km/h
1305 11-11-2019 12:40:00 6 C 6.31 g/m*3 4.75 C 6.4 km/h
1306 11-11-2019 12:45:00 6 C 6.31 g/m*3 6 C 4.8 km/h
1307 11-11-2019 12:50:00 6.1 C 6.36 g/m*3 4.04 C 9.7 km/h
1308 11-11-2019 12:55:00 6.2 C 6.4 g/m*3 6.2 C 3.2 km/h
1309 11-11-2019 13:00:00 6.3 C 6.44 g/m*3 5.1 C 6.4 km/h
1310 11-11-2019 13:05:00 6.4 C 6.48 g/m*3 6.4 C 3.2 km/h
1311 11-11-2019 13:10:00 6.4 C 6.41 g/m*3 6.4 C 4.8 km/h
1312 11-11-2019 13:15:00 6.5 C 6.45 g/m*3 6.5 C 3.2 km/h
1313 11-11-2019 13:20:00 6.5 C 6.45 g/m*3 6.5 C 4.8 km/h
1314 11-11-2019 13:25:00 6.5 C 6.45 g/m*3 5.33 C 6.4 km/h
1315 11-11-2019 13:30:00 6.5 C 6.37 g/m*3 5.33 C 6.4 km/h
1316 11-11-2019 13:35:00 6.4 C 6.41 g/m*3 6.4 C 4.8 km/h
1317 11-11-2019 13:40:00 6.4 C 6.41 g/m*3 6.4 C 1.6 km/h
1318 11-11-2019 13:45:00 6.4 C 6.33 g/m*3 4.75 C 8.1 km/h
1319 11-11-2019 13:50:00 6.4 C 6.41 g/m*3 4.39 C 9.7 km/h
1320 11-11-2019 13:55:00 6.4 C 6.41 g/m*3 4.75 C 8.1 km/h
1321 11-11-2019 14:00:00 6.3 C 6.37 g/m*3 5.1 C 6.4 km/h
1322 11-11-2019 14:05:00 6.3 C 6.37 g/m*3 4.27 C 9.7 km/h
1323 11-11-2019 14:10:00 6.3 C 6.37 g/m*3 5.1 C 6.4 km/h
1324 11-11-2019 14:15:00 6.3 C 6.37 g/m*3 3.68 C 12.9 km/h
1325 11-11-2019 14:20:00 6.2 C 6.32 g/m*3 4.15 C 9.7 km/h
Sensor: Nr:Datum:Temp:Abs-Feuchte:Windchill:Wind:
Aussen-T/F 1326 11-11-2019 14:25:00 6.2 C 6.32 g/m*3 6.2 C 3.2 km/h
1327 11-11-2019 14:30:00 6.2 C 6.4 g/m*3 6.2 C 1.6 km/h
1328 11-11-2019 14:35:00 6.2 C 6.32 g/m*3 4.52 C 8.1 km/h
1329 11-11-2019 14:40:00 6 C 6.31 g/m*3 4.75 C 6.4 km/h
1330 11-11-2019 14:45:00 5.9 C 6.27 g/m*3 4.63 C 6.4 km/h
1331 11-11-2019 14:50:00 5.8 C 6.23 g/m*3 5.8 C 4.8 km/h
1332 11-11-2019 14:55:00 5.7 C 6.26 g/m*3 4.4 C 6.4 km/h
1333 11-11-2019 15:00:00 5.7 C 6.26 g/m*3 5.7 C 3.2 km/h
1334 11-11-2019 15:05:00 5.7 C 6.26 g/m*3 5.7 C 4.8 km/h
1335 11-11-2019 15:10:00 5.7 C 6.26 g/m*3 5.7 C 4.8 km/h
1336 11-11-2019 15:15:00 5.7 C 6.33 g/m*3 5.7 C 4.8 km/h
1337 11-11-2019 15:20:00 5.7 C 6.33 g/m*3 5.7 C 4.8 km/h
1338 11-11-2019 15:25:00 5.7 C 6.33 g/m*3 5.7 C 1.6 km/h
1339 11-11-2019 15:30:00 5.7 C 6.33 g/m*3 3.93 C 8.1 km/h
1340 11-11-2019 15:35:00 5.6 C 6.29 g/m*3 3.81 C 8.1 km/h
1341 11-11-2019 15:40:00 5.6 C 6.29 g/m*3 5.6 C 4.8 km/h
1342 11-11-2019 15:45:00 5.5 C 6.25 g/m*3 5.5 C 4.8 km/h
1343 11-11-2019 15:50:00 5.4 C 6.21 g/m*3 4.06 C 6.4 km/h
1344 11-11-2019 15:55:00 5.4 C 6.21 g/m*3 5.4 C 4.8 km/h
1345 11-11-2019 16:00:00 5.3 C 6.17 g/m*3 5.3 C 4.8 km/h
1346 11-11-2019 16:05:00 5.4 C 6.28 g/m*3 5.4 C 4.8 km/h
1347 11-11-2019 16:10:00 5.3 C 6.24 g/m*3 3.08 C 9.7 km/h
1348 11-11-2019 16:15:00 5.3 C 6.24 g/m*3 2.75 C 11.3 km/h
1349 11-11-2019 16:20:00 5.3 C 6.24 g/m*3 3.94 C 6.4 km/h
1350 11-11-2019 16:25:00 5.3 C 6.24 g/m*3 2.75 C 11.3 km/h
Sensor: Nr:Datum:Temp:Abs-Feuchte:Windchill:Wind:
Aussen-T/F 1351 11-11-2019 16:30:00 5.2 C 6.2 g/m*3 5.2 C 4.8 km/h
1352 11-11-2019 16:35:00 5.2 C 6.2 g/m*3 5.2 C 3.2 km/h
1353 11-11-2019 16:40:00 5.2 C 6.2 g/m*3 5.2 C 1.6 km/h
1354 11-11-2019 16:45:00 5.2 C 6.2 g/m*3 5.2 C 4.8 km/h
1355 11-11-2019 16:50:00 5.2 C 6.2 g/m*3 5.2 C 1.6 km/h
1356 11-11-2019 16:55:00 5.2 C 6.2 g/m*3 5.2 C 4.8 km/h
1357 11-11-2019 17:00:00 5.1 C 6.16 g/m*3 3.71 C 6.4 km/h
1358 11-11-2019 17:05:00 5.1 C 6.16 g/m*3 3.23 C 8.1 km/h
1359 11-11-2019 17:10:00 5.1 C 6.16 g/m*3 2.84 C 9.7 km/h
1360 11-11-2019 17:15:00 5.1 C 6.16 g/m*3 5.1 C 4.8 km/h
1361 11-11-2019 17:20:00 5.1 C 6.16 g/m*3 3.23 C 8.1 km/h
1362 11-11-2019 17:25:00 5.1 C 6.16 g/m*3 3.23 C 8.1 km/h
1363 11-11-2019 17:30:00 5.1 C 6.16 g/m*3 2.84 C 9.7 km/h
1364 11-11-2019 17:35:00 5.1 C 6.16 g/m*3 3.23 C 8.1 km/h
1365 11-11-2019 17:40:00 5.1 C 6.16 g/m*3 5.1 C 1.6 km/h
1366 11-11-2019 17:45:00 5.1 C 6.16 g/m*3 3.71 C 6.4 km/h
1367 11-11-2019 17:50:00 5.1 C 6.16 g/m*3 3.71 C 6.4 km/h
1368 11-11-2019 17:55:00 5 C 6.12 g/m*3 5 C 3.2 km/h
1369 11-11-2019 18:00:00 4.9 C 6.08 g/m*3 2.99 C 8.1 km/h
1370 11-11-2019 18:05:00 4.9 C 6.08 g/m*3 4.9 C 1.6 km/h
1371 11-11-2019 18:10:00 4.8 C 6.04 g/m*3 4.8 C 4.8 km/h
1372 11-11-2019 18:15:00 4.8 C 6.04 g/m*3 4.8 C 4.8 km/h
1373 11-11-2019 18:20:00 4.8 C 6.1 g/m*3 4.8 C 4.8 km/h
1374 11-11-2019 18:25:00 4.8 C 6.1 g/m*3 4.8 C 1.6 km/h
1375 11-11-2019 18:30:00 4.8 C 6.1 g/m*3 4.8 C 4.8 km/h
Sensor: Nr:Datum:Temp:Abs-Feuchte:Windchill:Wind:
Aussen-T/F 1376 11-11-2019 18:35:00 4.9 C 6.14 g/m*3 4.9 C 4.8 km/h
1377 11-11-2019 18:40:00 4.9 C 6.14 g/m*3 4.9 C 3.2 km/h
1378 11-11-2019 18:45:00 4.9 C 6.14 g/m*3 4.9 C 4.8 km/h
1379 11-11-2019 18:50:00 4.9 C 6.14 g/m*3 4.9 C 3.2 km/h
1380 11-11-2019 18:55:00 4.9 C 6.14 g/m*3 4.9 C 3.2 km/h
1381 11-11-2019 19:00:00 4.9 C 6.21 g/m*3 4.9 C 1.6 km/h
1382 11-11-2019 19:05:00 4.9 C 6.21 g/m*3 4.9 C 4.8 km/h
1383 11-11-2019 19:10:00 4.9 C 6.21 g/m*3 4.9 C 0 km/h
1384 11-11-2019 19:15:00 4.9 C 6.21 g/m*3 4.9 C 0 km/h
1385 11-11-2019 19:20:00 4.8 C 6.17 g/m*3 4.8 C 3.2 km/h
1386 11-11-2019 19:25:00 4.8 C 6.24 g/m*3 4.8 C 0 km/h
1387 11-11-2019 19:30:00 4.8 C 6.24 g/m*3 4.8 C 0 km/h
1388 11-11-2019 19:35:00 4.8 C 6.24 g/m*3 4.8 C 0 km/h
1389 11-11-2019 19:40:00 4.8 C 6.24 g/m*3 4.8 C 0 km/h
1390 11-11-2019 19:45:00 4.8 C 6.24 g/m*3 4.8 C 0 km/h
1391 11-11-2019 19:50:00 4.8 C 6.24 g/m*3 4.8 C 0 km/h
1392 11-11-2019 19:55:00 4.8 C 6.24 g/m*3 4.8 C 0 km/h
1393 11-11-2019 20:00:00 4.8 C 6.24 g/m*3 4.8 C 0 km/h
1394 11-11-2019 20:05:00 4.8 C 6.3 g/m*3 4.8 C 0 km/h
1395 11-11-2019 20:10:00 4.8 C 6.3 g/m*3 4.8 C 0 km/h
1396 11-11-2019 20:15:00 4.8 C 6.3 g/m*3 4.8 C 0 km/h
1397 11-11-2019 20:20:00 4.8 C 6.3 g/m*3 4.8 C 0 km/h
1398 11-11-2019 20:25:00 4.8 C 6.3 g/m*3 4.8 C 0 km/h
1399 11-11-2019 20:30:00 4.8 C 6.3 g/m*3 4.8 C 0 km/h
1400 11-11-2019 20:35:00 4.8 C 6.3 g/m*3 4.8 C 0 km/h
Sensor: Nr:Datum:Temp:Abs-Feuchte:Windchill:Wind:
Aussen-T/F 1401 11-11-2019 20:40:00 4.8 C 6.3 g/m*3 4.8 C 1.6 km/h
1402 11-11-2019 20:45:00 4.8 C 6.3 g/m*3 4.8 C 0 km/h
1403 11-11-2019 20:50:00 4.8 C 6.3 g/m*3 4.8 C 0 km/h
1404 11-11-2019 20:55:00 4.8 C 6.37 g/m*3 4.8 C 0 km/h
1405 11-11-2019 21:00:00 4.8 C 6.37 g/m*3 4.8 C 0 km/h
1406 11-11-2019 21:05:00 4.8 C 6.37 g/m*3 4.8 C 0 km/h
1407 11-11-2019 21:10:00 4.8 C 6.37 g/m*3 4.8 C 1.6 km/h
1408 11-11-2019 21:15:00 4.9 C 6.41 g/m*3 4.9 C 0 km/h
1409 11-11-2019 21:20:00 4.9 C 6.41 g/m*3 4.9 C 0 km/h
1410 11-11-2019 21:25:00 4.9 C 6.41 g/m*3 4.9 C 0 km/h
1411 11-11-2019 21:30:00 5 C 6.46 g/m*3 5 C 0 km/h
1412 11-11-2019 21:35:00 5 C 6.46 g/m*3 5 C 0 km/h
1413 11-11-2019 21:40:00 5.1 C 6.5 g/m*3 5.1 C 0 km/h
1414 11-11-2019 21:45:00 5.1 C 6.5 g/m*3 5.1 C 4.8 km/h
1415 11-11-2019 21:50:00 5.2 C 6.54 g/m*3 5.2 C 1.6 km/h
1416 11-11-2019 21:55:00 5.2 C 6.54 g/m*3 5.2 C 4.8 km/h
1417 11-11-2019 22:00:00 5.2 C 6.54 g/m*3 5.2 C 3.2 km/h
1418 11-11-2019 22:05:00 5.2 C 6.54 g/m*3 5.2 C 0 km/h
1419 11-11-2019 22:10:00 5.2 C 6.54 g/m*3 5.2 C 3.2 km/h
1420 11-11-2019 22:15:00 5.2 C 6.54 g/m*3 5.2 C 3.2 km/h
1421 11-11-2019 22:20:00 5.1 C 6.5 g/m*3 5.1 C 3.2 km/h
1422 11-11-2019 22:25:00 5.1 C 6.5 g/m*3 5.1 C 0 km/h
1423 11-11-2019 22:30:00 5.1 C 6.5 g/m*3 5.1 C 0 km/h
1424 11-11-2019 22:35:00 5.1 C 6.5 g/m*3 5.1 C 0 km/h
1425 11-11-2019 22:40:00 5.1 C 6.5 g/m*3 5.1 C 0 km/h
Sensor: Nr:Datum:Temp:Abs-Feuchte:Windchill:Wind:
Aussen-T/F 1426 11-11-2019 22:45:00 5.1 C 6.5 g/m*3 5.1 C 0 km/h
1427 11-11-2019 22:50:00 5.1 C 6.5 g/m*3 5.1 C 0 km/h
1428 11-11-2019 22:55:00 5.1 C 6.5 g/m*3 5.1 C 0 km/h
1429 11-11-2019 23:00:00 5.1 C 6.5 g/m*3 5.1 C 0 km/h
1430 11-11-2019 23:05:00 5.1 C 6.57 g/m*3 5.1 C 0 km/h
1431 11-11-2019 23:10:00 5.2 C 6.61 g/m*3 5.2 C 0 km/h
1432 11-11-2019 23:15:00 5.2 C 6.61 g/m*3 5.2 C 0 km/h
1433 11-11-2019 23:20:00 5.2 C 6.61 g/m*3 5.2 C 0 km/h
1434 11-11-2019 23:25:00 5.2 C 6.61 g/m*3 5.2 C 0 km/h
1435 11-11-2019 23:30:00 5.2 C 6.61 g/m*3 5.2 C 0 km/h
1436 11-11-2019 23:35:00 5.2 C 6.61 g/m*3 5.2 C 0 km/h
1437 11-11-2019 23:40:00 5.2 C 6.61 g/m*3 5.2 C 0 km/h
1438 11-11-2019 23:45:00 5.2 C 6.61 g/m*3 5.2 C 0 km/h
1439 11-11-2019 23:50:00 5.2 C 6.61 g/m*3 5.2 C 1.6 km/h
1440 11-11-2019 23:55:00 5.2 C 6.61 g/m*3 5.2 C 0 km/h
1441 12-11-2019 00:00:00 5.2 C 6.61 g/m*3 5.2 C 0 km/h
1442 12-11-2019 00:05:00 5.1 C 6.57 g/m*3 5.1 C 0 km/h
1443 12-11-2019 00:10:00 5.1 C 6.5 g/m*3 5.1 C 0 km/h
1444 12-11-2019 00:15:00 5 C 6.46 g/m*3 5 C 0 km/h
1445 12-11-2019 00:20:00 5 C 6.52 g/m*3 5 C 0 km/h
1446 12-11-2019 00:25:00 5 C 6.52 g/m*3 5 C 0 km/h
1447 12-11-2019 00:30:00 5.1 C 6.57 g/m*3 5.1 C 0 km/h
1448 12-11-2019 00:35:00 5.1 C 6.57 g/m*3 5.1 C 0 km/h
1449 12-11-2019 00:40:00 5.1 C 6.57 g/m*3 5.1 C 0 km/h
1450 12-11-2019 00:45:00 5.1 C 6.57 g/m*3 5.1 C 0 km/h
Sensor: Nr:Datum:Temp:Abs-Feuchte:Windchill:Wind:
Aussen-T/F 1451 12-11-2019 00:50:00 5 C 6.52 g/m*3 5 C 0 km/h
1452 12-11-2019 00:55:00 4.8 C 6.44 g/m*3 4.8 C 1.6 km/h
1453 12-11-2019 01:00:00 4.8 C 6.44 g/m*3 4.8 C 1.6 km/h
1454 12-11-2019 01:05:00 4.7 C 6.39 g/m*3 4.7 C 1.6 km/h
1455 12-11-2019 01:10:00 4.8 C 6.44 g/m*3 4.8 C 3.2 km/h
1456 12-11-2019 01:15:00 4.9 C 6.48 g/m*3 4.9 C 4.8 km/h
1457 12-11-2019 01:20:00 5.1 C 6.57 g/m*3 3.23 C 8.1 km/h
1458 12-11-2019 01:25:00 5.1 C 6.57 g/m*3 5.1 C 1.6 km/h
1459 12-11-2019 01:30:00 5.2 C 6.61 g/m*3 5.2 C 3.2 km/h
1460 12-11-2019 01:35:00 5.2 C 6.61 g/m*3 5.2 C 3.2 km/h
1461 12-11-2019 01:40:00 5.2 C 6.61 g/m*3 3.34 C 8.1 km/h
1462 12-11-2019 01:45:00 5.2 C 6.61 g/m*3 5.2 C 4.8 km/h
1463 12-11-2019 01:50:00 5.2 C 6.61 g/m*3 2.63 C 11.3 km/h
1464 12-11-2019 01:55:00 5.2 C 6.54 g/m*3 2.63 C 11.3 km/h
1465 12-11-2019 02:00:00 5.3 C 6.58 g/m*3 2.75 C 11.3 km/h
1466 12-11-2019 02:05:00 5.3 C 6.52 g/m*3 5.3 C 4.8 km/h
1467 12-11-2019 02:10:00 5.3 C 6.52 g/m*3 5.3 C 3.2 km/h
1468 12-11-2019 02:15:00 5.4 C 6.56 g/m*3 5.4 C 0 km/h
1469 12-11-2019 02:20:00 5.4 C 6.56 g/m*3 5.4 C 0 km/h
1470 12-11-2019 02:25:00 5.4 C 6.56 g/m*3 5.4 C 0 km/h
1471 12-11-2019 02:30:00 5.4 C 6.56 g/m*3 5.4 C 0 km/h
1472 12-11-2019 02:35:00 5.4 C 6.56 g/m*3 5.4 C 0 km/h
1473 12-11-2019 02:40:00 5.4 C 6.56 g/m*3 5.4 C 0 km/h
1474 12-11-2019 02:45:00 5.4 C 6.56 g/m*3 3.2 C 9.7 km/h
1475 12-11-2019 02:50:00 5.4 C 6.56 g/m*3 4.06 C 6.4 km/h
Sensor: Nr:Datum:Temp:Abs-Feuchte:Windchill:Wind:
Aussen-T/F 1476 12-11-2019 02:55:00 5.4 C 6.56 g/m*3 5.4 C 3.2 km/h
1477 12-11-2019 03:00:00 5.4 C 6.56 g/m*3 4.06 C 6.4 km/h
1478 12-11-2019 03:05:00 5.5 C 6.53 g/m*3 2.99 C 11.3 km/h
1479 12-11-2019 03:10:00 5.5 C 6.53 g/m*3 5.5 C 0 km/h
1480 12-11-2019 03:15:00 5.5 C 6.46 g/m*3 5.5 C 3.2 km/h
1481 12-11-2019 03:20:00 5.5 C 6.46 g/m*3 5.5 C 3.2 km/h
1482 12-11-2019 03:25:00 5.5 C 6.46 g/m*3 5.5 C 0 km/h
1483 12-11-2019 03:30:00 5.4 C 6.42 g/m*3 4.06 C 6.4 km/h
1484 12-11-2019 03:35:00 5.4 C 6.42 g/m*3 3.2 C 9.7 km/h
1485 12-11-2019 03:40:00 5.5 C 6.46 g/m*3 5.5 C 0 km/h
1486 12-11-2019 03:45:00 5.5 C 6.46 g/m*3 5.5 C 0 km/h
1487 12-11-2019 03:50:00 5.5 C 6.46 g/m*3 5.5 C 1.6 km/h
1488 12-11-2019 03:55:00 5.5 C 6.46 g/m*3 5.5 C 0 km/h
1489 12-11-2019 04:00:00 5.5 C 6.46 g/m*3 5.5 C 1.6 km/h
1490 12-11-2019 04:05:00 5.5 C 6.46 g/m*3 5.5 C 0 km/h
1491 12-11-2019 04:10:00 5.5 C 6.46 g/m*3 5.5 C 0 km/h
1492 12-11-2019 04:15:00 5.5 C 6.46 g/m*3 5.5 C 4.8 km/h
1493 12-11-2019 04:20:00 5.6 C 6.43 g/m*3 3.81 C 8.1 km/h
1494 12-11-2019 04:25:00 5.6 C 6.43 g/m*3 5.6 C 3.2 km/h
1495 12-11-2019 04:30:00 5.6 C 6.43 g/m*3 5.6 C 0 km/h
1496 12-11-2019 04:35:00 5.6 C 6.43 g/m*3 5.6 C 4.8 km/h
1497 12-11-2019 04:40:00 5.7 C 6.4 g/m*3 5.7 C 4.8 km/h
1498 12-11-2019 04:45:00 5.7 C 6.4 g/m*3 5.7 C 0 km/h
1499 12-11-2019 04:50:00 5.7 C 6.48 g/m*3 5.7 C 0 km/h
1500 12-11-2019 04:55:00 5.7 C 6.48 g/m*3 5.7 C 0 km/h
Sensor: Nr:Datum:Temp:Abs-Feuchte:Windchill:Wind:
Aussen-T/F 1501 12-11-2019 05:00:00 5.7 C 6.48 g/m*3 5.7 C 0 km/h
1502 12-11-2019 05:05:00 5.7 C 6.48 g/m*3 4.4 C 6.4 km/h
1503 12-11-2019 05:10:00 5.6 C 6.43 g/m*3 5.6 C 0 km/h
1504 12-11-2019 05:15:00 5.6 C 6.43 g/m*3 5.6 C 0 km/h
1505 12-11-2019 05:20:00 5.5 C 6.39 g/m*3 5.5 C 0 km/h
1506 12-11-2019 05:25:00 5.4 C 6.35 g/m*3 5.4 C 0 km/h
1507 12-11-2019 05:30:00 5.4 C 6.42 g/m*3 5.4 C 0 km/h
1508 12-11-2019 05:35:00 5.4 C 6.42 g/m*3 5.4 C 0 km/h
1509 12-11-2019 05:40:00 5.3 C 6.38 g/m*3 5.3 C 0 km/h
1510 12-11-2019 05:45:00 5.3 C 6.38 g/m*3 3.94 C 6.4 km/h
1511 12-11-2019 05:50:00 5.3 C 6.38 g/m*3 5.3 C 0 km/h
1512 12-11-2019 05:55:00 5.3 C 6.38 g/m*3 5.3 C 0 km/h
1513 12-11-2019 06:00:00 5.3 C 6.45 g/m*3 5.3 C 3.2 km/h
1514 12-11-2019 06:05:00 5.3 C 6.45 g/m*3 5.3 C 0 km/h
1515 12-11-2019 06:10:00 5.3 C 6.45 g/m*3 5.3 C 1.6 km/h
1516 12-11-2019 06:15:00 5.3 C 6.38 g/m*3 5.3 C 0 km/h
1517 12-11-2019 06:20:00 5.4 C 6.49 g/m*3 5.4 C 0 km/h
1518 12-11-2019 06:25:00 5.4 C 6.42 g/m*3 4.06 C 6.4 km/h
1519 12-11-2019 06:30:00 5.4 C 6.42 g/m*3 5.4 C 0 km/h
1520 12-11-2019 06:35:00 5.4 C 6.35 g/m*3 5.4 C 3.2 km/h
1521 12-11-2019 06:40:00 5.4 C 6.35 g/m*3 5.4 C 1.6 km/h
1522 12-11-2019 06:45:00 5.4 C 6.35 g/m*3 5.4 C 4.8 km/h
1523 12-11-2019 06:50:00 5.4 C 6.35 g/m*3 5.4 C 4.8 km/h
1524 12-11-2019 06:55:00 5.5 C 6.39 g/m*3 5.5 C 1.6 km/h
1525 12-11-2019 07:00:00 5.6 C 6.43 g/m*3 5.6 C 0 km/h
Sensor: Nr:Datum:Temp:Abs-Feuchte:Windchill:Wind:
Aussen-T/F 1526 12-11-2019 07:05:00 5.6 C 6.43 g/m*3 5.6 C 0 km/h
1527 12-11-2019 07:10:00 5.6 C 6.36 g/m*3 5.6 C 4.8 km/h
1528 12-11-2019 07:15:00 5.6 C 6.36 g/m*3 5.6 C 1.6 km/h
1529 12-11-2019 07:20:00 5.7 C 6.4 g/m*3 5.7 C 1.6 km/h
1530 12-11-2019 07:25:00 5.7 C 6.4 g/m*3 5.7 C 0 km/h
1531 12-11-2019 07:30:00 5.7 C 6.4 g/m*3 5.7 C 3.2 km/h
1532 12-11-2019 07:35:00 5.7 C 6.33 g/m*3 5.7 C 4.8 km/h
1533 12-11-2019 07:40:00 5.8 C 6.38 g/m*3 5.8 C 1.6 km/h
1534 12-11-2019 07:45:00 5.8 C 6.38 g/m*3 5.8 C 1.6 km/h
1535 12-11-2019 07:50:00 5.8 C 6.38 g/m*3 4.52 C 6.4 km/h
1536 12-11-2019 07:55:00 5.8 C 6.38 g/m*3 5.8 C 3.2 km/h
1537 12-11-2019 08:00:00 5.8 C 6.38 g/m*3 5.8 C 0 km/h
1538 12-11-2019 08:05:00 5.8 C 6.38 g/m*3 5.8 C 3.2 km/h
1539 12-11-2019 08:10:00 5.8 C 6.38 g/m*3 5.8 C 0 km/h
1540 12-11-2019 08:15:00 5.8 C 6.45 g/m*3 5.8 C 0 km/h
1541 12-11-2019 08:20:00 5.8 C 6.38 g/m*3 5.8 C 1.6 km/h
1542 12-11-2019 08:25:00 5.8 C 6.38 g/m*3 5.8 C 0 km/h
1543 12-11-2019 08:30:00 5.9 C 6.42 g/m*3 5.9 C 4.8 km/h
1544 12-11-2019 08:35:00 5.9 C 6.42 g/m*3 4.63 C 6.4 km/h
1545 12-11-2019 08:40:00 6 C 6.46 g/m*3 6 C 0 km/h
1546 12-11-2019 08:45:00 6 C 6.46 g/m*3 6 C 1.6 km/h
1547 12-11-2019 08:50:00 6 C 6.46 g/m*3 6 C 0 km/h
1548 12-11-2019 08:55:00 6 C 6.46 g/m*3 4.75 C 6.4 km/h
1549 12-11-2019 09:00:00 6.1 C 6.43 g/m*3 6.1 C 1.6 km/h
1550 12-11-2019 09:05:00 6.1 C 6.5 g/m*3 6.1 C 0 km/h
Sensor: Nr:Datum:Temp:Abs-Feuchte:Windchill:Wind:
Aussen-T/F 1551 12-11-2019 09:10:00 6.2 C 6.47 g/m*3 6.2 C 0 km/h
1552 12-11-2019 09:15:00 6.3 C 6.51 g/m*3 6.3 C 3.2 km/h
1553 12-11-2019 09:20:00 6.4 C 6.56 g/m*3 6.4 C 0 km/h
1554 12-11-2019 09:25:00 6.4 C 6.48 g/m*3 6.4 C 3.2 km/h
1555 12-11-2019 09:30:00 6.6 C 6.49 g/m*3 5.44 C 6.4 km/h
1556 12-11-2019 09:35:00 6.7 C 6.53 g/m*3 5.11 C 8.1 km/h
1557 12-11-2019 09:40:00 6.9 C 6.62 g/m*3 6.9 C 1.6 km/h
1558 12-11-2019 09:45:00 7 C 6.59 g/m*3 7 C 4.8 km/h
1559 12-11-2019 09:50:00 7.1 C 6.55 g/m*3 7.1 C 1.6 km/h
1560 12-11-2019 09:55:00 7.2 C 6.59 g/m*3 7.2 C 4.8 km/h
1561 12-11-2019 10:00:00 7.2 C 6.52 g/m*3 7.2 C 4.8 km/h
1562 12-11-2019 10:05:00 7.3 C 6.64 g/m*3 7.3 C 3.2 km/h
1563 12-11-2019 10:10:00 7.4 C 6.6 g/m*3 5.28 C 11.3 km/h
1564 12-11-2019 10:15:00 7.5 C 6.64 g/m*3 7.5 C 4.8 km/h
1565 12-11-2019 10:20:00 7.6 C 6.61 g/m*3 6.6 C 6.4 km/h
1566 12-11-2019 10:25:00 7.7 C 6.73 g/m*3 7.7 C 4.8 km/h
1567 12-11-2019 10:30:00 7.7 C 6.57 g/m*3 5.94 C 9.7 km/h
1568 12-11-2019 10:35:00 7.8 C 6.77 g/m*3 7.8 C 4.8 km/h
1569 12-11-2019 10:40:00 7.8 C 6.69 g/m*3 6.4 C 8.1 km/h
1570 12-11-2019 10:45:00 7.9 C 6.82 g/m*3 7.9 C 4.8 km/h
1571 12-11-2019 10:50:00 8 C 6.78 g/m*3 6.64 C 8.1 km/h
1572 12-11-2019 10:55:00 8.1 C 6.82 g/m*3 8.1 C 4.8 km/h
1573 12-11-2019 11:00:00 8.2 C 6.78 g/m*3 6.87 C 8.1 km/h
1574 12-11-2019 11:05:00 8.2 C 6.78 g/m*3 6.87 C 8.1 km/h
1575 12-11-2019 11:10:00 8.2 C 6.78 g/m*3 6.25 C 11.3 km/h
Sensor: Nr:Datum:Temp:Abs-Feuchte:Windchill:Wind:
Aussen-T/F 1576 12-11-2019 11:15:00 8.3 C 6.74 g/m*3 6.99 C 8.1 km/h
1577 12-11-2019 11:20:00 8.3 C 6.74 g/m*3 6.37 C 11.3 km/h
1578 12-11-2019 11:25:00 8.2 C 6.87 g/m*3 6.54 C 9.7 km/h
1579 12-11-2019 11:30:00 8.2 C 6.87 g/m*3 6.54 C 9.7 km/h
1580 12-11-2019 11:35:00 8 C 6.78 g/m*3 6.3 C 9.7 km/h
1581 12-11-2019 11:40:00 7.9 C 6.82 g/m*3 6.18 C 9.7 km/h
1582 12-11-2019 11:45:00 7.7 C 6.73 g/m*3 5.94 C 9.7 km/h
1583 12-11-2019 11:50:00 7.6 C 6.77 g/m*3 5.53 C 11.3 km/h
1584 12-11-2019 11:55:00 7.6 C 6.77 g/m*3 5.82 C 9.7 km/h
1585 12-11-2019 12:00:00 7.6 C 6.77 g/m*3 5.26 C 12.9 km/h
1586 12-11-2019 12:05:00 7.6 C 6.85 g/m*3 5.26 C 12.9 km/h
1587 12-11-2019 12:10:00 7.7 C 6.81 g/m*3 5.38 C 12.9 km/h
1588 12-11-2019 12:15:00 7.8 C 6.94 g/m*3 5.77 C 11.3 km/h
1589 12-11-2019 12:20:00 7.9 C 6.98 g/m*3 5.89 C 11.3 km/h
1590 12-11-2019 12:25:00 8 C 7.03 g/m*3 5.75 C 12.9 km/h
1591 12-11-2019 12:30:00 8.1 C 6.99 g/m*3 5.87 C 12.9 km/h
1592 12-11-2019 12:35:00 8.2 C 6.95 g/m*3 5.36 C 17.7 km/h
1593 12-11-2019 12:40:00 8.1 C 6.91 g/m*3 5.23 C 17.7 km/h
1594 12-11-2019 12:45:00 8.1 C 6.82 g/m*3 4.58 C 24.1 km/h
1595 12-11-2019 12:50:00 8 C 6.78 g/m*3 4.45 C 24.1 km/h
1596 12-11-2019 12:55:00 7.9 C 6.82 g/m*3 4.98 C 17.7 km/h
1597 12-11-2019 13:00:00 7.8 C 6.77 g/m*3 4.51 C 20.9 km/h
1598 12-11-2019 13:05:00 7.8 C 6.69 g/m*3 4.68 C 19.3 km/h
1599 12-11-2019 13:10:00 7.8 C 6.69 g/m*3 5.06 C 16.1 km/h
1600 12-11-2019 13:15:00 7.8 C 6.69 g/m*3 4.86 C 17.7 km/h
Sensor: Nr:Datum:Temp:Abs-Feuchte:Windchill:Wind:
Aussen-T/F 1601 12-11-2019 13:20:00 7.8 C 6.69 g/m*3 5.77 C 11.3 km/h
1602 12-11-2019 13:25:00 7.8 C 6.69 g/m*3 5.27 C 14.5 km/h
1603 12-11-2019 13:30:00 7.8 C 6.69 g/m*3 5.06 C 16.1 km/h
1604 12-11-2019 13:35:00 7.7 C 6.65 g/m*3 4.73 C 17.7 km/h
1605 12-11-2019 13:40:00 7.7 C 6.65 g/m*3 4.93 C 16.1 km/h
1606 12-11-2019 13:45:00 7.6 C 6.61 g/m*3 5.02 C 14.5 km/h
1607 12-11-2019 13:50:00 7.6 C 6.61 g/m*3 5.53 C 11.3 km/h
1608 12-11-2019 13:55:00 7.6 C 6.61 g/m*3 4.61 C 17.7 km/h
1609 12-11-2019 14:00:00 7.6 C 6.53 g/m*3 5.82 C 9.7 km/h
1610 12-11-2019 14:05:00 7.7 C 6.57 g/m*3 5.94 C 9.7 km/h
1611 12-11-2019 14:10:00 7.7 C 6.57 g/m*3 5.94 C 9.7 km/h
1612 12-11-2019 14:15:00 7.7 C 6.57 g/m*3 5.94 C 9.7 km/h
1613 12-11-2019 14:20:00 7.8 C 6.53 g/m*3 4.86 C 17.7 km/h
1614 12-11-2019 14:25:00 7.8 C 6.61 g/m*3 6.4 C 8.1 km/h
1615 12-11-2019 14:30:00 7.9 C 6.57 g/m*3 5.39 C 14.5 km/h
1616 12-11-2019 14:35:00 7.8 C 6.53 g/m*3 4.86 C 17.7 km/h
1617 12-11-2019 14:40:00 7.8 C 6.53 g/m*3 5.27 C 14.5 km/h
1618 12-11-2019 14:45:00 7.8 C 6.53 g/m*3 5.51 C 12.9 km/h
1619 12-11-2019 14:50:00 7.8 C 6.53 g/m*3 6.06 C 9.7 km/h
1620 12-11-2019 14:55:00 7.8 C 6.53 g/m*3 7.8 C 4.8 km/h
1621 12-11-2019 15:00:00 7.8 C 6.53 g/m*3 6.4 C 8.1 km/h
1622 12-11-2019 15:05:00 7.8 C 6.53 g/m*3 5.27 C 14.5 km/h
1623 12-11-2019 15:10:00 7.8 C 6.53 g/m*3 6.06 C 9.7 km/h
1624 12-11-2019 15:15:00 7.8 C 6.53 g/m*3 5.77 C 11.3 km/h
1625 12-11-2019 15:20:00 7.8 C 6.53 g/m*3 6.83 C 6.4 km/h
Sensor: Nr:Datum:Temp:Abs-Feuchte:Windchill:Wind:
Aussen-T/F 1626 12-11-2019 15:25:00 7.8 C 6.53 g/m*3 5.06 C 16.1 km/h
1627 12-11-2019 15:30:00 7.8 C 6.45 g/m*3 6.06 C 9.7 km/h
1628 12-11-2019 15:35:00 7.8 C 6.53 g/m*3 6.4 C 8.1 km/h
1629 12-11-2019 15:40:00 7.7 C 6.49 g/m*3 5.65 C 11.3 km/h
1630 12-11-2019 15:45:00 7.7 C 6.57 g/m*3 6.71 C 6.4 km/h
1631 12-11-2019 15:50:00 7.7 C 6.57 g/m*3 6.28 C 8.1 km/h
1632 12-11-2019 15:55:00 7.6 C 6.53 g/m*3 6.16 C 8.1 km/h
1633 12-11-2019 16:00:00 7.6 C 6.53 g/m*3 5.82 C 9.7 km/h
1634 12-11-2019 16:05:00 7.6 C 6.53 g/m*3 6.6 C 6.4 km/h
1635 12-11-2019 16:10:00 7.5 C 6.48 g/m*3 5.7 C 9.7 km/h
1636 12-11-2019 16:15:00 7.4 C 6.52 g/m*3 6.37 C 6.4 km/h
1637 12-11-2019 16:20:00 7.4 C 6.52 g/m*3 7.4 C 3.2 km/h
1638 12-11-2019 16:25:00 7.4 C 6.44 g/m*3 5.93 C 8.1 km/h
1639 12-11-2019 16:30:00 7.3 C 6.4 g/m*3 5.81 C 8.1 km/h
1640 12-11-2019 16:35:00 7.3 C 6.4 g/m*3 4.05 C 19.3 km/h
1641 12-11-2019 16:40:00 7.2 C 6.28 g/m*3 5.04 C 11.3 km/h
1642 12-11-2019 16:45:00 7.2 C 6.36 g/m*3 5.69 C 8.1 km/h
1643 12-11-2019 16:50:00 7 C 6.2 g/m*3 5.11 C 9.7 km/h
1644 12-11-2019 16:55:00 6.9 C 6.24 g/m*3 4.99 C 9.7 km/h
1645 12-11-2019 17:00:00 6.8 C 6.19 g/m*3 6.8 C 4.8 km/h
1646 12-11-2019 17:05:00 6.8 C 6.27 g/m*3 5.67 C 6.4 km/h
1647 12-11-2019 17:10:00 6.7 C 6.23 g/m*3 6.7 C 3.2 km/h
1648 12-11-2019 17:15:00 6.7 C 6.23 g/m*3 6.7 C 1.6 km/h
1649 12-11-2019 17:20:00 6.6 C 6.19 g/m*3 6.6 C 1.6 km/h
1650 12-11-2019 17:25:00 6.6 C 6.19 g/m*3 4.63 C 9.7 km/h
Sensor: Nr:Datum:Temp:Abs-Feuchte:Windchill:Wind:
Aussen-T/F 1651 12-11-2019 17:30:00 6.6 C 6.19 g/m*3 5.44 C 6.4 km/h
1652 12-11-2019 17:35:00 6.5 C 6.15 g/m*3 4.2 C 11.3 km/h
1653 12-11-2019 17:40:00 6.5 C 6.22 g/m*3 4.87 C 8.1 km/h
1654 12-11-2019 17:45:00 6.5 C 6.22 g/m*3 5.33 C 6.4 km/h
1655 12-11-2019 17:50:00 6.5 C 6.3 g/m*3 6.5 C 1.6 km/h
1656 12-11-2019 17:55:00 6.5 C 6.37 g/m*3 6.5 C 3.2 km/h
1657 12-11-2019 18:00:00 6.4 C 6.33 g/m*3 6.4 C 1.6 km/h
1658 12-11-2019 18:05:00 6.3 C 6.37 g/m*3 6.3 C 0 km/h
1659 12-11-2019 18:10:00 6.3 C 6.37 g/m*3 6.3 C 0 km/h
1660 12-11-2019 18:15:00 6.1 C 6.28 g/m*3 6.1 C 0 km/h
1661 12-11-2019 18:20:00 5.9 C 6.2 g/m*3 5.9 C 1.6 km/h
1662 12-11-2019 18:25:00 5.8 C 6.23 g/m*3 5.8 C 1.6 km/h
1663 12-11-2019 18:30:00 5.7 C 6.19 g/m*3 5.7 C 0 km/h
1664 12-11-2019 18:35:00 5.7 C 6.26 g/m*3 5.7 C 0 km/h
1665 12-11-2019 18:40:00 5.6 C 6.22 g/m*3 5.6 C 0 km/h
1666 12-11-2019 18:45:00 5.6 C 6.29 g/m*3 5.6 C 0 km/h
1667 12-11-2019 18:50:00 5.4 C 6.21 g/m*3 5.4 C 0 km/h
1668 12-11-2019 18:55:00 5.4 C 6.21 g/m*3 5.4 C 1.6 km/h
1669 12-11-2019 19:00:00 5.3 C 6.17 g/m*3 5.3 C 0 km/h
1670 12-11-2019 19:05:00 5.2 C 6.13 g/m*3 5.2 C 0 km/h
1671 12-11-2019 19:10:00 5.2 C 6.13 g/m*3 5.2 C 0 km/h
1672 12-11-2019 19:15:00 5.1 C 6.09 g/m*3 5.1 C 0 km/h
1673 12-11-2019 19:20:00 4.9 C 6.01 g/m*3 4.9 C 0 km/h
1674 12-11-2019 19:25:00 4.8 C 5.97 g/m*3 4.8 C 0 km/h
1675 12-11-2019 19:30:00 4.6 C 5.89 g/m*3 4.6 C 0 km/h
Sensor: Nr:Datum:Temp:Abs-Feuchte:Windchill:Wind:
Aussen-T/F 1676 12-11-2019 19:35:00 4.4 C 5.81 g/m*3 4.4 C 0 km/h
1677 12-11-2019 19:40:00 4.2 C 5.73 g/m*3 4.2 C 0 km/h
1678 12-11-2019 19:45:00 4.2 C 5.8 g/m*3 4.2 C 0 km/h
1679 12-11-2019 19:50:00 4.1 C 5.76 g/m*3 4.1 C 0 km/h
1680 12-11-2019 19:55:00 3.9 C 5.68 g/m*3 3.9 C 0 km/h
1681 12-11-2019 20:00:00 3.8 C 5.71 g/m*3 3.8 C 0 km/h
1682 12-11-2019 20:05:00 3.8 C 5.71 g/m*3 3.8 C 1.6 km/h
1683 12-11-2019 20:10:00 3.7 C 5.67 g/m*3 3.7 C 0 km/h
1684 12-11-2019 20:15:00 3.6 C 5.63 g/m*3 3.6 C 0 km/h
1685 12-11-2019 20:20:00 3.5 C 5.6 g/m*3 3.5 C 0 km/h
1686 12-11-2019 20:25:00 3.3 C 5.52 g/m*3 3.3 C 0 km/h
1687 12-11-2019 20:30:00 3.2 C 5.48 g/m*3 3.2 C 0 km/h
1688 12-11-2019 20:35:00 3.1 C 5.51 g/m*3 3.1 C 0 km/h
1689 12-11-2019 20:40:00 2.9 C 5.43 g/m*3 2.9 C 0 km/h
1690 12-11-2019 20:45:00 2.9 C 5.43 g/m*3 2.9 C 0 km/h
1691 12-11-2019 20:50:00 2.8 C 5.4 g/m*3 2.8 C 0 km/h
1692 12-11-2019 20:55:00 2.9 C 5.49 g/m*3 2.9 C 0 km/h
1693 12-11-2019 21:00:00 3.1 C 5.63 g/m*3 3.1 C 0 km/h
1694 12-11-2019 21:05:00 3.3 C 5.7 g/m*3 3.3 C 0 km/h
1695 12-11-2019 21:10:00 3.5 C 5.78 g/m*3 3.5 C 0 km/h
1696 12-11-2019 21:15:00 3.6 C 5.82 g/m*3 3.6 C 0 km/h
1697 12-11-2019 21:20:00 3.6 C 5.82 g/m*3 3.6 C 0 km/h
1698 12-11-2019 21:25:00 3.4 C 5.68 g/m*3 3.4 C 0 km/h
1699 12-11-2019 21:30:00 3.2 C 5.6 g/m*3 3.2 C 0 km/h
1700 12-11-2019 21:35:00 3.1 C 5.57 g/m*3 3.1 C 0 km/h
Sensor: Nr:Datum:Temp:Abs-Feuchte:Windchill:Wind:
Aussen-T/F 1701 12-11-2019 21:40:00 3 C 5.53 g/m*3 3 C 0 km/h
1702 12-11-2019 21:45:00 2.9 C 5.49 g/m*3 2.9 C 1.6 km/h
1703 12-11-2019 21:50:00 3 C 5.59 g/m*3 3 C 1.6 km/h
1704 12-11-2019 21:55:00 3.1 C 5.63 g/m*3 3.1 C 1.6 km/h
1705 12-11-2019 22:00:00 3.2 C 5.66 g/m*3 3.2 C 0 km/h
1706 12-11-2019 22:05:00 3.3 C 5.7 g/m*3 3.3 C 0 km/h
1707 12-11-2019 22:10:00 3.4 C 5.8 g/m*3 1.75 C 6.4 km/h
1708 12-11-2019 22:15:00 3.6 C 5.88 g/m*3 1.98 C 6.4 km/h
1709 12-11-2019 22:20:00 3.7 C 5.92 g/m*3 3.7 C 1.6 km/h
1710 12-11-2019 22:25:00 3.8 C 5.96 g/m*3 3.8 C 1.6 km/h
1711 12-11-2019 22:30:00 3.9 C 6 g/m*3 3.9 C 1.6 km/h
1712 12-11-2019 22:35:00 4.1 C 6.08 g/m*3 4.1 C 3.2 km/h
1713 12-11-2019 22:40:00 4.2 C 6.06 g/m*3 2.67 C 6.4 km/h
1714 12-11-2019 22:45:00 4.3 C 6.1 g/m*3 4.3 C 0 km/h
1715 12-11-2019 22:50:00 4.3 C 6.1 g/m*3 4.3 C 0 km/h
1716 12-11-2019 22:55:00 4.4 C 6.07 g/m*3 4.4 C 1.6 km/h
1717 12-11-2019 23:00:00 4.4 C 6.07 g/m*3 4.4 C 1.6 km/h
1718 12-11-2019 23:05:00 4.5 C 6.11 g/m*3 4.5 C 4.8 km/h
1719 12-11-2019 23:10:00 4.6 C 6.09 g/m*3 2.25 C 9.7 km/h
1720 12-11-2019 23:15:00 4.6 C 6.09 g/m*3 4.6 C 1.6 km/h
1721 12-11-2019 23:20:00 4.6 C 6.02 g/m*3 1.91 C 11.3 km/h
1722 12-11-2019 23:25:00 4.6 C 6.02 g/m*3 4.6 C 3.2 km/h
1723 12-11-2019 23:30:00 4.7 C 6 g/m*3 4.7 C 3.2 km/h
1724 12-11-2019 23:35:00 4.8 C 6.1 g/m*3 4.8 C 0 km/h
1725 12-11-2019 23:40:00 4.8 C 6.1 g/m*3 4.8 C 0 km/h
Sensor: Nr:Datum:Temp:Abs-Feuchte:Windchill:Wind:
Aussen-T/F 1726 12-11-2019 23:45:00 4.8 C 6.04 g/m*3 4.8 C 0 km/h
1727 12-11-2019 23:50:00 4.8 C 6.04 g/m*3 4.8 C 0 km/h
1728 12-11-2019 23:55:00 4.8 C 6.04 g/m*3 4.8 C 3.2 km/h
1729 13-11-2019 00:00:00 4.8 C 5.97 g/m*3 4.8 C 4.8 km/h
1730 13-11-2019 00:05:00 4.9 C 6.01 g/m*3 4.9 C 1.6 km/h
1731 13-11-2019 00:10:00 4.9 C 6.01 g/m*3 4.9 C 3.2 km/h
1732 13-11-2019 00:15:00 4.9 C 6.01 g/m*3 4.9 C 1.6 km/h
1733 13-11-2019 00:20:00 4.9 C 6.01 g/m*3 4.9 C 0 km/h
1734 13-11-2019 00:25:00 4.9 C 5.94 g/m*3 4.9 C 1.6 km/h
1735 13-11-2019 00:30:00 4.9 C 5.94 g/m*3 4.9 C 0 km/h
1736 13-11-2019 00:35:00 4.9 C 6.01 g/m*3 4.9 C 0 km/h
1737 13-11-2019 00:40:00 4.9 C 5.94 g/m*3 4.9 C 3.2 km/h
1738 13-11-2019 00:45:00 4.9 C 5.94 g/m*3 4.9 C 0 km/h
1739 13-11-2019 00:50:00 4.9 C 5.94 g/m*3 4.9 C 3.2 km/h
1740 13-11-2019 00:55:00 4.9 C 6.01 g/m*3 4.9 C 0 km/h
1741 13-11-2019 01:00:00 4.9 C 6.01 g/m*3 4.9 C 0 km/h
1742 13-11-2019 01:05:00 4.9 C 6.01 g/m*3 4.9 C 1.6 km/h
1743 13-11-2019 01:10:00 4.9 C 6.01 g/m*3 4.9 C 0 km/h
1744 13-11-2019 01:15:00 4.8 C 5.97 g/m*3 4.8 C 0 km/h
1745 13-11-2019 01:20:00 4.8 C 5.97 g/m*3 4.8 C 1.6 km/h
1746 13-11-2019 01:25:00 4.8 C 5.97 g/m*3 4.8 C 0 km/h
1747 13-11-2019 01:30:00 4.7 C 5.93 g/m*3 4.7 C 0 km/h
1748 13-11-2019 01:35:00 4.7 C 5.93 g/m*3 4.7 C 0 km/h
1749 13-11-2019 01:40:00 4.6 C 5.89 g/m*3 4.6 C 0 km/h
1750 13-11-2019 01:45:00 4.4 C 5.81 g/m*3 4.4 C 0 km/h
Sensor: Nr:Datum:Temp:Abs-Feuchte:Windchill:Wind:
Aussen-T/F 1751 13-11-2019 01:50:00 4.3 C 5.77 g/m*3 4.3 C 0 km/h
1752 13-11-2019 01:55:00 4.1 C 5.7 g/m*3 4.1 C 0 km/h
1753 13-11-2019 02:00:00 3.9 C 5.62 g/m*3 3.9 C 0 km/h
1754 13-11-2019 02:05:00 3.7 C 5.55 g/m*3 3.7 C 0 km/h
1755 13-11-2019 02:10:00 3.5 C 5.53 g/m*3 3.5 C 0 km/h
1756 13-11-2019 02:15:00 3.4 C 5.5 g/m*3 3.4 C 1.6 km/h
1757 13-11-2019 02:20:00 3.3 C 5.46 g/m*3 3.3 C 0 km/h
1758 13-11-2019 02:25:00 3.2 C 5.48 g/m*3 3.2 C 0 km/h
1759 13-11-2019 02:30:00 3.1 C 5.45 g/m*3 3.1 C 1.6 km/h
1760 13-11-2019 02:35:00 3.1 C 5.45 g/m*3 3.1 C 1.6 km/h
1761 13-11-2019 02:40:00 3.1 C 5.51 g/m*3 3.1 C 0 km/h
1762 13-11-2019 02:45:00 3.2 C 5.54 g/m*3 3.2 C 0 km/h
1763 13-11-2019 02:50:00 3.2 C 5.54 g/m*3 3.2 C 3.2 km/h
1764 13-11-2019 02:55:00 3.3 C 5.58 g/m*3 3.3 C 1.6 km/h
1765 13-11-2019 03:00:00 3.6 C 5.69 g/m*3 1.46 C 8.1 km/h
1766 13-11-2019 03:05:00 3.8 C 5.71 g/m*3 3.8 C 3.2 km/h
1767 13-11-2019 03:10:00 3.9 C 5.75 g/m*3 3.9 C 1.6 km/h
1768 13-11-2019 03:15:00 4.1 C 5.76 g/m*3 1.65 C 9.7 km/h
1769 13-11-2019 03:20:00 4.1 C 5.7 g/m*3 4.1 C 0 km/h
1770 13-11-2019 03:25:00 4.2 C 5.73 g/m*3 4.2 C 3.2 km/h
1771 13-11-2019 03:30:00 4.2 C 5.73 g/m*3 4.2 C 3.2 km/h
1772 13-11-2019 03:35:00 4.3 C 5.77 g/m*3 4.3 C 1.6 km/h
1773 13-11-2019 03:40:00 4.3 C 5.77 g/m*3 4.3 C 1.6 km/h
1774 13-11-2019 03:45:00 4.4 C 5.81 g/m*3 4.4 C 0 km/h
1775 13-11-2019 03:50:00 4.4 C 5.81 g/m*3 4.4 C 0 km/h
Sensor: Nr:Datum:Temp:Abs-Feuchte:Windchill:Wind:
Aussen-T/F 1776 13-11-2019 03:55:00 4.4 C 5.81 g/m*3 4.4 C 1.6 km/h
1777 13-11-2019 04:00:00 4.4 C 5.81 g/m*3 4.4 C 0 km/h
1778 13-11-2019 04:05:00 4.5 C 5.85 g/m*3 4.5 C 0 km/h
1779 13-11-2019 04:10:00 4.5 C 5.85 g/m*3 4.5 C 1.6 km/h
1780 13-11-2019 04:15:00 4.6 C 5.89 g/m*3 4.6 C 0 km/h
1781 13-11-2019 04:20:00 4.5 C 5.85 g/m*3 4.5 C 0 km/h
1782 13-11-2019 04:25:00 4.4 C 5.81 g/m*3 4.4 C 0 km/h
1783 13-11-2019 04:30:00 4.4 C 5.81 g/m*3 4.4 C 0 km/h
1784 13-11-2019 04:35:00 4.4 C 5.81 g/m*3 4.4 C 1.6 km/h
1785 13-11-2019 04:40:00 4.4 C 5.75 g/m*3 2.9 C 6.4 km/h
1786 13-11-2019 04:45:00 4.5 C 5.78 g/m*3 4.5 C 1.6 km/h
1787 13-11-2019 04:50:00 4.6 C 5.82 g/m*3 4.6 C 0 km/h
1788 13-11-2019 04:55:00 4.6 C 5.82 g/m*3 4.6 C 0 km/h
1789 13-11-2019 05:00:00 4.6 C 5.82 g/m*3 4.6 C 0 km/h
1790 13-11-2019 05:05:00 4.5 C 5.78 g/m*3 4.5 C 3.2 km/h
1791 13-11-2019 05:10:00 4.5 C 5.78 g/m*3 4.5 C 0 km/h
1792 13-11-2019 05:15:00 4.4 C 5.75 g/m*3 4.4 C 1.6 km/h
1793 13-11-2019 05:20:00 4.5 C 5.85 g/m*3 4.5 C 0 km/h
1794 13-11-2019 05:25:00 4.5 C 5.85 g/m*3 4.5 C 0 km/h
1795 13-11-2019 05:30:00 4.5 C 5.85 g/m*3 4.5 C 0 km/h
1796 13-11-2019 05:35:00 4.6 C 5.96 g/m*3 4.6 C 0 km/h
1797 13-11-2019 05:40:00 4.5 C 5.92 g/m*3 4.5 C 3.2 km/h
1798 13-11-2019 05:45:00 4.6 C 5.96 g/m*3 4.6 C 0 km/h
1799 13-11-2019 05:50:00 4.6 C 5.96 g/m*3 4.6 C 0 km/h
1800 13-11-2019 05:55:00 4.6 C 5.96 g/m*3 4.6 C 0 km/h
Sensor: Nr:Datum:Temp:Abs-Feuchte:Windchill:Wind:
Aussen-T/F 1801 13-11-2019 06:00:00 4.6 C 5.96 g/m*3 4.6 C 0 km/h
1802 13-11-2019 06:05:00 4.6 C 5.96 g/m*3 4.6 C 0 km/h
1803 13-11-2019 06:10:00 4.6 C 5.96 g/m*3 4.6 C 0 km/h
1804 13-11-2019 06:15:00 4.6 C 5.96 g/m*3 4.6 C 1.6 km/h
1805 13-11-2019 06:20:00 4.5 C 5.92 g/m*3 4.5 C 0 km/h
1806 13-11-2019 06:25:00 4.5 C 5.92 g/m*3 4.5 C 1.6 km/h
1807 13-11-2019 06:30:00 4.5 C 5.92 g/m*3 4.5 C 0 km/h
1808 13-11-2019 06:35:00 4.5 C 5.92 g/m*3 4.5 C 1.6 km/h
1809 13-11-2019 06:40:00 4.6 C 5.89 g/m*3 4.6 C 1.6 km/h
1810 13-11-2019 06:45:00 4.5 C 5.85 g/m*3 4.5 C 0 km/h
1811 13-11-2019 06:50:00 4.4 C 5.75 g/m*3 4.4 C 0 km/h
1812 13-11-2019 06:55:00 4.2 C 5.73 g/m*3 4.2 C 0 km/h
1813 13-11-2019 07:00:00 4.1 C 5.7 g/m*3 4.1 C 0 km/h
1814 13-11-2019 07:05:00 4.1 C 5.76 g/m*3 4.1 C 0 km/h
1815 13-11-2019 07:10:00 4 C 5.72 g/m*3 4 C 0 km/h
1816 13-11-2019 07:15:00 4.1 C 5.76 g/m*3 4.1 C 0 km/h
1817 13-11-2019 07:20:00 4.1 C 5.82 g/m*3 4.1 C 0 km/h
1818 13-11-2019 07:25:00 4.1 C 5.82 g/m*3 4.1 C 0 km/h
1819 13-11-2019 07:30:00 4.2 C 5.86 g/m*3 4.2 C 0 km/h
1820 13-11-2019 07:35:00 4.2 C 5.86 g/m*3 4.2 C 0 km/h
1821 13-11-2019 07:40:00 4.2 C 5.86 g/m*3 4.2 C 0 km/h
1822 13-11-2019 07:45:00 4.3 C 5.9 g/m*3 4.3 C 0 km/h
1823 13-11-2019 07:50:00 4.3 C 5.9 g/m*3 4.3 C 0 km/h
1824 13-11-2019 07:55:00 4.3 C 5.9 g/m*3 4.3 C 0 km/h
1825 13-11-2019 08:00:00 4.3 C 5.9 g/m*3 4.3 C 0 km/h
Sensor: Nr:Datum:Temp:Abs-Feuchte:Windchill:Wind:
Aussen-T/F 1826 13-11-2019 08:05:00 4.4 C 5.94 g/m*3 4.4 C 0 km/h
1827 13-11-2019 08:10:00 4.4 C 5.94 g/m*3 4.4 C 0 km/h
1828 13-11-2019 08:15:00 4.4 C 5.94 g/m*3 4.4 C 0 km/h
1829 13-11-2019 08:20:00 4.5 C 5.98 g/m*3 4.5 C 0 km/h
1830 13-11-2019 08:25:00 4.6 C 6.02 g/m*3 4.6 C 0 km/h
1831 13-11-2019 08:30:00 4.6 C 6.02 g/m*3 4.6 C 0 km/h
1832 13-11-2019 08:35:00 4.7 C 6 g/m*3 4.7 C 4.8 km/h
1833 13-11-2019 08:40:00 4.7 C 6 g/m*3 4.7 C 0 km/h
1834 13-11-2019 08:45:00 4.8 C 6.04 g/m*3 4.8 C 0 km/h
1835 13-11-2019 08:50:00 4.8 C 6.04 g/m*3 4.8 C 0 km/h
1836 13-11-2019 08:55:00 4.8 C 6.04 g/m*3 4.8 C 0 km/h
1837 13-11-2019 09:00:00 4.9 C 6.08 g/m*3 4.9 C 0 km/h
1838 13-11-2019 09:05:00 4.9 C 6.08 g/m*3 4.9 C 1.6 km/h
1839 13-11-2019 09:10:00 5 C 6.12 g/m*3 5 C 0 km/h
1840 13-11-2019 09:15:00 5.1 C 6.09 g/m*3 5.1 C 1.6 km/h
1841 13-11-2019 09:20:00 5.3 C 6.17 g/m*3 3.94 C 6.4 km/h
1842 13-11-2019 09:25:00 5.4 C 6.21 g/m*3 3.2 C 9.7 km/h
1843 13-11-2019 09:30:00 5.6 C 6.22 g/m*3 3.44 C 9.7 km/h
1844 13-11-2019 09:35:00 5.7 C 6.26 g/m*3 3.23 C 11.3 km/h
1845 13-11-2019 09:40:00 5.8 C 6.3 g/m*3 3.07 C 12.9 km/h
1846 13-11-2019 09:45:00 5.8 C 6.23 g/m*3 3.68 C 9.7 km/h
1847 13-11-2019 09:50:00 5.8 C 6.23 g/m*3 4.05 C 8.1 km/h
1848 13-11-2019 09:55:00 5.9 C 6.27 g/m*3 3.8 C 9.7 km/h
1849 13-11-2019 10:00:00 5.8 C 6.16 g/m*3 4.05 C 8.1 km/h
1850 13-11-2019 10:05:00 5.9 C 6.2 g/m*3 5.9 C 4.8 km/h
Sensor: Nr:Datum:Temp:Abs-Feuchte:Windchill:Wind:
Aussen-T/F 1851 13-11-2019 10:10:00 5.9 C 6.27 g/m*3 5.9 C 1.6 km/h
1852 13-11-2019 10:15:00 5.9 C 6.27 g/m*3 4.63 C 6.4 km/h
1853 13-11-2019 10:20:00 5.9 C 6.27 g/m*3 5.9 C 3.2 km/h
1854 13-11-2019 10:25:00 6 C 6.24 g/m*3 4.75 C 6.4 km/h
1855 13-11-2019 10:30:00 6.1 C 6.28 g/m*3 6.1 C 3.2 km/h
1856 13-11-2019 10:35:00 6.1 C 6.28 g/m*3 3.72 C 11.3 km/h
1857 13-11-2019 10:40:00 6.1 C 6.28 g/m*3 4.86 C 6.4 km/h
1858 13-11-2019 10:45:00 6.1 C 6.28 g/m*3 4.86 C 6.4 km/h
1859 13-11-2019 10:50:00 6.2 C 6.32 g/m*3 6.2 C 3.2 km/h
1860 13-11-2019 10:55:00 6.2 C 6.32 g/m*3 4.52 C 8.1 km/h
1861 13-11-2019 11:00:00 6.2 C 6.32 g/m*3 6.2 C 3.2 km/h
1862 13-11-2019 11:05:00 6.2 C 6.32 g/m*3 4.15 C 9.7 km/h
1863 13-11-2019 11:10:00 6.1 C 6.28 g/m*3 4.4 C 8.1 km/h
1864 13-11-2019 11:15:00 6.1 C 6.28 g/m*3 4.86 C 6.4 km/h
1865 13-11-2019 11:20:00 6.2 C 6.32 g/m*3 3.84 C 11.3 km/h
1866 13-11-2019 11:25:00 6.2 C 6.32 g/m*3 4.52 C 8.1 km/h
1867 13-11-2019 11:30:00 6.3 C 6.37 g/m*3 3.96 C 11.3 km/h
1868 13-11-2019 11:35:00 6.3 C 6.37 g/m*3 3.96 C 11.3 km/h
1869 13-11-2019 11:40:00 6.4 C 6.33 g/m*3 4.08 C 11.3 km/h
1870 13-11-2019 11:45:00 6.5 C 6.45 g/m*3 4.51 C 9.7 km/h
1871 13-11-2019 11:50:00 6.6 C 6.49 g/m*3 4.32 C 11.3 km/h
1872 13-11-2019 11:55:00 6.6 C 6.49 g/m*3 4.63 C 9.7 km/h
1873 13-11-2019 12:00:00 6.7 C 6.46 g/m*3 4.44 C 11.3 km/h
1874 13-11-2019 12:05:00 6.8 C 6.5 g/m*3 4.56 C 11.3 km/h
1875 13-11-2019 12:10:00 6.8 C 6.5 g/m*3 4.56 C 11.3 km/h
Sensor: Nr:Datum:Temp:Abs-Feuchte:Windchill:Wind:
Aussen-T/F 1876 13-11-2019 12:15:00 6.8 C 6.5 g/m*3 4.56 C 11.3 km/h
1877 13-11-2019 12:20:00 6.8 C 6.5 g/m*3 4.87 C 9.7 km/h
1878 13-11-2019 12:25:00 6.9 C 6.47 g/m*3 4.68 C 11.3 km/h
1879 13-11-2019 12:30:00 6.9 C 6.47 g/m*3 5.79 C 6.4 km/h
1880 13-11-2019 12:35:00 6.9 C 6.47 g/m*3 5.34 C 8.1 km/h
1881 13-11-2019 12:40:00 6.9 C 6.47 g/m*3 4.41 C 12.9 km/h
1882 13-11-2019 12:45:00 6.8 C 6.42 g/m*3 3.82 C 16.1 km/h
1883 13-11-2019 12:50:00 6.7 C 6.38 g/m*3 5.56 C 6.4 km/h
1884 13-11-2019 12:55:00 6.8 C 6.42 g/m*3 4.87 C 9.7 km/h
1885 13-11-2019 13:00:00 6.8 C 6.42 g/m*3 5.22 C 8.1 km/h
1886 13-11-2019 13:05:00 6.8 C 6.42 g/m*3 5.67 C 6.4 km/h
1887 13-11-2019 13:10:00 6.9 C 6.47 g/m*3 6.9 C 1.6 km/h
1888 13-11-2019 13:15:00 6.9 C 6.39 g/m*3 4.99 C 9.7 km/h
1889 13-11-2019 13:20:00 6.9 C 6.47 g/m*3 5.34 C 8.1 km/h
1890 13-11-2019 13:25:00 6.8 C 6.42 g/m*3 5.22 C 8.1 km/h
1891 13-11-2019 13:30:00 6.7 C 6.38 g/m*3 4.75 C 9.7 km/h
1892 13-11-2019 13:35:00 6.7 C 6.46 g/m*3 3.92 C 14.5 km/h
1893 13-11-2019 13:40:00 6.7 C 6.46 g/m*3 4.75 C 9.7 km/h
1894 13-11-2019 13:45:00 6.7 C 6.46 g/m*3 6.7 C 4.8 km/h
1895 13-11-2019 13:50:00 6.7 C 6.46 g/m*3 5.11 C 8.1 km/h
1896 13-11-2019 13:55:00 6.7 C 6.46 g/m*3 4.75 C 9.7 km/h
1897 13-11-2019 14:00:00 6.7 C 6.46 g/m*3 4.44 C 11.3 km/h
1898 13-11-2019 14:05:00 6.7 C 6.46 g/m*3 5.56 C 6.4 km/h
1899 13-11-2019 14:10:00 6.7 C 6.46 g/m*3 4.75 C 9.7 km/h
1900 13-11-2019 14:15:00 6.7 C 6.46 g/m*3 5.11 C 8.1 km/h
Sensor: Nr:Datum:Temp:Abs-Feuchte:Windchill:Wind:
Aussen-T/F 1901 13-11-2019 14:20:00 6.7 C 6.46 g/m*3 4.44 C 11.3 km/h
1902 13-11-2019 14:25:00 6.6 C 6.42 g/m*3 3.79 C 14.5 km/h
1903 13-11-2019 14:30:00 6.6 C 6.49 g/m*3 4.99 C 8.1 km/h
1904 13-11-2019 14:35:00 6.6 C 6.49 g/m*3 4.63 C 9.7 km/h
1905 13-11-2019 14:40:00 6.6 C 6.49 g/m*3 4.99 C 8.1 km/h
1906 13-11-2019 14:45:00 6.6 C 6.49 g/m*3 6.6 C 3.2 km/h
1907 13-11-2019 14:50:00 6.6 C 6.49 g/m*3 4.63 C 9.7 km/h
1908 13-11-2019 14:55:00 6.7 C 6.53 g/m*3 3.69 C 16.1 km/h
1909 13-11-2019 15:00:00 6.7 C 6.53 g/m*3 5.56 C 6.4 km/h
1910 13-11-2019 15:05:00 6.7 C 6.53 g/m*3 4.44 C 11.3 km/h
1911 13-11-2019 15:10:00 6.7 C 6.53 g/m*3 5.56 C 6.4 km/h
1912 13-11-2019 15:15:00 6.7 C 6.46 g/m*3 5.56 C 6.4 km/h
1913 13-11-2019 15:20:00 6.7 C 6.53 g/m*3 6.7 C 4.8 km/h
1914 13-11-2019 15:25:00 6.7 C 6.46 g/m*3 3.69 C 16.1 km/h
1915 13-11-2019 15:30:00 6.7 C 6.53 g/m*3 4.75 C 9.7 km/h
1916 13-11-2019 15:35:00 6.7 C 6.53 g/m*3 5.56 C 6.4 km/h
1917 13-11-2019 15:40:00 6.7 C 6.53 g/m*3 5.11 C 8.1 km/h
1918 13-11-2019 15:45:00 6.7 C 6.53 g/m*3 4.75 C 9.7 km/h
1919 13-11-2019 15:50:00 6.7 C 6.53 g/m*3 6.7 C 4.8 km/h
1920 13-11-2019 15:55:00 6.6 C 6.49 g/m*3 5.44 C 6.4 km/h
1921 13-11-2019 16:00:00 6.6 C 6.49 g/m*3 6.6 C 4.8 km/h
1922 13-11-2019 16:05:00 6.6 C 6.49 g/m*3 5.44 C 6.4 km/h
1923 13-11-2019 16:10:00 6.6 C 6.49 g/m*3 5.44 C 6.4 km/h
1924 13-11-2019 16:15:00 6.6 C 6.49 g/m*3 6.6 C 3.2 km/h
1925 13-11-2019 16:20:00 6.6 C 6.49 g/m*3 4.63 C 9.7 km/h
Sensor: Nr:Datum:Temp:Abs-Feuchte:Windchill:Wind:
Aussen-T/F 1926 13-11-2019 16:25:00 6.6 C 6.49 g/m*3 4.63 C 9.7 km/h
1927 13-11-2019 16:30:00 6.6 C 6.49 g/m*3 5.44 C 6.4 km/h
1928 13-11-2019 16:35:00 6.6 C 6.57 g/m*3 6.6 C 4.8 km/h
1929 13-11-2019 16:40:00 6.6 C 6.57 g/m*3 5.44 C 6.4 km/h
1930 13-11-2019 16:45:00 6.6 C 6.57 g/m*3 4.99 C 8.1 km/h
1931 13-11-2019 16:50:00 6.6 C 6.57 g/m*3 6.6 C 1.6 km/h
1932 13-11-2019 16:55:00 6.6 C 6.57 g/m*3 6.6 C 0 km/h
1933 13-11-2019 17:00:00 6.5 C 6.52 g/m*3 6.5 C 3.2 km/h
1934 13-11-2019 17:05:00 6.5 C 6.52 g/m*3 6.5 C 0 km/h
1935 13-11-2019 17:10:00 6.4 C 6.48 g/m*3 6.4 C 1.6 km/h
1936 13-11-2019 17:15:00 6.4 C 6.48 g/m*3 6.4 C 3.2 km/h
1937 13-11-2019 17:20:00 6.4 C 6.48 g/m*3 6.4 C 0 km/h
1938 13-11-2019 17:25:00 6.4 C 6.48 g/m*3 6.4 C 4.8 km/h
1939 13-11-2019 17:30:00 6.4 C 6.48 g/m*3 6.4 C 0 km/h
1940 13-11-2019 17:35:00 6.4 C 6.48 g/m*3 6.4 C 0 km/h
1941 13-11-2019 17:40:00 6.4 C 6.48 g/m*3 6.4 C 3.2 km/h
1942 13-11-2019 17:45:00 6.4 C 6.48 g/m*3 6.4 C 0 km/h
1943 13-11-2019 17:50:00 6.4 C 6.48 g/m*3 6.4 C 0 km/h
1944 13-11-2019 17:55:00 6.4 C 6.48 g/m*3 6.4 C 0 km/h
1945 13-11-2019 18:00:00 6.4 C 6.56 g/m*3 6.4 C 0 km/h
1946 13-11-2019 18:05:00 6.4 C 6.48 g/m*3 6.4 C 0 km/h
1947 13-11-2019 18:10:00 6.4 C 6.48 g/m*3 6.4 C 0 km/h
1948 13-11-2019 18:15:00 6.4 C 6.48 g/m*3 6.4 C 0 km/h
1949 13-11-2019 18:20:00 6.4 C 6.56 g/m*3 6.4 C 0 km/h
1950 13-11-2019 18:25:00 6.4 C 6.48 g/m*3 6.4 C 3.2 km/h
Sensor: Nr:Datum:Temp:Abs-Feuchte:Windchill:Wind:
Aussen-T/F 1951 13-11-2019 18:30:00 6.3 C 6.51 g/m*3 6.3 C 0 km/h
1952 13-11-2019 18:35:00 6.3 C 6.51 g/m*3 6.3 C 0 km/h
1953 13-11-2019 18:40:00 6.3 C 6.51 g/m*3 6.3 C 0 km/h
1954 13-11-2019 18:45:00 6.3 C 6.51 g/m*3 6.3 C 0 km/h
1955 13-11-2019 18:50:00 6.3 C 6.51 g/m*3 6.3 C 0 km/h
1956 13-11-2019 18:55:00 6.3 C 6.51 g/m*3 6.3 C 0 km/h
1957 13-11-2019 19:00:00 6.3 C 6.51 g/m*3 6.3 C 0 km/h
1958 13-11-2019 19:05:00 6.3 C 6.51 g/m*3 6.3 C 0 km/h
1959 13-11-2019 19:10:00 6.2 C 6.47 g/m*3 6.2 C 0 km/h
1960 13-11-2019 19:15:00 6.2 C 6.55 g/m*3 6.2 C 0 km/h
1961 13-11-2019 19:20:00 6.2 C 6.55 g/m*3 6.2 C 3.2 km/h
1962 13-11-2019 19:25:00 6.2 C 6.55 g/m*3 6.2 C 1.6 km/h
1963 13-11-2019 19:30:00 6.2 C 6.55 g/m*3 6.2 C 3.2 km/h
1964 13-11-2019 19:35:00 6.2 C 6.55 g/m*3 6.2 C 3.2 km/h
1965 13-11-2019 19:40:00 6.2 C 6.55 g/m*3 6.2 C 1.6 km/h
1966 13-11-2019 19:45:00 6.2 C 6.55 g/m*3 4.98 C 6.4 km/h
1967 13-11-2019 19:50:00 6.2 C 6.47 g/m*3 4.98 C 6.4 km/h
1968 13-11-2019 19:55:00 6.3 C 6.51 g/m*3 6.3 C 4.8 km/h
1969 13-11-2019 20:00:00 6.3 C 6.51 g/m*3 5.1 C 6.4 km/h
1970 13-11-2019 20:05:00 6.3 C 6.51 g/m*3 6.3 C 1.6 km/h
1971 13-11-2019 20:10:00 6.3 C 6.51 g/m*3 6.3 C 4.8 km/h
1972 13-11-2019 20:15:00 6.3 C 6.51 g/m*3 6.3 C 4.8 km/h
1973 13-11-2019 20:20:00 6.3 C 6.51 g/m*3 4.64 C 8.1 km/h
1974 13-11-2019 20:25:00 6.3 C 6.51 g/m*3 4.64 C 8.1 km/h
1975 13-11-2019 20:30:00 6.3 C 6.51 g/m*3 6.3 C 4.8 km/h
Sensor: Nr:Datum:Temp:Abs-Feuchte:Windchill:Wind:
Aussen-T/F 1976 13-11-2019 20:35:00 6.3 C 6.51 g/m*3 6.3 C 1.6 km/h
1977 13-11-2019 20:40:00 6.2 C 6.47 g/m*3 6.2 C 4.8 km/h
1978 13-11-2019 20:45:00 6.2 C 6.47 g/m*3 6.2 C 4.8 km/h
1979 13-11-2019 20:50:00 6.2 C 6.55 g/m*3 6.2 C 0 km/h
1980 13-11-2019 20:55:00 6.2 C 6.55 g/m*3 6.2 C 0 km/h
1981 13-11-2019 21:00:00 6.2 C 6.55 g/m*3 6.2 C 0 km/h
1982 13-11-2019 21:05:00 6.2 C 6.55 g/m*3 6.2 C 0 km/h
1983 13-11-2019 21:10:00 6.1 C 6.5 g/m*3 6.1 C 0 km/h
1984 13-11-2019 21:15:00 6.1 C 6.5 g/m*3 6.1 C 0 km/h
1985 13-11-2019 21:20:00 6.1 C 6.5 g/m*3 6.1 C 0 km/h
1986 13-11-2019 21:25:00 6 C 6.46 g/m*3 6 C 0 km/h
1987 13-11-2019 21:30:00 5.9 C 6.42 g/m*3 5.9 C 0 km/h
1988 13-11-2019 21:35:00 5.8 C 6.38 g/m*3 5.8 C 0 km/h
1989 13-11-2019 21:40:00 5.7 C 6.4 g/m*3 5.7 C 0 km/h
1990 13-11-2019 21:45:00 5.6 C 6.36 g/m*3 5.6 C 0 km/h
1991 13-11-2019 21:50:00 5.6 C 6.36 g/m*3 5.6 C 0 km/h
1992 13-11-2019 21:55:00 5.5 C 6.32 g/m*3 5.5 C 0 km/h
1993 13-11-2019 22:00:00 5.4 C 6.28 g/m*3 5.4 C 0 km/h
1994 13-11-2019 22:05:00 5.4 C 6.28 g/m*3 5.4 C 0 km/h
1995 13-11-2019 22:10:00 5.3 C 6.24 g/m*3 5.3 C 0 km/h
1996 13-11-2019 22:15:00 5.2 C 6.2 g/m*3 5.2 C 0 km/h
1997 13-11-2019 22:20:00 5.1 C 6.16 g/m*3 5.1 C 0 km/h
1998 13-11-2019 22:25:00 4.9 C 6.08 g/m*3 4.9 C 0 km/h
1999 13-11-2019 22:30:00 4.9 C 6.14 g/m*3 4.9 C 0 km/h
2000 13-11-2019 22:35:00 4.8 C 6.1 g/m*3 4.8 C 0 km/h
Sensor: Nr:Datum:Temp:Abs-Feuchte:Windchill:Wind:
Aussen-T/F 2001 13-11-2019 22:40:00 4.8 C 6.17 g/m*3 4.8 C 0 km/h
2002 13-11-2019 22:45:00 4.8 C 6.17 g/m*3 4.8 C 1.6 km/h
2003 13-11-2019 22:50:00 4.9 C 6.21 g/m*3 4.9 C 1.6 km/h
2004 13-11-2019 22:55:00 4.8 C 6.17 g/m*3 4.8 C 3.2 km/h
2005 13-11-2019 23:00:00 4.9 C 6.21 g/m*3 4.9 C 1.6 km/h
2006 13-11-2019 23:05:00 4.9 C 6.21 g/m*3 4.9 C 1.6 km/h
2007 13-11-2019 23:10:00 4.9 C 6.21 g/m*3 4.9 C 0 km/h
2008 13-11-2019 23:15:00 4.8 C 6.1 g/m*3 4.8 C 0 km/h
2009 13-11-2019 23:20:00 4.6 C 6.02 g/m*3 4.6 C 0 km/h
2010 13-11-2019 23:25:00 4.6 C 6.02 g/m*3 4.6 C 0 km/h
2011 13-11-2019 23:30:00 4.5 C 6.05 g/m*3 4.5 C 0 km/h
2012 13-11-2019 23:35:00 4.4 C 6.01 g/m*3 4.4 C 0 km/h
2013 13-11-2019 23:40:00 4.4 C 6.01 g/m*3 4.4 C 0 km/h
2014 13-11-2019 23:45:00 4.4 C 6.01 g/m*3 4.4 C 0 km/h
2015 13-11-2019 23:50:00 4.4 C 6.07 g/m*3 4.4 C 0 km/h
2016 13-11-2019 23:55:00 4.5 C 6.11 g/m*3 4.5 C 0 km/h

Legende:
   Min
   Max


Maximal/Minimal-Werte vom 07.11.2019 - 13.11.2019

Sensor Min Max Avg
Temp
(Aussen-T/F)
0.9 °C
10-11-2019  01:05:00
9.9 °C
07-11-2019  13:45:00
5.29 °C
Abs-Feuchte
(Aussen-T/F)
4.95 g/m*3
10-11-2019  01:05:00
8.86 g/m*3
07-11-2019  10:25:00
6.46 g/m*3
Windchill
(Aussen-T/F)
-0.22 C
10-11-2019  06:45:00
9.9 C
07-11-2019  13:45:00
4.92 C

Die Daten stammen von einer Davis Vantage Pro 2 Wetter-Station und werden unter Linux mit der Software wview2wettercgi und aufbereitet. Alle Angaben erfolgen ohne Gewähr für ihre Vollständigkeit oder Richtigkeit.
Kontakt: Rainer Krienke krienke@uni-koblenz.de . Meine Webseiten an der Uni Koblenz oder privat.
Version: $Revision: 0.78 $